TK1552 / TC-JSH 7700 Squawk Report (27th of May, 2019)

Aircraft A321 Reg No. TC-JSH Age 6 years old
Model A321 Jet engines 2 First flight 09-04-13
Registered 17-04-13 Rollout N/A Delivered 17-04-13
Construction No. 5546 Line No. N/A Series 231(SL)
ADSHEX 4BAA68 Airline name Turkish Airlines Owner N/A
Airfield based Istanbul-Ataturk (Yesilkoy)~Istanbul~TC First tracked 2017-07-14 22:26:00
Time Lat Lon Altitude Heading Speed Vertical Rate
2019-05-27 16:52:26 GMT 41.281269 28.711863 425 180 16 -896
2019-05-27 16:52:10 GMT 41.282455 28.711838 425 180 17 -896
2019-05-27 16:51:39 GMT 41.284367 28.711807 425 180 11 -896
2019-05-27 16:51:31 GMT 41.284710 28.711746 425 151 12 -896
2019-05-27 16:51:26 GMT 41.284958 28.711473 425 112 12 -896
2019-05-27 16:51:11 GMT 41.285007 28.710373 425 90 17 -896
2019-05-27 16:49:39 GMT 41.255898 28.707588 425 359 138 -768
2019-05-27 16:49:27 GMT 41.247936 28.707712 575 0 138 -768
2019-05-27 16:49:16 GMT 41.241047 28.707836 700 0 137 -768
2019-05-27 16:49:07 GMT 41.235123 28.707947 975 0 144 -640
2019-05-27 16:48:54 GMT 41.226849 28.708149 1,025 0 144 -640
2019-05-27 16:48:46 GMT 41.221588 28.708212 1,150 0 145 -768
2019-05-27 16:48:34 GMT 41.213745 28.708313 1,200 0 149 -768
2019-05-27 16:48:24 GMT 41.206833 28.708462 1,300 0 153 -768
2019-05-27 16:48:15 GMT 41.199337 28.708649 1,450 359 164 -960
2019-05-27 16:48:04 GMT 41.192047 28.708801 1,600 359 170 -960
2019-05-27 16:48:00 GMT 41.188164 28.708836 1,675 359 171 -896
2019-05-27 16:47:54 GMT 41.183121 28.708923 1,800 0 176 -960
2019-05-27 16:47:49 GMT 41.179646 28.708961 1,875 359 182 -832
2019-05-27 16:47:44 GMT 41.174942 28.709085 1,950 359 183 -960
2019-05-27 16:47:39 GMT 41.171448 28.709167 2,000 0 187 -960
2019-05-27 16:47:33 GMT 41.165680 28.709290 2,100 0 188 -1024
2019-05-27 16:47:27 GMT 41.160835 28.709398 2,200 0 190 -1024
2019-05-27 16:47:22 GMT 41.156788 28.709459 2,600 0 190 -1024
2019-05-27 16:47:16 GMT 41.150757 28.709534 2,400 0 192 -1024
2019-05-27 16:47:12 GMT 41.146591 28.709646 2,475 0 193 -1024
2019-05-27 16:47:05 GMT 41.140915 28.709778 2,575 0 195 -1024
2019-05-27 16:47:01 GMT 41.135651 28.709896 2,675 0 195 -1088
2019-05-27 16:46:53 GMT 41.130341 28.709961 2,800 0 195 -960
2019-05-27 16:46:49 GMT 41.126343 28.710022 2,850 0 195 -512
2019-05-27 16:46:42 GMT 41.120476 28.710148 2,900 0 195 0
2019-05-27 16:46:39 GMT 41.117157 28.710205 2,900 0 195 0
2019-05-27 16:46:31 GMT 41.111206 28.710327 2,900 359 194 0
2019-05-27 16:46:27 GMT 41.107304 28.710459 2,900 359 195 0
2019-05-27 16:46:20 GMT 41.100815 28.710571 2,900 0 197 0
2019-05-27 16:46:17 GMT 41.090973 28.710693 2,900 0 200 -64
2019-05-27 16:46:09 GMT 41.090973 28.710693 2,925 0 202 -128
2019-05-27 16:46:06 GMT 41.087608 28.710709 2,925 0 204 -64
2019-05-27 16:45:57 GMT 41.079090 28.710896 2,900 359 213 320
2019-05-27 16:45:54 GMT 41.076344 28.710958 2,900 359 218 -64
2019-05-27 16:45:47 GMT 41.063587 28.711395 2,900 359 224 0
2019-05-27 16:45:41 GMT 41.063587 28.711395 2,900 359 224 0
2019-05-27 16:45:37 GMT 41.057831 28.711670 2,900 358 225 0
2019-05-27 16:45:33 GMT 41.053627 28.711895 2,900 356 225 0
2019-05-27 16:45:26 GMT 41.046272 28.712519 2,900 356 224 0
2019-05-27 16:45:22 GMT 41.042408 28.712955 2,925 357 223 0
2019-05-27 16:45:14 GMT 41.035126 28.713135 2,900 11 222 0
2019-05-27 16:45:10 GMT 41.031006 28.712036 2,900 22 221 0
2019-05-27 16:45:00 GMT 41.020294 28.705383 2,925 28 223 0
2019-05-27 16:44:49 GMT 41.011032 28.699286 2,925 23 224 0
2019-05-27 16:44:42 GMT 41.000427 28.692749 2,925 29 221 192
2019-05-27 16:44:39 GMT 41.000427 28.692749 2,925 36 220 128
2019-05-27 16:44:28 GMT 40.993156 28.683617 2,925 61 220 256
2019-05-27 16:44:16 GMT 40.989075 28.669006 2,900 86 220 256
2019-05-27 16:44:05 GMT 40.989258 28.655334 2,900 94 214 0
2019-05-27 16:44:00 GMT 40.989670 28.648804 2,925 94 212 0
2019-05-27 16:43:53 GMT 40.990223 28.639174 2,925 94 213 0
2019-05-27 16:43:42 GMT 40.991089 28.625977 2,900 94 215 0
2019-05-27 16:43:39 GMT 40.991318 28.621826 2,900 94 216 0
2019-05-27 16:43:32 GMT 40.991943 28.611458 2,900 94 219 0
2019-05-27 16:43:28 GMT 40.992233 28.606567 2,925 94 220 -64
2019-05-27 16:43:21 GMT 40.992737 28.597351 2,925 94 222 -64
2019-05-27 16:43:15 GMT 40.993156 28.589422 2,950 94 225 -320
2019-05-27 16:43:10 GMT 40.993622 28.581493 2,975 93 226 -704
2019-05-27 16:43:03 GMT 40.994087 28.571943 3,050 93 227 -576
2019-05-27 16:42:58 GMT 40.994366 28.565577 3,075 92 228 -512
2019-05-27 16:42:53 GMT 40.994568 28.559326 3,125 92 229 -512
2019-05-27 16:42:47 GMT 40.994843 28.550537 3,175 91 230 -512
2019-05-27 16:42:41 GMT 40.995018 28.541670 3,225 90 230 -448
2019-05-27 16:42:37 GMT 40.995071 28.534424 3,275 90 231 -448
2019-05-27 16:42:30 GMT 40.995117 28.526978 3,300 90 232 -384
2019-05-27 16:42:26 GMT 40.995163 28.519287 3,350 91 234 -256
2019-05-27 16:42:19 GMT 40.995483 28.510620 3,375 100 240 -512
2019-05-27 16:42:14 GMT 40.996368 28.503592 3,425 109 240 -768
2019-05-27 16:42:09 GMT 40.998230 28.497009 3,525 118 239 -1024
2019-05-27 16:42:04 GMT 41.001892 28.489502 3,675 131 236 -1216
2019-05-27 16:41:58 GMT 41.005600 28.484192 3,800 137 234 -1216
2019-05-27 16:41:53 GMT 41.010864 28.477844 3,925 138 233 -1152
2019-05-27 16:41:46 GMT 41.015259 28.472717 4,025 138 233 -1024
2019-05-27 16:41:42 GMT 41.019150 28.467957 4,125 138 232 -704
2019-05-27 16:41:36 GMT 41.023178 28.463196 4,175 137 231 -448
2019-05-27 16:41:31 GMT 41.028351 28.457092 4,225 138 230 -256
2019-05-27 16:41:25 GMT 41.032352 28.452467 4,250 138 228 -384
2019-05-27 16:41:19 GMT 41.036316 28.447815 4,275 138 230 -384
2019-05-27 16:41:15 GMT 41.040218 28.443167 4,300 138 235 -448
2019-05-27 16:41:09 GMT 41.045380 28.437073 4,350 138 237 -896
2019-05-27 16:41:05 GMT 41.048859 28.432983 4,425 138 238 -1024
2019-05-27 16:41:01 GMT 41.051422 28.429871 4,475 138 238 -1024
2019-05-27 16:40:56 GMT 41.055542 28.425171 4,525 138 238 -1088
2019-05-27 16:40:52 GMT 41.058380 28.421692 4,625 138 240 -1088
2019-05-27 16:40:47 GMT 41.062912 28.416443 4,725 138 240 -1088
2019-05-27 16:40:44 GMT 41.065590 28.413204 4,775 138 241 -1088
2019-05-27 16:40:41 GMT 41.067825 28.410645 4,825 138 241 -1088
2019-05-27 16:40:34 GMT 41.073925 28.403341 4,925 138 242 -1088
2019-05-27 16:40:30 GMT 41.076950 28.399908 5,025 138 243 -1088
2019-05-27 16:40:23 GMT 41.083191 28.392639 5,175 138 245 -1088
2019-05-27 16:40:19 GMT 41.086304 28.388794 5,225 138 245 -1088
2019-05-27 16:40:13 GMT 41.092312 28.381868 5,325 138 245 -1088
2019-05-27 16:40:07 GMT 41.096512 28.376892 5,450 138 247 -1152
2019-05-27 16:40:02 GMT 41.101204 28.371382 5,525 138 247 -1152
2019-05-27 16:39:56 GMT 41.105759 28.366028 5,650 138 248 -1152
2019-05-27 16:39:52 GMT 41.109863 28.361267 5,750 138 249 -1152
2019-05-27 16:39:45 GMT 41.115635 28.354589 5,875 138 250 -1152
2019-05-27 16:39:41 GMT 41.119221 28.350283 5,950 138 251 -1152
2019-05-27 16:39:32 GMT 41.128372 28.339600 6,150 138 253 -1152
2019-05-27 16:39:27 GMT 41.131882 28.335426 6,225 138 253 -1152
2019-05-27 16:39:21 GMT 41.136703 28.329895 6,350 138 254 -1152
2019-05-27 16:39:10 GMT 41.146820 28.318054 6,550 138 253 -704
2019-05-27 16:39:01 GMT 41.154644 28.308771 6,650 138 253 -448
2019-05-27 16:38:57 GMT 41.158184 28.304588 6,675 138 253 -512
2019-05-27 16:38:48 GMT 41.165359 28.295898 6,775 138 254 -448
2019-05-27 16:38:39 GMT 41.174290 28.285362 6,825 137 254 -448
2019-05-27 16:38:26 GMT 41.185371 28.272129 6,925 137 255 -448
2019-05-27 16:38:17 GMT 41.194107 28.261597 7,000 137 255 -448
2019-05-27 16:38:05 GMT 41.203247 28.250530 7,100 137 255 -448
2019-05-27 16:37:55 GMT 41.212463 28.239563 7,175 137 257 -448
2019-05-27 16:37:43 GMT 41.222168 28.227966 7,250 137 260 -448
2019-05-27 16:37:32 GMT 41.232155 28.215948 7,350 138 265 -512
2019-05-27 16:37:20 GMT 41.242905 28.203369 7,475 138 269 -512
2019-05-27 16:37:11 GMT 41.251614 28.193165 7,550 138 275 -640
2019-05-27 16:37:07 GMT 41.256222 28.187798 7,600 138 275 -640
2019-05-27 16:37:01 GMT 41.262600 28.180555 7,675 138 281 -768
2019-05-27 16:36:57 GMT 41.265747 28.176880 7,725 138 282 -768
2019-05-27 16:36:51 GMT 41.272655 28.168819 7,825 138 286 -960
2019-05-27 16:36:48 GMT 41.274658 28.166386 7,850 138 287 -1664
2019-05-27 16:36:37 GMT 41.286987 28.151917 8,150 138 288 -2048
2019-05-27 16:36:27 GMT 41.296417 28.140808 8,475 138 292 -2432
2019-05-27 16:36:18 GMT 41.306396 28.129089 8,850 138 292 -2496
2019-05-27 16:36:14 GMT 41.308781 28.126186 8,950 138 293 -2560
2019-05-27 16:36:07 GMT 41.315762 28.118010 9,325 138 294 -2496
2019-05-27 16:36:03 GMT 41.319115 28.114077 9,375 138 294 -2560
2019-05-27 16:35:56 GMT 41.328194 28.103214 9,750 138 295 -2432
2019-05-27 16:35:52 GMT 41.338348 28.091187 9,950 137 309 -1088
2019-05-27 16:35:45 GMT 41.342194 28.086487 10,250 137 300 -1664
2019-05-27 16:35:41 GMT 41.350250 28.076965 10,325 137 309 -1088
2019-05-27 16:35:34 GMT 41.350250 28.076965 10,450 137 307 -1088
2019-05-27 16:35:29 GMT 41.355057 28.071106 11,775 137 317 -1152
2019-05-27 16:35:25 GMT 41.360596 28.064331 10,625 137 317 -1216
2019-05-27 16:35:22 GMT 41.362083 28.062328 10,650 137 319 -1216
2019-05-27 16:35:19 GMT 41.364830 28.059208 10,725 137 321 -1216
2019-05-27 16:35:11 GMT 41.373825 28.047974 10,825 136 329 -1280
2019-05-27 16:35:08 GMT 41.378220 28.042297 10,950 136 336 -1472
2019-05-27 16:35:01 GMT 41.386414 28.032471 11,125 136 344 -1472
2019-05-27 16:34:57 GMT 41.389297 28.028683 11,775 133 370 -2240
2019-05-27 16:34:53 GMT 41.395432 28.021067 11,325 136 353 -1536
2019-05-27 16:34:50 GMT 41.398499 28.017447 11,400 137 358 -1664
2019-05-27 16:34:46 GMT 41.402985 28.011953 11,500 136 360 -1728
2019-05-27 16:34:40 GMT 41.412220 28.000126 11,700 134 369 -2176
2019-05-27 16:34:35 GMT 41.417542 27.992977 11,825 131 374 -2368
2019-05-27 16:34:32 GMT 41.421249 27.987295 12,000 127 380 -2624
2019-05-27 16:34:28 GMT 41.424881 27.980965 12,125 124 383 -3456
2019-05-27 16:34:22 GMT 41.430607 27.969402 12,425 119 386 -4480
2019-05-27 16:34:18 GMT 41.435032 27.958418 12,775 115 389 -4416
2019-05-27 16:34:13 GMT 41.438232 27.949095 13,050 110 391 -4416
2019-05-27 16:34:09 GMT 41.442993 27.930679 13,600 105 397 -3904
2019-05-27 16:34:02 GMT 41.444107 27.924883 13,750 99 406 -3200
2019-05-27 16:33:59 GMT 41.445549 27.915365 13,950 98 407 -3136
2019-05-27 16:33:56 GMT 41.446434 27.906935 14,100 95 409 -3136
2019-05-27 16:33:45 GMT 41.447319 27.881065 14,625 89 415 -3200
2019-05-27 16:33:40 GMT 41.447205 27.871004 14,825 89 415 -3328
2019-05-27 16:33:36 GMT 41.447067 27.860205 15,025 89 413 -3392
2019-05-27 16:33:33 GMT 41.446945 27.851683 15,225 89 413 -3456
2019-05-27 16:33:29 GMT 41.446808 27.839930 15,450 89 412 -3392
2019-05-27 16:33:23 GMT 41.446621 27.823898 16,800 89 411 -2880
2019-05-27 16:33:18 GMT 41.446518 27.814947 16,000 89 413 -2240
2019-05-27 16:33:15 GMT 41.446426 27.806023 16,150 89 413 -2240
2019-05-27 16:33:11 GMT 41.446335 27.795473 16,300 89 415 -1856
2019-05-27 16:33:05 GMT 41.446152 27.776997 16,475 89 420 -1600
2019-05-27 16:33:01 GMT 41.446110 27.766220 16,600 89 422 -1920
2019-05-27 16:32:53 GMT 41.445969 27.750404 16,825 89 425 -2624
2019-05-27 16:32:50 GMT 41.445877 27.738543 17,000 89 426 -2112
2019-05-27 16:32:45 GMT 41.445786 27.727119 17,150 89 428 -2432
2019-05-27 16:32:42 GMT 41.445690 27.719912 17,250 89 429 -2624
2019-05-27 16:32:38 GMT 41.445602 27.707706 17,425 89 430 -2752
2019-05-27 16:32:34 GMT 41.445503 27.699726 17,575 89 430 -2944
2019-05-27 16:32:31 GMT 41.445465 27.693600 17,700 89 430 -3136
2019-05-27 16:32:26 GMT 41.445282 27.678057 17,975 88 429 -3392
2019-05-27 16:32:21 GMT 41.445084 27.665108 18,250 88 428 -3456
2019-05-27 16:32:16 GMT 41.444851 27.648563 18,575 88 426 -3712
2019-05-27 16:32:11 GMT 41.444668 27.637003 18,875 89 423 -3584
2019-05-27 16:32:04 GMT 41.444481 27.620459 19,250 90 420 -3136
2019-05-27 16:31:59 GMT 41.444550 27.608892 19,475 93 417 -1984
2019-05-27 16:31:53 GMT 41.445557 27.590666 19,700 98 414 -1152
2019-05-27 16:31:48 GMT 41.447041 27.578623 19,825 102 411 -768
2019-05-27 16:31:43 GMT 41.448391 27.569807 19,900 104 410 -704
2019-05-27 16:31:38 GMT 41.451042 27.557287 19,975 110 404 -704
2019-05-27 16:31:31 GMT 41.456398 27.538893 20,100 115 403 -704
2019-05-27 16:31:27 GMT 41.459564 27.530302 20,150 122 404 -768
2019-05-27 16:31:23 GMT 41.463657 27.520945 20,225 122 404 -768
2019-05-27 16:31:17 GMT 41.470184 27.508205 20,350 128 403 -704
2019-05-27 16:31:13 GMT 41.473114 27.503336 20,375 130 403 -704
2019-05-27 16:31:09 GMT 41.480141 27.492710 20,450 135 403 -768
2019-05-27 16:31:03 GMT 41.487671 27.483236 20,550 140 402 -832
2019-05-27 16:30:55 GMT 41.498245 27.472313 20,700 146 400 -1024
2019-05-27 16:30:52 GMT 41.502914 27.468380 20,750 148 400 -1024
2019-05-27 16:30:45 GMT 41.515686 27.459080 20,900 156 399 -1536
2019-05-27 16:30:34 GMT 41.532787 27.449469 21,225 157 400 -1664
2019-05-27 16:30:31 GMT 41.538052 27.446657 21,225 157 400 -1664
2019-05-27 16:30:24 GMT 41.552124 27.439104 21,500 158 402 -1600
2019-05-27 16:30:13 GMT 41.571987 27.428646 21,750 158 408 -1600
2019-05-27 16:29:59 GMT 41.594097 27.417084 22,100 158 411 -1728
2019-05-27 16:29:51 GMT 41.614838 27.406206 22,425 158 414 -2176
2019-05-27 16:29:44 GMT 41.619507 27.403959 22,550 158 415 -2304
2019-05-27 16:29:38 GMT 41.630905 27.397842 22,775 158 415 -2688
2019-05-27 16:29:30 GMT 41.648300 27.388292 23,200 155 416 -3200
2019-05-27 16:29:26 GMT 41.655762 27.383860 23,425 150 416 -3648
2019-05-27 16:29:18 GMT 41.671421 27.371286 23,900 144 414 -4032
2019-05-27 16:29:15 GMT 41.671421 27.371286 24,225 135 411 -3264
2019-05-27 16:29:07 GMT 41.683685 27.358017 24,475 135 411 -3264
2019-05-27 16:29:04 GMT 41.688087 27.352060 24,625 132 410 -2496
2019-05-27 16:28:55 GMT 41.698051 27.336220 24,950 126 410 -896
2019-05-27 16:28:52 GMT 41.700981 27.331303 24,975 125 411 -384
2019-05-27 16:28:46 GMT 41.708431 27.316866 25,000 124 413 -128
2019-05-27 16:28:43 GMT 41.711456 27.311245 25,000 124 413 -128
2019-05-27 16:28:40 GMT 41.714401 27.305269 25,000 124 413 -192
2019-05-27 16:28:36 GMT 41.720722 27.293169 25,050 124 414 -576
2019-05-27 16:28:33 GMT 41.722321 27.290415 25,050 124 415 -896
2019-05-27 16:28:22 GMT 41.734688 27.266470 25,225 124 416 -1088
2019-05-27 16:28:14 GMT 41.743835 27.249151 25,350 124 416 -1088
2019-05-27 16:28:10 GMT 41.748837 27.239578 25,450 124 415 -1024
2019-05-27 16:28:03 GMT 41.761368 27.215195 25,600 124 415 -1024
2019-05-27 16:27:59 GMT 41.761368 27.215195 25,650 124 415 -960
2019-05-27 16:27:51 GMT 41.772629 27.193472 25,775 124 415 -960
2019-05-27 16:27:48 GMT 41.772629 27.193472 25,800 124 416 -1088
2019-05-27 16:27:44 GMT 41.776257 27.186819 25,875 124 416 -1088
2019-05-27 16:27:38 GMT 41.782333 27.175119 25,975 124 417 -1216
2019-05-27 16:27:34 GMT 41.787060 27.166187 26,050 124 418 -1536
2019-05-27 16:27:31 GMT 41.792366 27.156158 26,150 125 420 -1536
2019-05-27 16:27:28 GMT 41.793823 27.153023 26,175 125 420 -1536
2019-05-27 16:27:25 GMT 41.797485 27.146467 26,275 124 420 -1600
2019-05-27 16:27:18 GMT 41.805313 27.131363 26,475 124 422 -1728
2019-05-27 16:27:15 GMT 41.809387 27.123058 26,575 122 422 -1856
2019-05-27 16:27:10 GMT 41.813919 27.113684 26,675 121 426 -1728
2019-05-27 16:27:07 GMT 41.816807 27.107742 26,750 121 426 -1728
2019-05-27 16:27:03 GMT 41.821552 27.097267 26,875 121 426 -1728
2019-05-27 16:26:56 GMT 41.827511 27.084173 27,050 121 427 -1728
2019-05-27 16:26:53 GMT 41.831497 27.075495 27,175 121 428 -1728
2019-05-27 16:26:46 GMT 41.838776 27.059326 27,325 121 433 -1728
2019-05-27 16:26:41 GMT 41.843674 27.048527 27,475 121 431 -1664
2019-05-27 16:26:36 GMT 41.849258 27.036167 27,700 121 434 -1472
2019-05-27 16:26:31 GMT 41.854156 27.025431 27,775 121 433 -1728
2019-05-27 16:26:28 GMT 41.857040 27.019314 27,850 121 433 -1728
2019-05-27 16:26:24 GMT 41.861214 27.010078 28,150 121 434 -1472
2019-05-27 16:26:20 GMT 41.866104 26.999338 28,250 121 433 -1344
2019-05-27 16:26:16 GMT 41.871552 26.987341 28,275 121 433 -768
2019-05-27 16:26:07 GMT 41.879837 26.969063 28,350 121 434 -896
2019-05-27 16:26:04 GMT 41.881577 26.965319 28,375 121 434 -960
2019-05-27 16:25:56 GMT 41.893478 26.938976 28,575 121 436 -960
2019-05-27 16:25:53 GMT 41.893478 26.938976 28,550 121 436 -960
2019-05-27 16:25:45 GMT 41.901855 26.920782 28,700 121 437 -1024
2019-05-27 16:25:42 GMT 41.904465 26.914694 28,725 121 437 -1024
2019-05-27 16:25:34 GMT 41.913914 26.893702 28,900 121 438 -1024
2019-05-27 16:25:31 GMT 41.917313 26.886482 28,950 121 438 -1024
2019-05-27 16:25:21 GMT 41.927124 26.864693 29,100 121 438 -1024
2019-05-27 16:25:13 GMT 41.935959 26.844969 29,275 120 439 -960
2019-05-27 16:25:10 GMT 41.938400 26.839279 29,300 120 439 -960
2019-05-27 16:25:02 GMT 41.947861 26.818314 29,425 120 440 -896
2019-05-27 16:24:59 GMT 41.950272 26.812325 29,450 120 441 -896
2019-05-27 16:24:49 GMT 41.961182 26.788288 29,625 122 442 -896
2019-05-27 16:24:39 GMT 41.972855 26.764755 29,800 126 441 -960
2019-05-27 16:24:27 GMT 41.985882 26.742064 30,000 128 440 -960
2019-05-27 16:24:17 GMT 42.000137 26.717690 30,125 128 441 -896
2019-05-27 16:24:08 GMT 42.010849 26.699837 30,300 128 441 -960
2019-05-27 16:24:02 GMT 42.018143 26.687515 30,375 128 441 -1024
2019-05-27 16:23:58 GMT 42.023960 26.677807 30,475 128 441 -1024
2019-05-27 16:23:54 GMT 42.032501 26.663631 30,575 128 442 -1024
2019-05-27 16:23:44 GMT 42.040970 26.649399 30,700 128 443 -1024
2019-05-27 16:23:40 GMT 42.046261 26.640696 30,775 128 442 -960
2019-05-27 16:23:34 GMT 42.055710 26.624472 30,875 128 442 -832
2019-05-27 16:23:29 GMT 42.060333 26.616753 30,925 128 442 -640
2019-05-27 16:23:26 GMT 42.065346 26.608631 31,000 128 442 -704
2019-05-27 16:23:12 GMT 42.082710 26.579313 31,175 128 443 -1024
2019-05-27 16:23:05 GMT 42.092285 26.562757 31,300 128 443 -1024
2019-05-27 16:23:00 GMT 42.097885 26.553444 31,375 128 443 -960
2019-05-27 16:22:53 GMT 42.106686 26.538816 31,500 128 443 -960
2019-05-27 16:22:50 GMT 42.109909 26.532982 31,550 128 443 -960
2019-05-27 16:22:43 GMT 42.120392 26.515629 31,675 128 442 -960
2019-05-27 16:22:39 GMT 42.124924 26.507826 31,725 128 443 -960
2019-05-27 16:22:32 GMT 42.133575 26.493031 31,850 128 441 -896
2019-05-27 16:22:28 GMT 42.138340 26.485228 31,900 128 441 -896
2019-05-27 16:22:23 GMT 42.145523 26.472994 32,000 128 441 -896
2019-05-27 16:22:16 GMT 42.154266 26.458138 32,100 128 439 -896
2019-05-27 16:22:12 GMT 42.160583 26.447275 32,175 128 439 -896
2019-05-27 16:22:06 GMT 42.165939 26.438536 32,275 128 439 -896
2019-05-27 16:22:02 GMT 42.171810 26.428444 32,325 128 439 -832
2019-05-27 16:21:55 GMT 42.180450 26.414066 32,425 128 438 -832
2019-05-27 16:21:48 GMT 42.189468 26.398586 32,525 128 438 -896
2019-05-27 16:21:45 GMT 42.192482 26.393631 32,575 128 438 -896
2019-05-27 16:21:41 GMT 42.198208 26.384050 32,625 128 438 -960
2019-05-27 16:21:35 GMT 42.206909 26.369061 32,750 128 438 -960
2019-05-27 16:21:31 GMT 42.210869 26.362652 32,775 128 438 -896
2019-05-27 16:21:23 GMT 42.221191 26.344839 32,900 128 439 -704
2019-05-27 16:21:20 GMT 42.224121 26.340034 32,975 128 439 -512
2019-05-27 16:21:12 GMT 42.233871 26.323679 33,025 128 439 0
2019-05-27 16:21:09 GMT 42.239033 26.314875 33,025 128 439 0
2019-05-27 16:21:02 GMT 42.247971 26.299929 32,975 128 439 0
2019-05-27 16:20:55 GMT 42.255707 26.286350 33,000 128 439 64
2019-05-27 16:20:51 GMT 42.260864 26.277700 33,000 128 439 64
2019-05-27 16:20:47 GMT 42.267151 26.267033 33,000 128 438 64
2019-05-27 16:20:40 GMT 42.274414 26.254515 32,975 128 438 64
2019-05-27 16:20:35 GMT 42.282761 26.240595 32,975 128 438 0
2019-05-27 16:20:30 GMT 42.287449 26.232733 32,975 128 438 0
2019-05-27 16:20:26 GMT 42.293015 26.223118 32,975 128 438 0
2019-05-27 16:20:23 GMT 42.297455 26.215565 32,975 128 437 0
2019-05-27 16:20:19 GMT 42.300762 26.209993 32,975 128 437 0
2019-05-27 16:20:16 GMT 42.306580 26.199965 32,975 128 437 0
2019-05-27 16:20:11 GMT 42.312744 26.189533 32,975 128 437 0
2019-05-27 16:20:08 GMT 42.314075 26.187063 32,975 128 436 64
2019-05-27 16:20:02 GMT 42.321617 26.174095 32,975 128 436 64
2019-05-27 16:19:58 GMT 42.327484 26.164064 32,975 128 436 64
2019-05-27 16:19:55 GMT 42.332371 26.155891 32,950 128 436 64
2019-05-27 16:19:51 GMT 42.337738 26.146774 32,950 128 436 0
2019-05-27 16:19:44 GMT 42.344971 26.134165 32,950 128 435 0
2019-05-27 16:19:40 GMT 42.350803 26.124275 32,950 128 435 0
2019-05-27 16:19:36 GMT 42.354946 26.117121 32,950 128 435 64
2019-05-27 16:19:33 GMT 42.358860 26.110605 32,950 128 435 0
2019-05-27 16:19:26 GMT 42.368134 26.094402 32,925 128 434 0
2019-05-27 16:19:23 GMT 42.373058 26.086269 32,925 128 434 0
2019-05-27 16:19:15 GMT 42.380924 26.072664 32,950 128 434 0
2019-05-27 16:19:12 GMT 42.385300 26.065126 32,950 128 433 0
2019-05-27 16:19:04 GMT 42.394501 26.049644 32,950 128 433 -64
2019-05-27 16:19:01 GMT 42.399216 26.041405 32,950 128 433 0
2019-05-27 16:18:54 GMT 42.406448 26.029108 32,950 128 432 0
2019-05-27 16:18:51 GMT 42.411575 26.020308 32,950 128 432 0
2019-05-27 16:18:43 GMT 42.424988 25.997210 32,950 128 432 0
2019-05-27 16:18:40 GMT 42.424988 25.997210 32,950 128 432 0
2019-05-27 16:18:33 GMT 42.433296 25.982731 32,950 128 432 0
2019-05-27 16:18:28 GMT 42.437439 25.975704 32,950 128 431 0
2019-05-27 16:18:21 GMT 42.452133 25.950331 32,950 128 431 0
2019-05-27 16:18:11 GMT 42.461460 25.934441 32,950 128 431 0
2019-05-27 16:18:08 GMT 42.463367 25.930992 32,975 128 431 0
2019-05-27 16:17:58 GMT 42.476303 25.908758 32,950 128 431 0
2019-05-27 16:17:50 GMT 42.491116 25.883215 32,975 128 431 0
2019-05-27 16:17:43 GMT 42.493515 25.879045 32,975 128 431 0
2019-05-27 16:17:40 GMT 42.499191 25.869246 32,975 128 431 0
2019-05-27 16:17:37 GMT 42.502148 25.864117 32,975 128 431 0
2019-05-27 16:17:34 GMT 42.506199 25.857218 32,975 128 431 0
2019-05-27 16:17:28 GMT 42.519424 25.834351 32,975 128 431 0
2019-05-27 16:17:24 GMT 42.519424 25.834351 32,975 128 431 0
2019-05-27 16:17:18 GMT 42.525146 25.824425 32,975 128 431 0
2019-05-27 16:17:15 GMT 42.528263 25.818893 32,975 128 431 0
2019-05-27 16:17:12 GMT 42.533020 25.810631 32,975 128 431 0
2019-05-27 16:17:05 GMT 42.541718 25.795774 32,975 128 432 0
2019-05-27 16:17:02 GMT 42.545700 25.788532 32,975 128 432 0
2019-05-27 16:16:56 GMT 42.557465 25.768370 33,000 128 433 0
2019-05-27 16:16:52 GMT 42.557465 25.768370 33,000 128 433 0
2019-05-27 16:16:48 GMT 42.562592 25.759506 33,000 128 433 0
2019-05-27 16:16:44 GMT 42.567307 25.751579 32,975 128 433 0
2019-05-27 16:16:41 GMT 42.571060 25.745024 33,000 128 433 0
2019-05-27 16:16:34 GMT 42.580673 25.728420 33,000 128 433 0
2019-05-27 16:16:30 GMT 42.584217 25.722380 33,000 127 433 0
2019-05-27 16:16:24 GMT 42.592552 25.707497 33,000 127 433 -64
2019-05-27 16:16:19 GMT 42.598743 25.696766 33,000 127 434 0
2019-05-27 16:16:11 GMT 42.608185 25.680729 33,025 127 434 0
2019-05-27 16:16:08 GMT 42.611172 25.675432 33,025 127 434 0
2019-05-27 16:16:01 GMT 42.619812 25.660379 33,025 127 435 0
2019-05-27 16:15:58 GMT 42.623795 25.653263 33,025 127 435 0
2019-05-27 16:15:51 GMT 42.637753 25.628675 33,025 127 435 0
2019-05-27 16:15:40 GMT 42.645996 25.613750 33,025 127 435 0
2019-05-27 16:15:37 GMT 42.650185 25.606384 33,025 127 435 0
2019-05-27 16:15:29 GMT 42.661308 25.586840 33,025 128 436 64
2019-05-27 16:15:26 GMT 42.663589 25.582495 33,025 129 435 64
2019-05-27 16:15:19 GMT 42.671410 25.570423 33,050 131 434 128
2019-05-27 16:15:15 GMT 42.677765 25.561003 33,025 134 432 128
2019-05-27 16:15:11 GMT 42.688705 25.546209 33,025 136 431 0
2019-05-27 16:15:07 GMT 42.688705 25.546209 33,025 136 431 0
2019-05-27 16:15:04 GMT 42.693150 25.540787 33,025 136 431 0
2019-05-27 16:15:01 GMT 42.698502 25.533850 33,050 136 431 0
2019-05-27 16:14:58 GMT 42.702507 25.528776 33,025 136 431 0
2019-05-27 16:14:54 GMT 42.707211 25.522837 33,025 136 431 0
2019-05-27 16:14:51 GMT 42.714050 25.514023 33,025 136 431 0
2019-05-27 16:14:47 GMT 42.717590 25.509169 33,025 136 430 64
2019-05-27 16:14:44 GMT 42.723083 25.502270 33,025 136 430 64
2019-05-27 16:14:38 GMT 42.733292 25.489281 33,025 136 430 64
2019-05-27 16:14:34 GMT 42.738098 25.482975 33,000 136 430 64
2019-05-27 16:14:30 GMT 42.742542 25.477488 33,000 136 430 64
2019-05-27 16:14:23 GMT 42.752644 25.464266 33,000 136 430 64
2019-05-27 16:14:20 GMT 42.759430 25.455509 33,000 136 430 0
2019-05-27 16:14:15 GMT 42.764004 25.449894 32,975 136 427 0
2019-05-27 16:14:12 GMT 42.770149 25.442101 33,000 136 429 0
2019-05-27 16:14:09 GMT 42.772709 25.438522 33,000 136 429 0
2019-05-27 16:14:02 GMT 42.782902 25.425686 33,000 136 429 0
2019-05-27 16:13:59 GMT 42.787605 25.419424 32,975 136 428 0
2019-05-27 16:13:55 GMT 42.792892 25.412687 32,975 136 428 0
2019-05-27 16:13:52 GMT 42.798637 25.405500 32,975 136 428 0
2019-05-27 16:13:48 GMT 42.805435 25.396814 32,975 136 427 0
2019-05-27 16:13:42 GMT 42.811535 25.389011 32,975 136 427 0
2019-05-27 16:13:38 GMT 42.817291 25.381613 32,975 136 427 0
2019-05-27 16:13:34 GMT 42.824940 25.371813 32,975 136 426 0
2019-05-27 16:13:31 GMT 42.828873 25.366537 32,975 136 426 0
2019-05-27 16:13:28 GMT 42.832855 25.361742 32,975 136 426 0
2019-05-27 16:13:20 GMT 42.842213 25.349447 32,975 136 426 0
2019-05-27 16:13:16 GMT 42.848053 25.341946 32,975 136 425 0
2019-05-27 16:13:12 GMT 42.855339 25.332577 32,975 136 425 0
2019-05-27 16:13:09 GMT 42.859451 25.327511 32,975 136 425 0
2019-05-27 16:13:06 GMT 42.864166 25.321379 32,975 136 425 0
2019-05-27 16:13:02 GMT 42.871033 25.312500 32,975 136 425 0
2019-05-27 16:12:58 GMT 42.876007 25.306091 32,975 136 425 0
2019-05-27 16:12:55 GMT 42.879032 25.302364 32,975 136 425 0
2019-05-27 16:12:51 GMT 42.884766 25.294870 32,975 136 425 0
2019-05-27 16:12:48 GMT 42.888336 25.290209 32,975 136 425 0
2019-05-27 16:12:45 GMT 42.898258 25.277384 32,975 136 425 0
2019-05-27 16:12:38 GMT 42.904221 25.269577 32,975 136 425 0
2019-05-27 16:12:35 GMT 42.908340 25.264530 32,975 136 425 0
2019-05-27 16:12:32 GMT 42.911434 25.260447 32,975 136 425 0
2019-05-27 16:12:28 GMT 42.918457 25.251436 32,950 136 425 0
2019-05-27 16:12:23 GMT 42.926331 25.241285 32,975 136 425 0
2019-05-27 16:12:20 GMT 42.930149 25.236183 32,975 136 424 0
2019-05-27 16:12:15 GMT 42.937317 25.226898 32,950 136 424 0
2019-05-27 16:12:11 GMT 42.949127 25.211836 32,975 136 424 0
2019-05-27 16:12:06 GMT 42.949127 25.211836 32,975 136 423 0
2019-05-27 16:12:03 GMT 42.952927 25.206917 32,975 136 423 0
2019-05-27 16:12:00 GMT 42.964142 25.192289 32,975 136 422 0
2019-05-27 16:11:55 GMT 42.964142 25.192289 32,975 136 423 0
2019-05-27 16:11:49 GMT 42.972927 25.180796 33,000 136 422 0
2019-05-27 16:11:44 GMT 42.980286 25.171377 32,975 136 422 0
2019-05-27 16:11:39 GMT 42.987534 25.162012 32,975 136 422 0
2019-05-27 16:11:33 GMT 42.995972 25.151106 32,975 136 422 0
2019-05-27 16:11:27 GMT 43.004150 25.140360 33,000 136 422 0
2019-05-27 16:11:22 GMT 43.011848 25.130375 32,975 136 423 0
2019-05-27 16:11:19 GMT 43.014828 25.126516 33,000 136 423 0
2019-05-27 16:11:16 GMT 43.019989 25.119663 33,000 136 423 0
2019-05-27 16:11:12 GMT 43.024883 25.113373 33,000 136 423 0
2019-05-27 16:11:03 GMT 43.038288 25.096043 33,000 136 423 0
2019-05-27 16:11:00 GMT 43.043594 25.089243 33,000 136 423 0
2019-05-27 16:10:56 GMT 43.047226 25.084341 33,000 136 424 0
2019-05-27 16:10:53 GMT 43.055653 25.073547 33,000 136 423 0
2019-05-27 16:10:47 GMT 43.060959 25.066484 33,000 136 423 0
2019-05-27 16:10:42 GMT 43.068314 25.056936 33,000 136 423 0
2019-05-27 16:10:39 GMT 43.072220 25.052023 33,000 136 424 0
2019-05-27 16:10:36 GMT 43.076183 25.046801 33,000 136 424 0
2019-05-27 16:10:32 GMT 43.082748 25.038288 33,000 136 424 0
2019-05-27 16:10:29 GMT 43.085358 25.034777 33,000 136 423 0
2019-05-27 16:10:25 GMT 43.092381 25.025743 33,000 136 424 0
2019-05-27 16:10:22 GMT 43.096344 25.020596 33,000 136 423 0
2019-05-27 16:10:19 GMT 43.100739 25.014719 33,000 136 423 0
2019-05-27 16:10:16 GMT 43.105835 25.008348 33,000 136 422 0
2019-05-27 16:10:12 GMT 43.113007 24.998943 33,000 136 422 0
2019-05-27 16:10:08 GMT 43.116032 24.994944 33,000 136 422 0
2019-05-27 16:10:05 GMT 43.120731 24.988729 33,000 136 422 0
2019-05-27 16:10:01 GMT 43.127380 24.980101 33,000 136 422 0
2019-05-27 16:09:57 GMT 43.132416 24.973585 33,000 136 422 0
2019-05-27 16:09:54 GMT 43.135574 24.969433 33,000 136 422 0
2019-05-27 16:09:50 GMT 43.142807 24.959915 33,000 136 422 0
2019-05-27 16:09:44 GMT 43.149582 24.951229 33,000 136 422 0
2019-05-27 16:09:37 GMT 43.159882 24.937752 33,000 136 422 0
2019-05-27 16:09:33 GMT 43.164909 24.931183 33,000 136 422 0
2019-05-27 16:09:29 GMT 43.176037 24.916405 33,000 136 422 0
2019-05-27 16:09:23 GMT 43.181488 24.909647 33,000 136 422 0
2019-05-27 16:09:17 GMT 43.188675 24.900129 33,000 136 422 0
2019-05-27 16:09:12 GMT 43.194469 24.892534 33,000 136 422 0
2019-05-27 16:09:06 GMT 43.204880 24.878986 33,000 136 422 0
2019-05-27 16:09:02 GMT 43.209972 24.872261 33,000 136 422 0
2019-05-27 16:08:57 GMT 43.216583 24.863565 33,000 136 422 0
2019-05-27 16:08:52 GMT 43.223740 24.854204 33,025 136 422 0
2019-05-27 16:08:45 GMT 43.232456 24.842964 33,000 136 422 0
2019-05-27 16:08:41 GMT 43.238602 24.834856 33,000 136 422 0
2019-05-27 16:08:36 GMT 43.248425 24.822170 33,000 136 422 0
2019-05-27 16:08:30 GMT 43.253311 24.815565 33,000 136 422 64
2019-05-27 16:08:25 GMT 43.262329 24.803806 33,000 136 422 0
2019-05-27 16:08:20 GMT 43.268955 24.795095 33,000 136 422 0
2019-05-27 16:08:17 GMT 43.275520 24.786530 33,000 136 422 0
2019-05-27 16:08:10 GMT 43.283844 24.775448 33,000 136 421 0
2019-05-27 16:08:04 GMT 43.292084 24.764845 32,975 136 421 0
2019-05-27 16:07:59 GMT 43.298080 24.756668 32,975 136 421 0
2019-05-27 16:07:52 GMT 43.309708 24.741594 32,975 136 421 0
2019-05-27 16:07:48 GMT 43.313873 24.736229 32,975 136 421 0
2019-05-27 16:07:42 GMT 43.322910 24.724209 32,975 136 421 0
2019-05-27 16:07:38 GMT 43.326725 24.719173 32,975 136 421 0
2019-05-27 16:07:34 GMT 43.333374 24.710550 32,975 136 421 0
2019-05-27 16:07:28 GMT 43.345531 24.694387 32,975 136 421 0
2019-05-27 16:07:19 GMT 43.353168 24.684448 32,975 136 421 0
2019-05-27 16:07:16 GMT 43.358055 24.678040 32,975 136 420 0
2019-05-27 16:07:13 GMT 43.362213 24.672228 32,975 136 420 0
2019-05-27 16:07:10 GMT 43.373280 24.658030 32,975 136 420 0
2019-05-27 16:07:06 GMT 43.373280 24.658030 32,975 136 420 0
2019-05-27 16:07:02 GMT 43.378445 24.651096 32,975 136 420 0
2019-05-27 16:06:59 GMT 43.389450 24.636457 32,975 136 420 0
2019-05-27 16:06:54 GMT 43.389450 24.636457 32,975 136 420 0
2019-05-27 16:06:51 GMT 43.393387 24.631538 32,975 136 420 0
2019-05-27 16:06:46 GMT 43.400513 24.622128 32,975 136 419 0
2019-05-27 16:06:42 GMT 43.406284 24.614540 32,975 136 419 0
2019-05-27 16:06:36 GMT 43.415497 24.602413 32,975 136 419 0
2019-05-27 16:06:31 GMT 43.420624 24.595510 32,975 136 419 0
2019-05-27 16:06:26 GMT 43.428677 24.584721 32,975 136 419 0
2019-05-27 16:06:21 GMT 43.435776 24.575331 32,975 136 419 0
2019-05-27 16:06:15 GMT 43.444611 24.563705 32,975 136 418 0
2019-05-27 16:06:10 GMT 43.451843 24.554253 32,975 136 419 0
2019-05-27 16:06:05 GMT 43.457977 24.546204 32,975 136 419 0
2019-05-27 16:06:01 GMT 43.463425 24.538731 32,975 135 418 0
2019-05-27 16:05:54 GMT 43.473083 24.526211 32,975 136 418 0
2019-05-27 16:05:48 GMT 43.482212 24.514292 32,975 136 418 0
2019-05-27 16:05:44 GMT 43.486862 24.508072 32,975 136 418 0
2019-05-27 16:05:38 GMT 43.494644 24.497723 32,975 136 418 0
2019-05-27 16:05:33 GMT 43.502556 24.487152 32,975 136 418 0
2019-05-27 16:05:28 GMT 43.509865 24.477604 32,950 136 417 0
2019-05-27 16:05:20 GMT 43.520432 24.463806 32,950 136 417 0
2019-05-27 16:05:15 GMT 43.526642 24.455629 32,950 136 417 0
2019-05-27 16:05:12 GMT 43.531696 24.448832 32,950 136 417 0
2019-05-27 16:05:08 GMT 43.536816 24.441833 32,950 136 417 0
2019-05-27 16:05:05 GMT 43.541798 24.435425 32,950 135 417 0
2019-05-27 16:05:00 GMT 43.550583 24.423437 32,950 135 417 0
2019-05-27 16:04:56 GMT 43.560333 24.410917 32,950 135 417 0
2019-05-27 16:04:51 GMT 43.560333 24.410917 32,950 136 417 0
2019-05-27 16:04:48 GMT 43.564865 24.404787 32,950 136 417 0
2019-05-27 16:04:45 GMT 43.570587 24.397058 32,950 136 417 0
2019-05-27 16:04:42 GMT 43.574898 24.391609 32,950 136 417 0
2019-05-27 16:04:39 GMT 43.579468 24.385496 32,950 136 417 0
2019-05-27 16:04:32 GMT 43.587048 24.375523 32,950 136 417 0
2019-05-27 16:04:28 GMT 43.592258 24.368526 32,950 136 417 0
2019-05-27 16:04:23 GMT 43.600128 24.358128 32,950 135 418 0
2019-05-27 16:04:20 GMT 43.604233 24.352409 32,950 135 418 0
2019-05-27 16:04:16 GMT 43.609810 24.344984 32,950 135 418 0
2019-05-27 16:04:11 GMT 43.616653 24.335958 32,950 135 418 0
2019-05-27 16:04:08 GMT 43.620377 24.331184 32,950 135 417 0
2019-05-27 16:04:05 GMT 43.624878 24.325071 32,950 135 417 0
2019-05-27 16:03:59 GMT 43.633026 24.314278 32,950 135 418 -64
2019-05-27 16:03:55 GMT 43.638474 24.306868 32,950 135 418 0
2019-05-27 16:03:48 GMT 43.648029 24.294172 32,975 135 418 -64
2019-05-27 16:03:40 GMT 43.658981 24.279339 32,975 135 418 -64
2019-05-27 16:03:37 GMT 43.662506 24.274357 32,975 135 419 -64
2019-05-27 16:03:34 GMT 43.668182 24.266819 32,975 137 418 0
2019-05-27 16:03:28 GMT 43.676147 24.255960 33,000 136 418 0
2019-05-27 16:03:25 GMT 43.681183 24.249638 33,000 137 417 0
2019-05-27 16:03:18 GMT 43.691437 24.236797 33,000 139 417 0
2019-05-27 16:03:14 GMT 43.696243 24.230923 33,000 139 417 0
2019-05-27 16:03:08 GMT 43.705288 24.220407 33,000 140 416 0
2019-05-27 16:03:05 GMT 43.710663 24.214314 33,025 140 416 0
2019-05-27 16:02:54 GMT 43.724747 24.197910 33,025 140 417 0
2019-05-27 16:02:45 GMT 43.739319 24.181301 33,025 140 418 0
2019-05-27 16:02:36 GMT 43.752594 24.166153 33,025 140 418 0
2019-05-27 16:02:33 GMT 43.757904 24.160086 33,025 140 418 0
2019-05-27 16:02:30 GMT 43.759918 24.157530 33,025 140 418 0
2019-05-27 16:02:23 GMT 43.771626 24.144222 33,025 140 418 0
2019-05-27 16:02:14 GMT 43.785965 24.127611 33,025 140 418 0
2019-05-27 16:02:10 GMT 43.800659 24.110710 33,025 140 418 64
2019-05-27 16:02:03 GMT 43.800659 24.110710 33,025 140 419 64
2019-05-27 16:02:00 GMT 43.805656 24.104855 33,000 140 419 64
2019-05-27 16:01:53 GMT 43.816502 24.092299 33,000 140 420 0
2019-05-27 16:01:50 GMT 43.821625 24.086348 33,000 140 420 0
2019-05-27 16:01:46 GMT 43.827164 24.079668 33,000 140 420 64
2019-05-27 16:01:43 GMT 43.831512 24.074686 33,000 140 420 0
2019-05-27 16:01:39 GMT 43.837078 24.068495 33,000 140 420 0
2019-05-27 16:01:35 GMT 43.842945 24.061693 33,000 139 420 64
2019-05-27 16:01:31 GMT 43.848484 24.055155 32,975 139 420 0
2019-05-27 16:01:28 GMT 43.853603 24.049072 33,000 139 420 0
2019-05-27 16:01:25 GMT 43.858017 24.044153 32,975 140 420 64
2019-05-27 16:01:21 GMT 43.864105 24.037064 32,975 140 420 0
2019-05-27 16:01:17 GMT 43.871384 24.028696 32,975 140 420 0
2019-05-27 16:01:14 GMT 43.873623 24.025923 32,975 140 420 0
2019-05-27 16:01:10 GMT 43.888798 24.008331 32,975 139 420 0
2019-05-27 16:01:04 GMT 43.888798 24.008331 32,975 139 420 -64
2019-05-27 16:01:00 GMT 43.903461 23.991198 33,000 139 420 0
2019-05-27 16:00:54 GMT 43.903461 23.991198 33,000 139 420 0
2019-05-27 16:00:48 GMT 43.914551 23.978556 32,975 139 420 0
2019-05-27 16:00:44 GMT 43.920265 23.971842 32,975 139 420 0
2019-05-27 16:00:41 GMT 43.924458 23.966806 33,000 139 420 0
2019-05-27 16:00:36 GMT 43.931168 23.959139 32,975 139 420 0
2019-05-27 16:00:33 GMT 43.936295 23.953135 32,975 139 420 0
2019-05-27 16:00:30 GMT 43.939270 23.949619 32,975 139 420 0
2019-05-27 16:00:27 GMT 43.951172 23.935823 32,975 139 420 0
2019-05-27 16:00:22 GMT 43.955276 23.930969 32,975 139 420 0
2019-05-27 16:00:19 GMT 43.959961 23.925411 32,975 139 420 0
2019-05-27 16:00:16 GMT 43.959961 23.925411 32,975 140 420 0
2019-05-27 16:00:11 GMT 43.968029 23.916059 32,975 139 420 0
2019-05-27 16:00:08 GMT 43.972321 23.911167 32,975 139 420 0
2019-05-27 16:00:05 GMT 43.976086 23.906773 32,975 139 420 0
2019-05-27 16:00:02 GMT 43.980972 23.900953 32,975 139 420 0
2019-05-27 15:59:59 GMT 43.985722 23.895592 32,975 139 420 0
2019-05-27 15:59:55 GMT 43.991913 23.888332 32,975 139 420 0
2019-05-27 15:59:51 GMT 44.001919 23.876692 32,975 139 420 0
2019-05-27 15:59:48 GMT 44.007980 23.869650 32,975 139 420 0
2019-05-27 15:59:44 GMT 44.007980 23.869650 32,975 139 420 0
2019-05-27 15:59:39 GMT 44.017090 23.858791 32,975 139 420 0
2019-05-27 15:59:35 GMT 44.021984 23.853279 32,975 139 420 0
2019-05-27 15:59:31 GMT 44.028828 23.845303 32,975 139 420 0
2019-05-27 15:59:28 GMT 44.033478 23.839565 32,975 139 420 0
2019-05-27 15:59:20 GMT 44.043446 23.828234 32,975 139 420 0
2019-05-27 15:59:15 GMT 44.051010 23.819382 32,975 139 420 0
2019-05-27 15:59:09 GMT 44.060440 23.808140 32,975 139 420 0
2019-05-27 15:59:05 GMT 44.065796 23.802008 32,975 139 420 0
2019-05-27 15:58:59 GMT 44.074959 23.791286 33,000 139 420 0
2019-05-27 15:58:55 GMT 44.081337 23.783569 33,000 139 420 0
2019-05-27 15:58:52 GMT 44.085342 23.779140 32,975 139 420 0
2019-05-27 15:58:48 GMT 44.090694 23.772844 33,000 139 420 0
2019-05-27 15:58:43 GMT 44.097816 23.764475 33,000 139 420 0
2019-05-27 15:58:38 GMT 44.106125 23.754805 33,000 139 420 0
2019-05-27 15:58:33 GMT 44.114227 23.745352 33,000 139 420 0
2019-05-27 15:58:28 GMT 44.120441 23.737989 33,000 139 420 0
2019-05-27 15:58:22 GMT 44.129105 23.727657 33,000 139 420 0
2019-05-27 15:58:17 GMT 44.136688 23.718828 33,000 139 420 0
2019-05-27 15:58:11 GMT 44.146187 23.707645 33,000 139 420 0
2019-05-27 15:58:05 GMT 44.154518 23.698097 33,000 139 420 0
2019-05-27 15:58:01 GMT 44.162659 23.688503 33,025 139 420 0
2019-05-27 15:57:55 GMT 44.169926 23.679918 33,025 139 420 0
2019-05-27 15:57:49 GMT 44.178818 23.669390 33,025 139 420 0
2019-05-27 15:57:44 GMT 44.185730 23.661358 33,025 139 420 0
2019-05-27 15:57:38 GMT 44.195435 23.649837 33,000 139 420 0
2019-05-27 15:57:33 GMT 44.202049 23.642042 33,000 139 420 0
2019-05-27 15:57:26 GMT 44.214382 23.627438 33,000 139 419 0
2019-05-27 15:57:22 GMT 44.219318 23.621744 33,000 139 419 0
2019-05-27 15:57:15 GMT 44.229004 23.610289 33,000 139 419 0
2019-05-27 15:57:11 GMT 44.234024 23.604387 33,000 139 419 0
2019-05-27 15:57:04 GMT 44.244968 23.591465 33,000 139 419 0
2019-05-27 15:56:59 GMT 44.252186 23.582890 33,000 139 419 0
2019-05-27 15:56:52 GMT 44.262894 23.570162 33,000 139 419 0
2019-05-27 15:56:48 GMT 44.268036 23.564236 33,000 139 419 0
2019-05-27 15:56:44 GMT 44.276531 23.554152 33,000 139 419 0
2019-05-27 15:56:34 GMT 44.291569 23.536400 33,000 139 419 0
2019-05-27 15:56:30 GMT 44.294128 23.533384 33,000 139 419 0
2019-05-27 15:56:25 GMT 44.303238 23.522644 32,975 139 419 0
2019-05-27 15:56:20 GMT 44.310749 23.513691 32,975 139 419 0
2019-05-27 15:56:11 GMT 44.325394 23.496422 32,975 139 419 0
2019-05-27 15:56:03 GMT 44.335049 23.484682 32,975 139 419 0
2019-05-27 15:55:58 GMT 44.341843 23.476711 32,975 139 419 0
2019-05-27 15:55:52 GMT 44.351715 23.465256 32,975 139 418 0
2019-05-27 15:55:47 GMT 44.358444 23.457184 32,975 139 418 0
2019-05-27 15:55:39 GMT 44.370800 23.442413 32,975 139 418 0
2019-05-27 15:55:36 GMT 44.374420 23.438351 32,975 139 418 0
2019-05-27 15:55:30 GMT 44.383739 23.427139 32,975 139 418 0
2019-05-27 15:55:26 GMT 44.390991 23.418470 32,975 139 417 0
2019-05-27 15:55:17 GMT 44.404877 23.401951 32,975 139 417 0
2019-05-27 15:55:14 GMT 44.407242 23.399309 32,975 139 417 0
2019-05-27 15:55:08 GMT 44.416931 23.387882 32,975 139 417 0
2019-05-27 15:55:04 GMT 44.422054 23.381720 32,975 139 417 0
2019-05-27 15:54:56 GMT 44.433563 23.367788 32,975 139 417 0
2019-05-27 15:54:53 GMT 44.437363 23.363539 32,975 139 417 0
2019-05-27 15:54:47 GMT 44.446915 23.351976 32,975 139 417 0
2019-05-27 15:54:44 GMT 44.453247 23.344574 32,975 139 417 0
2019-05-27 15:54:36 GMT 44.463207 23.332548 32,975 139 417 0
2019-05-27 15:54:33 GMT 44.469025 23.325516 32,975 139 417 0
2019-05-27 15:54:25 GMT 44.478756 23.314194 32,975 139 416 0
2019-05-27 15:54:21 GMT 44.485180 23.306490 32,975 139 417 0
2019-05-27 15:54:15 GMT 44.494217 23.295790 32,975 139 415 0
2019-05-27 15:54:10 GMT 44.502262 23.286125 32,975 139 415 0
2019-05-27 15:54:06 GMT 44.507805 23.279560 32,975 139 415 0
2019-05-27 15:53:59 GMT 44.517059 23.268389 32,975 139 415 0
2019-05-27 15:53:53 GMT 44.525848 23.257730 32,975 139 415 0
2019-05-27 15:53:48 GMT 44.533585 23.248573 32,975 139 415 0
2019-05-27 15:53:44 GMT 44.539124 23.241903 32,975 139 415 0
2019-05-27 15:53:38 GMT 44.548187 23.231310 32,975 139 415 0
2019-05-27 15:53:34 GMT 44.553223 23.224901 32,975 139 415 0
2019-05-27 15:53:27 GMT 44.564301 23.212019 32,975 139 415 0
2019-05-27 15:53:23 GMT 44.570091 23.205069 32,975 139 415 0
2019-05-27 15:53:17 GMT 44.578949 23.194427 32,975 139 415 0
2019-05-27 15:53:13 GMT 44.583755 23.188673 32,975 139 415 0
2019-05-27 15:53:05 GMT 44.595840 23.173895 33,000 139 415 0
2019-05-27 15:53:02 GMT 44.601746 23.166897 33,025 139 415 0
2019-05-27 15:52:52 GMT 44.614361 23.151878 33,025 139 415 0
2019-05-27 15:52:42 GMT 44.629349 23.133741 33,025 139 414 0
2019-05-27 15:52:32 GMT 44.644226 23.115824 33,025 139 414 0
2019-05-27 15:52:23 GMT 44.657593 23.099735 33,025 139 414 0
2019-05-27 15:52:20 GMT 44.661942 23.094767 33,025 139 415 0
2019-05-27 15:52:13 GMT 44.672195 23.082211 33,025 139 415 0
2019-05-27 15:52:09 GMT 44.678650 23.074572 33,025 139 415 0
2019-05-27 15:52:00 GMT 44.691971 23.058407 33,025 139 415 0
2019-05-27 15:51:49 GMT 44.707745 23.039202 33,025 139 415 0
2019-05-27 15:51:39 GMT 44.721130 23.023157 33,025 139 415 0
2019-05-27 15:51:36 GMT 44.725800 23.017731 33,000 139 415 0
2019-05-27 15:51:30 GMT 44.734932 23.006510 33,025 139 415 0
2019-05-27 15:51:27 GMT 44.741043 22.999289 33,025 139 415 0
2019-05-27 15:51:19 GMT 44.750061 22.988367 33,000 139 415 0
2019-05-27 15:51:16 GMT 44.756207 22.980785 33,000 139 414 0
2019-05-27 15:51:09 GMT 44.766586 22.968460 33,000 139 414 64
2019-05-27 15:51:05 GMT 44.772873 22.960823 33,000 139 415 0
2019-05-27 15:50:57 GMT 44.783718 22.947693 33,000 139 414 0
2019-05-27 15:50:54 GMT 44.787537 22.943138 33,000 139 414 0
2019-05-27 15:50:47 GMT 44.796333 22.932486 33,000 139 414 0
2019-05-27 15:50:43 GMT 44.804306 22.922712 33,000 139 414 0
2019-05-27 15:50:38 GMT 44.811584 22.913883 33,000 139 414 0
2019-05-27 15:50:32 GMT 44.819412 22.904402 33,000 139 413 0
2019-05-27 15:50:28 GMT 44.824127 22.898790 32,975 139 413 0
2019-05-27 15:50:25 GMT 44.828842 22.893154 32,975 139 413 0
2019-05-27 15:50:20 GMT 44.835754 22.884783 32,975 139 414 0
2019-05-27 15:50:17 GMT 44.840652 22.878626 32,975 139 414 0
2019-05-27 15:50:10 GMT 44.856354 22.859802 32,975 139 413 0
2019-05-27 15:50:07 GMT 44.856354 22.859802 32,975 139 413 0
2019-05-27 15:50:03 GMT 44.860107 22.854832 32,975 139 413 0
2019-05-27 15:49:59 GMT 44.865791 22.848213 32,975 139 412 0
2019-05-27 15:49:56 GMT 44.871689 22.841099 32,975 139 412 0
2019-05-27 15:49:46 GMT 44.887436 22.821953 32,975 139 412 0
2019-05-27 15:49:41 GMT 44.893890 22.813894 32,975 139 412 0
2019-05-27 15:49:35 GMT 44.902588 22.803301 32,975 139 411 0
2019-05-27 15:49:28 GMT 44.917419 22.785318 32,950 139 411 0
2019-05-27 15:49:24 GMT 44.917419 22.785318 32,975 139 411 0
2019-05-27 15:49:19 GMT 44.924011 22.777405 32,950 139 411 0
2019-05-27 15:49:13 GMT 44.931942 22.767757 32,950 139 411 0
2019-05-27 15:49:07 GMT 44.941902 22.755632 32,975 139 411 0
2019-05-27 15:49:02 GMT 44.948887 22.747126 32,975 139 411 0
2019-05-27 15:48:56 GMT 44.956604 22.737383 32,975 139 411 0
2019-05-27 15:48:50 GMT 44.966156 22.726091 32,975 139 411 0
2019-05-27 15:48:45 GMT 44.973175 22.717503 32,975 139 411 0
2019-05-27 15:48:41 GMT 44.980450 22.708607 32,975 139 411 0
2019-05-27 15:48:35 GMT 44.989334 22.697819 32,975 139 411 0
2019-05-27 15:48:30 GMT 44.995903 22.689781 32,975 139 411 0
2019-05-27 15:48:25 GMT 45.001007 22.683498 32,975 139 411 0
2019-05-27 15:48:22 GMT 45.005402 22.677809 32,975 139 411 0
2019-05-27 15:48:17 GMT 45.013687 22.667875 32,975 139 411 0
2019-05-27 15:48:14 GMT 45.020111 22.659971 32,975 139 411 0
2019-05-27 15:48:11 GMT 45.021835 22.658058 32,975 139 411 0
2019-05-27 15:48:07 GMT 45.027100 22.651585 32,975 139 411 0
2019-05-27 15:48:01 GMT 45.035332 22.641548 32,975 138 411 0
2019-05-27 15:47:55 GMT 45.044689 22.630095 33,000 139 411 0
2019-05-27 15:47:52 GMT 45.054153 22.618103 33,000 139 411 0
2019-05-27 15:47:43 GMT 45.062008 22.608858 33,000 139 411 0
2019-05-27 15:47:40 GMT 45.066151 22.603634 33,000 139 411 0
2019-05-27 15:47:33 GMT 45.076492 22.591030 33,000 138 411 0
2019-05-27 15:47:29 GMT 45.081848 22.584293 33,000 138 413 0
2019-05-27 15:47:22 GMT 45.093475 22.570366 33,000 139 413 0
2019-05-27 15:47:17 GMT 45.098316 22.564310 33,000 139 413 0
2019-05-27 15:47:12 GMT 45.107304 22.553257 33,000 138 412 0
2019-05-27 15:47:08 GMT 45.113068 22.546103 33,000 138 412 0
2019-05-27 15:46:56 GMT 45.129601 22.525724 33,000 138 412 0
2019-05-27 15:46:51 GMT 45.137005 22.516680 33,000 138 412 0
2019-05-27 15:46:44 GMT 45.146805 22.504774 33,000 138 413 64
2019-05-27 15:46:39 GMT 45.164284 22.483118 32,975 138 413 0
2019-05-27 15:46:29 GMT 45.167355 22.479366 32,975 138 413 64
2019-05-27 15:46:18 GMT 45.183929 22.458736 32,975 138 413 0
2019-05-27 15:46:05 GMT 45.201874 22.436502 32,975 138 412 0
2019-05-27 15:45:58 GMT 45.212357 22.423683 32,975 138 412 0
2019-05-27 15:45:54 GMT 45.217987 22.416555 32,975 138 411 0
2019-05-27 15:45:48 GMT 45.228287 22.403934 32,975 138 411 0
2019-05-27 15:45:45 GMT 45.232635 22.398376 32,975 138 411 0
2019-05-27 15:45:36 GMT 45.244259 22.384108 32,975 138 411 0
2019-05-27 15:45:33 GMT 45.248840 22.378563 32,975 138 410 0
2019-05-27 15:45:25 GMT 45.260784 22.363676 32,975 138 410 0
2019-05-27 15:45:22 GMT 45.265442 22.358116 32,975 138 410 0
2019-05-27 15:45:13 GMT 45.277084 22.343445 33,000 138 410 0
2019-05-27 15:45:10 GMT 45.280849 22.338957 33,000 138 410 0
2019-05-27 15:45:03 GMT 45.292164 22.324821 33,000 138 410 0
2019-05-27 15:44:59 GMT 45.298588 22.317051 33,000 138 410 0
2019-05-27 15:44:51 GMT 45.308594 22.304590 33,000 138 410 0
2019-05-27 15:44:48 GMT 45.312645 22.299232 33,000 138 410 0
2019-05-27 15:44:40 GMT 45.325699 22.283281 33,000 138 411 0
2019-05-27 15:44:29 GMT 45.340942 22.264381 33,000 138 411 0
2019-05-27 15:44:17 GMT 45.358498 22.242760 33,000 138 412 0
2019-05-27 15:44:06 GMT 45.372791 22.224739 33,000 138 412 0
2019-05-27 15:43:54 GMT 45.390564 22.202715 33,000 138 412 0
2019-05-27 15:43:44 GMT 45.404663 22.185188 32,975 138 412 0
2019-05-27 15:43:32 GMT 45.421921 22.163544 32,975 138 413 64
2019-05-27 15:43:21 GMT 45.439087 22.142357 32,975 138 412 0
2019-05-27 15:43:10 GMT 45.455326 22.122044 32,975 138 412 0
2019-05-27 15:42:58 GMT 45.471527 22.101879 32,975 138 411 0
2019-05-27 15:42:48 GMT 45.484795 22.084997 33,000 138 411 0
2019-05-27 15:42:36 GMT 45.502991 22.062443 33,000 138 412 0
2019-05-27 15:42:24 GMT 45.518326 22.042955 32,975 138 412 0
2019-05-27 15:42:14 GMT 45.534653 22.022631 32,975 138 412 0
2019-05-27 15:42:03 GMT 45.549595 22.003967 32,975 138 412 0
2019-05-27 15:41:50 GMT 45.567799 21.980896 32,975 138 412 0
2019-05-27 15:41:41 GMT 45.580673 21.964684 32,975 138 412 0
2019-05-27 15:41:34 GMT 45.589771 21.953362 32,975 138 412 0
2019-05-27 15:41:29 GMT 45.598431 21.942513 32,975 138 412 0
2019-05-27 15:41:17 GMT 45.613884 21.922806 32,975 138 412 0
2019-05-27 15:41:08 GMT 45.628281 21.904594 32,975 138 412 0
2019-05-27 15:40:55 GMT 45.645126 21.883627 32,975 138 412 0
2019-05-27 15:40:44 GMT 45.661552 21.862724 33,000 138 412 0
2019-05-27 15:40:33 GMT 45.678635 21.841154 32,975 138 412 0
2019-05-27 15:40:23 GMT 45.692459 21.823805 33,000 138 412 0
2019-05-27 15:40:11 GMT 45.709362 21.802437 33,000 138 412 0
2019-05-27 15:40:04 GMT 45.718163 21.791039 33,025 138 412 0
2019-05-27 15:39:59 GMT 45.725937 21.781288 33,025 138 412 0
2019-05-27 15:39:55 GMT 45.732285 21.773094 33,025 138 412 0
2019-05-27 15:39:51 GMT 45.739574 21.763847 33,025 138 412 0
2019-05-27 15:39:48 GMT 45.743206 21.759521 33,025 138 412 0
2019-05-27 15:39:44 GMT 45.748856 21.752327 33,025 138 412 0
2019-05-27 15:39:39 GMT 45.753960 21.745789 33,025 138 412 0
2019-05-27 15:39:35 GMT 45.760525 21.737480 33,025 138 412 0
2019-05-27 15:39:32 GMT 45.764339 21.732536 33,025 138 412 0
2019-05-27 15:39:25 GMT 45.776676 21.717087 33,025 138 412 0
2019-05-27 15:39:21 GMT 45.781540 21.710257 33,025 138 413 0
2019-05-27 15:39:15 GMT 45.788876 21.701637 33,025 138 412 0
2019-05-27 15:39:09 GMT 45.796974 21.691406 33,025 138 413 0
2019-05-27 15:39:05 GMT 45.803970 21.682590 33,025 138 413 0
2019-05-27 15:39:02 GMT 45.809544 21.675407 33,025 138 412 0
2019-05-27 15:38:59 GMT 45.812073 21.672274 33,000 138 413 0
2019-05-27 15:38:52 GMT 45.822437 21.659065 33,000 138 412 0
2019-05-27 15:38:47 GMT 45.828163 21.651581 33,000 138 413 0
2019-05-27 15:38:43 GMT 45.835613 21.642105 33,000 138 412 0
2019-05-27 15:38:38 GMT 45.841476 21.634483 33,000 138 413 0
2019-05-27 15:38:35 GMT 45.846085 21.628933 33,000 138 413 0
2019-05-27 15:38:31 GMT 45.851860 21.621506 33,000 138 412 0
2019-05-27 15:38:23 GMT 45.865452 21.604202 33,000 138 412 0
2019-05-27 15:38:13 GMT 45.877369 21.588890 33,000 138 412 0
2019-05-27 15:38:08 GMT 45.885841 21.578178 33,000 138 412 64
2019-05-27 15:38:01 GMT 45.894222 21.567329 33,000 138 412 0
2019-05-27 15:37:58 GMT 45.899063 21.561287 33,000 138 412 0
2019-05-27 15:37:55 GMT 45.903393 21.555519 33,000 138 412 0
2019-05-27 15:37:50 GMT 45.910515 21.546387 32,975 138 412 64
2019-05-27 15:37:44 GMT 45.919918 21.534508 32,975 138 412 0
2019-05-27 15:37:40 GMT 45.936584 21.512878 32,975 138 412 0
2019-05-27 15:37:32 GMT 45.936584 21.512878 32,975 138 412 0
2019-05-27 15:37:29 GMT 45.940475 21.508284 32,975 138 412 0
2019-05-27 15:37:26 GMT 45.943985 21.503471 32,975 138 412 0
2019-05-27 15:37:22 GMT 45.950363 21.495369 32,975 138 411 0
2019-05-27 15:37:17 GMT 45.956085 21.488052 32,975 138 411 0
2019-05-27 15:37:13 GMT 45.963722 21.478134 32,975 138 410 0
2019-05-27 15:37:06 GMT 45.973297 21.466213 32,975 138 410 0
2019-05-27 15:37:03 GMT 45.979691 21.457878 32,975 138 410 0
2019-05-27 15:36:55 GMT 45.988266 21.447054 32,975 138 410 0
2019-05-27 15:36:51 GMT 45.994450 21.439064 32,975 138 410 0
2019-05-27 15:36:45 GMT 46.002319 21.428967 32,975 138 411 0
2019-05-27 15:36:34 GMT 46.019440 21.406658 32,975 138 410 0
2019-05-27 15:36:28 GMT 46.026150 21.398277 32,975 138 410 0
2019-05-27 15:36:22 GMT 46.035370 21.386562 33,000 138 410 0
2019-05-27 15:36:16 GMT 46.045052 21.373833 33,000 138 410 0
2019-05-27 15:36:12 GMT 46.050293 21.367403 33,000 138 410 0
2019-05-27 15:36:05 GMT 46.058365 21.356598 33,000 138 410 0
2019-05-27 15:36:01 GMT 46.064163 21.349316 33,000 138 410 0
2019-05-27 15:35:55 GMT 46.074192 21.336479 33,000 138 410 0
2019-05-27 15:35:42 GMT 46.091263 21.314280 33,000 137 410 0
2019-05-27 15:35:38 GMT 46.097076 21.306711 33,000 138 411 0
2019-05-27 15:35:30 GMT 46.108360 21.292328 33,000 138 410 0
2019-05-27 15:35:25 GMT 46.115799 21.282661 33,000 137 410 0
2019-05-27 15:35:21 GMT 46.123260 21.273033 33,000 138 411 0
2019-05-27 15:35:14 GMT 46.129807 21.264441 33,000 138 411 0
2019-05-27 15:35:10 GMT 46.137085 21.255112 32,975 138 410 0
2019-05-27 15:34:57 GMT 46.156769 21.229738 33,000 137 410 0
2019-05-27 15:34:52 GMT 46.161987 21.222839 33,000 137 410 0
2019-05-27 15:34:49 GMT 46.167065 21.216316 32,975 138 411 64
2019-05-27 15:34:43 GMT 46.175491 21.205355 32,975 138 411 64
2019-05-27 15:34:38 GMT 46.184566 21.193588 32,975 138 410 64
2019-05-27 15:34:29 GMT 46.193756 21.181774 32,975 138 410 64
2019-05-27 15:34:25 GMT 46.200115 21.173538 32,975 138 410 64
2019-05-27 15:34:18 GMT 46.210499 21.160217 32,950 138 411 64
2019-05-27 15:34:14 GMT 46.216923 21.151978 32,950 138 410 0
2019-05-27 15:34:09 GMT 46.224464 21.142296 32,950 138 410 0
2019-05-27 15:34:02 GMT 46.232098 21.132133 32,950 138 410 0
2019-05-27 15:33:54 GMT 46.245087 21.115860 32,950 138 410 0
2019-05-27 15:33:51 GMT 46.249649 21.110161 32,950 138 408 0
2019-05-27 15:33:40 GMT 46.263847 21.092102 32,950 138 408 0
2019-05-27 15:33:30 GMT 46.279301 21.072395 32,950 138 408 0
2019-05-27 15:33:22 GMT 46.289356 21.059761 32,950 138 409 0
2019-05-27 15:33:15 GMT 46.299740 21.046371 32,950 138 410 0
2019-05-27 15:33:12 GMT 46.303463 21.041771 32,950 137 410 0
2019-05-27 15:33:07 GMT 46.311844 21.030785 32,950 136 411 -64
2019-05-27 15:33:01 GMT 46.319801 21.020004 32,975 136 411 -64
2019-05-27 15:32:56 GMT 46.326832 21.010048 32,975 135 411 -64
2019-05-27 15:32:51 GMT 46.331863 21.003180 32,975 134 412 0
2019-05-27 15:32:43 GMT 46.343403 20.986359 32,975 134 411 -64
2019-05-27 15:32:40 GMT 46.347885 20.979532 32,975 134 411 0
2019-05-27 15:32:35 GMT 46.356255 20.967407 32,975 134 411 0
2019-05-27 15:32:27 GMT 46.363979 20.956009 33,000 134 411 0
2019-05-27 15:32:23 GMT 46.370499 20.946396 33,000 134 411 0
2019-05-27 15:32:19 GMT 46.375763 20.938669 33,000 134 411 0
2019-05-27 15:32:09 GMT 46.402573 20.898949 33,000 134 412 0
2019-05-27 15:31:59 GMT 46.402573 20.898949 33,000 134 412 0
2019-05-27 15:31:56 GMT 46.406437 20.893250 33,000 134 412 0
2019-05-27 15:31:50 GMT 46.416210 20.878555 33,000 134 412 0
2019-05-27 15:31:38 GMT 46.430782 20.857063 33,000 134 414 0
2019-05-27 15:31:25 GMT 46.448364 20.830881 33,000 134 415 0
2019-05-27 15:31:15 GMT 46.459808 20.814068 33,000 134 415 0
2019-05-27 15:31:08 GMT 46.470383 20.798391 32,975 134 415 0
2019-05-27 15:31:02 GMT 46.478081 20.787025 32,975 134 415 0
2019-05-27 15:30:56 GMT 46.486923 20.773842 32,975 134 415 0
2019-05-27 15:30:53 GMT 46.489021 20.770752 32,975 134 415 0
2019-05-27 15:30:44 GMT 46.502563 20.750628 33,000 134 415 0
2019-05-27 15:30:33 GMT 46.517838 20.727974 33,000 134 415 0
2019-05-27 15:30:25 GMT 46.528564 20.711975 33,000 134 415 0
2019-05-27 15:30:22 GMT 46.532360 20.705864 33,000 134 415 0
2019-05-27 15:30:14 GMT 46.544140 20.688560 33,000 134 415 0
2019-05-27 15:30:11 GMT 46.547352 20.683823 33,000 133 415 0
2019-05-27 15:30:05 GMT 46.555592 20.671600 33,000 134 415 0
2019-05-27 15:30:01 GMT 46.561085 20.663292 32,975 133 415 0
2019-05-27 15:29:53 GMT 46.570908 20.648335 33,000 134 416 0
2019-05-27 15:29:46 GMT 46.580215 20.634659 33,000 134 416 0
2019-05-27 15:29:40 GMT 46.586781 20.624771 33,000 134 416 0
2019-05-27 15:29:33 GMT 46.597301 20.608772 33,000 134 416 0
2019-05-27 15:29:25 GMT 46.608612 20.592018 33,000 134 416 0
2019-05-27 15:29:22 GMT 46.612473 20.586302 33,000 134 416 0
2019-05-27 15:29:16 GMT 46.621788 20.572243 32,975 134 415 0
2019-05-27 15:29:11 GMT 46.626766 20.564964 32,975 134 416 0
2019-05-27 15:29:05 GMT 46.634541 20.553223 33,000 134 415 0
2019-05-27 15:29:01 GMT 46.640781 20.544022 32,975 134 416 0
2019-05-27 15:28:53 GMT 46.650555 20.529533 33,000 134 415 0
2019-05-27 15:28:48 GMT 46.656784 20.520117 33,000 134 417 0
2019-05-27 15:28:42 GMT 46.671879 20.497536 33,000 134 417 0
2019-05-27 15:28:38 GMT 46.671879 20.497536 33,000 134 417 0
2019-05-27 15:28:31 GMT 46.679790 20.485519 33,000 134 417 0
2019-05-27 15:28:27 GMT 46.685303 20.477310 32,975 134 417 0
2019-05-27 15:28:21 GMT 46.695374 20.462170 32,975 134 417 0
2019-05-27 15:28:17 GMT 46.699493 20.455738 33,000 134 417 0
2019-05-27 15:28:06 GMT 46.713402 20.434982 33,000 134 417 0
2019-05-27 15:27:59 GMT 46.723644 20.419670 33,000 133 417 0
2019-05-27 15:27:56 GMT 46.727509 20.413870 33,000 134 417 0
2019-05-27 15:27:48 GMT 46.737843 20.398109 33,000 134 417 0
2019-05-27 15:27:44 GMT 46.744499 20.388290 33,000 134 417 0
2019-05-27 15:27:38 GMT 46.751247 20.377922 32,975 133 417 0
2019-05-27 15:27:34 GMT 46.756256 20.370394 33,000 133 417 0
2019-05-27 15:27:28 GMT 46.766705 20.354782 33,000 133 417 0
2019-05-27 15:27:23 GMT 46.771313 20.347778 33,000 133 417 0
2019-05-27 15:27:18 GMT 46.778137 20.337502 33,000 133 417 0
2019-05-27 15:27:13 GMT 46.783905 20.328726 33,000 133 417 0
2019-05-27 15:27:07 GMT 46.792679 20.315369 33,000 133 417 0
2019-05-27 15:27:02 GMT 46.799835 20.304676 33,000 133 417 0
2019-05-27 15:26:56 GMT 46.808899 20.290943 33,000 133 417 0
2019-05-27 15:26:53 GMT 46.812653 20.285225 33,000 133 417 0
2019-05-27 15:26:46 GMT 46.822495 20.270378 33,000 133 417 0
2019-05-27 15:26:42 GMT 46.827919 20.261948 33,000 133 417 0
2019-05-27 15:26:36 GMT 46.834808 20.251442 33,000 133 417 0
2019-05-27 15:26:33 GMT 46.839386 20.244856 33,000 133 417 0
2019-05-27 15:26:30 GMT 46.843796 20.238121 33,000 133 417 0
2019-05-27 15:26:24 GMT 46.851471 20.226233 33,000 133 418 0
2019-05-27 15:26:20 GMT 46.857014 20.218002 33,000 133 418 0
2019-05-27 15:26:12 GMT 46.867165 20.202621 33,000 133 418 0
2019-05-27 15:26:09 GMT 46.872330 20.194702 33,000 133 418 0
2019-05-27 15:26:04 GMT 46.876602 20.187996 33,000 133 418 0
2019-05-27 15:25:58 GMT 46.885040 20.175406 32,975 133 418 0
2019-05-27 15:25:53 GMT 46.891884 20.165052 33,000 133 418 0
2019-05-27 15:25:48 GMT 46.899750 20.153009 33,000 133 418 0
2019-05-27 15:25:43 GMT 46.905106 20.144981 33,000 133 418 0
2019-05-27 15:25:35 GMT 46.921051 20.120636 33,000 133 418 0
2019-05-27 15:25:31 GMT 46.921051 20.120636 33,000 133 418 0
2019-05-27 15:25:25 GMT 46.931034 20.105473 33,000 133 418 0
2019-05-27 15:25:20 GMT 46.936935 20.095848 33,000 133 418 0
2019-05-27 15:25:17 GMT 46.939877 20.091810 33,000 133 418 0
2019-05-27 15:25:14 GMT 46.945000 20.084206 33,000 133 418 0
2019-05-27 15:25:11 GMT 46.948334 20.078888 33,000 133 418 0
2019-05-27 15:25:06 GMT 46.955017 20.068657 33,000 133 418 0
2019-05-27 15:25:02 GMT 46.960827 20.059769 33,000 133 418 0
2019-05-27 15:24:58 GMT 46.965435 20.053007 33,000 133 418 0
2019-05-27 15:24:55 GMT 46.968880 20.047726 33,000 133 418 0
2019-05-27 15:24:52 GMT 46.975166 20.038076 33,000 133 418 0
2019-05-27 15:24:45 GMT 46.982712 20.026634 33,000 133 418 0
2019-05-27 15:24:41 GMT 46.988525 20.017708 33,000 133 418 0
2019-05-27 15:24:31 GMT 47.001328 19.998285 33,000 133 418 0
2019-05-27 15:24:19 GMT 47.017822 19.972870 33,000 133 419 0
2019-05-27 15:24:10 GMT 47.029957 19.954552 33,000 133 418 0
2019-05-27 15:24:07 GMT 47.033680 19.948776 33,000 133 418 0
2019-05-27 15:23:57 GMT 47.047787 19.927227 33,000 133 418 64
2019-05-27 15:23:49 GMT 47.058212 19.910959 32,975 133 418 0
2019-05-27 15:23:45 GMT 47.064919 19.900677 32,975 133 418 0
2019-05-27 15:23:37 GMT 47.073811 19.887156 32,975 133 419 0
2019-05-27 15:23:33 GMT 47.078651 19.879761 32,975 133 418 0
2019-05-27 15:23:26 GMT 47.088638 19.864243 32,975 133 419 0
2019-05-27 15:23:23 GMT 47.092850 19.857859 32,975 133 418 0
2019-05-27 15:23:16 GMT 47.101456 19.844398 32,975 133 419 0
2019-05-27 15:23:07 GMT 47.113403 19.826065 32,975 133 419 0
2019-05-27 15:23:04 GMT 47.117340 19.820160 32,975 133 419 0
2019-05-27 15:22:56 GMT 47.129112 19.801870 32,975 133 419 0
2019-05-27 15:22:53 GMT 47.131207 19.798773 32,975 133 419 0
2019-05-27 15:22:49 GMT 47.137352 19.789335 32,975 133 418 0
2019-05-27 15:22:46 GMT 47.141556 19.782738 32,975 133 419 0
2019-05-27 15:22:42 GMT 47.146500 19.774910 32,975 133 419 0
2019-05-27 15:22:34 GMT 47.158813 19.756306 32,975 133 419 0
2019-05-27 15:22:25 GMT 47.169205 19.740234 32,975 133 419 0
2019-05-27 15:22:14 GMT 47.184509 19.716373 32,975 133 418 0
2019-05-27 15:22:04 GMT 47.197266 19.696444 32,975 133 418 0
2019-05-27 15:21:54 GMT 47.210857 19.675386 32,975 133 418 0
2019-05-27 15:21:51 GMT 47.215328 19.668695 32,975 133 419 0
2019-05-27 15:21:46 GMT 47.223476 19.656160 32,975 133 418 0
2019-05-27 15:21:43 GMT 47.225243 19.653273 32,975 133 418 0
2019-05-27 15:21:35 GMT 47.240753 19.629204 32,975 133 418 0
2019-05-27 15:21:27 GMT 47.248260 19.617531 32,975 133 418 0
2019-05-27 15:21:21 GMT 47.257038 19.603834 32,975 133 418 0
2019-05-27 15:21:11 GMT 47.269096 19.585173 32,975 133 418 0
2019-05-27 15:21:08 GMT 47.271797 19.581087 32,975 133 419 0
2019-05-27 15:21:01 GMT 47.283199 19.563271 32,975 133 418 0
2019-05-27 15:20:57 GMT 47.289066 19.554186 32,975 133 419 0
2019-05-27 15:20:50 GMT 47.296051 19.543373 32,975 133 418 0
2019-05-27 15:20:47 GMT 47.299576 19.537537 32,975 133 419 0
2019-05-27 15:20:42 GMT 47.308777 19.523529 32,975 133 419 0
2019-05-27 15:20:39 GMT 47.312531 19.517565 32,975 133 418 0
2019-05-27 15:20:36 GMT 47.314484 19.514536 32,975 133 419 0
2019-05-27 15:20:30 GMT 47.322399 19.502422 32,975 133 419 0
2019-05-27 15:20:27 GMT 47.326168 19.496435 32,975 133 419 0
2019-05-27 15:20:23 GMT 47.331615 19.487633 32,975 133 419 0
2019-05-27 15:20:20 GMT 47.335785 19.481506 32,975 133 419 0
2019-05-27 15:20:17 GMT 47.340832 19.473619 32,975 133 418 0
2019-05-27 15:20:11 GMT 47.348007 19.462349 32,975 133 419 0
2019-05-27 15:20:07 GMT 47.352951 19.454727 32,975 133 419 0
2019-05-27 15:20:03 GMT 47.360058 19.443687 32,975 133 419 0
2019-05-27 15:19:58 GMT 47.365173 19.435638 33,000 133 419 0
2019-05-27 15:19:55 GMT 47.370392 19.427279 33,000 133 420 0
2019-05-27 15:19:52 GMT 47.373779 19.422318 33,000 133 420 0
2019-05-27 15:19:49 GMT 47.378166 19.415306 33,000 133 420 0
2019-05-27 15:19:45 GMT 47.384640 19.405094 33,000 133 418 0
2019-05-27 15:19:41 GMT 47.388428 19.399040 33,000 133 419 0
2019-05-27 15:19:37 GMT 47.392879 19.392418 33,000 133 420 0
2019-05-27 15:19:30 GMT 47.406738 19.370544 33,000 133 420 0
2019-05-27 15:19:27 GMT 47.406738 19.370544 33,000 133 420 0
2019-05-27 15:19:23 GMT 47.411919 19.362276 33,000 133 420 0
2019-05-27 15:19:16 GMT 47.420837 19.348091 32,975 133 420 0
2019-05-27 15:19:12 GMT 47.427326 19.337839 32,975 133 420 0
2019-05-27 15:19:06 GMT 47.435028 19.325981 33,000 133 420 0
2019-05-27 15:19:01 GMT 47.442642 19.314106 33,000 133 420 0
2019-05-27 15:18:55 GMT 47.448742 19.304668 33,000 133 421 0
2019-05-27 15:18:50 GMT 47.456238 19.292978 33,000 133 420 0
2019-05-27 15:18:45 GMT 47.464382 19.280020 33,000 133 421 0
2019-05-27 15:18:38 GMT 47.478535 19.257835 33,000 133 421 0
2019-05-27 15:18:34 GMT 47.478535 19.257835 33,000 133 421 0
2019-05-27 15:18:26 GMT 47.490730 19.238329 33,000 133 421 0
2019-05-27 15:18:23 GMT 47.490730 19.238329 33,000 133 421 0
2019-05-27 15:18:14 GMT 47.505859 19.214596 33,000 132 422 0
2019-05-27 15:18:05 GMT 47.515495 19.199242 33,000 132 422 0
2019-05-27 15:18:02 GMT 47.518616 19.194525 33,000 132 422 0
2019-05-27 15:17:53 GMT 47.532490 19.172550 33,000 133 423 0
2019-05-27 15:17:43 GMT 47.545986 19.151354 33,000 133 423 0
2019-05-27 15:17:39 GMT 47.554596 19.137428 33,000 133 423 0
2019-05-27 15:17:33 GMT 47.558697 19.131142 33,000 132 423 0
2019-05-27 15:17:23 GMT 47.573227 19.108177 33,000 132 423 0
2019-05-27 15:17:14 GMT 47.590622 19.080643 33,000 132 423 0
2019-05-27 15:17:10 GMT 47.590622 19.080643 33,000 132 423 0
2019-05-27 15:17:01 GMT 47.601387 19.063393 33,000 133 424 0
2019-05-27 15:16:58 GMT 47.606178 19.055857 33,000 133 424 0
2019-05-27 15:16:49 GMT 47.617680 19.037758 32,975 132 423 0
2019-05-27 15:16:40 GMT 47.629349 19.019188 33,000 132 423 0
2019-05-27 15:16:36 GMT 47.634842 19.010399 32,975 132 423 0
2019-05-27 15:16:30 GMT 47.641701 18.999447 33,000 132 424 0
2019-05-27 15:16:27 GMT 47.647053 18.991064 33,000 132 423 0
2019-05-27 15:16:19 GMT 47.657574 18.974092 33,000 132 423 0
2019-05-27 15:16:15 GMT 47.664139 18.963707 32,975 132 423 0
2019-05-27 15:16:08 GMT 47.672749 18.950008 32,975 132 423 0
2019-05-27 15:16:04 GMT 47.677544 18.942190 32,975 132 423 0
2019-05-27 15:15:59 GMT 47.683777 18.932327 32,975 132 423 0
2019-05-27 15:15:56 GMT 47.687759 18.926010 32,975 132 423 0
2019-05-27 15:15:53 GMT 47.692394 18.918457 32,975 132 422 0
2019-05-27 15:15:49 GMT 47.697647 18.910011 33,000 132 423 0
2019-05-27 15:15:43 GMT 47.706127 18.896343 33,000 132 423 0
2019-05-27 15:15:37 GMT 47.713074 18.884949 33,000 132 423 0
2019-05-27 15:15:32 GMT 47.719955 18.873808 33,000 132 424 0
2019-05-27 15:15:27 GMT 47.726486 18.863113 32,975 132 424 0
2019-05-27 15:15:24 GMT 47.730103 18.857258 33,000 132 424 0
2019-05-27 15:15:21 GMT 47.738155 18.843805 33,000 132 424 0
2019-05-27 15:15:17 GMT 47.746811 18.829742 33,000 132 424 0
2019-05-27 15:15:12 GMT 47.746811 18.829742 32,975 132 424 0
2019-05-27 15:15:07 GMT 47.752258 18.820610 33,000 132 424 0
2019-05-27 15:15:03 GMT 47.757751 18.811684 32,975 132 424 0
2019-05-27 15:14:59 GMT 47.768135 18.794720 32,975 132 424 0
2019-05-27 15:14:53 GMT 47.770557 18.790775 33,000 132 423 0
2019-05-27 15:14:49 GMT 47.776051 18.781832 33,000 132 423 -64
2019-05-27 15:14:45 GMT 47.783031 18.770775 33,000 135 422 0
2019-05-27 15:14:34 GMT 47.796890 18.749886 33,000 135 422 0
2019-05-27 15:14:31 GMT 47.801327 18.743450 33,000 135 422 0
2019-05-27 15:14:24 GMT 47.810730 18.729788 33,000 135 422 0
2019-05-27 15:14:21 GMT 47.814148 18.724823 33,000 135 422 0
2019-05-27 15:14:17 GMT 47.822044 18.713167 33,000 135 422 0
2019-05-27 15:14:13 GMT 47.826607 18.706829 33,000 135 423 0
2019-05-27 15:14:10 GMT 47.829723 18.702040 33,000 135 422 0
2019-05-27 15:14:04 GMT 47.837723 18.690697 33,000 135 422 0
2019-05-27 15:14:01 GMT 47.842896 18.682938 33,000 135 423 0
2019-05-27 15:13:54 GMT 47.854210 18.666687 33,000 135 422 0
2019-05-27 15:13:48 GMT 47.860451 18.657673 33,000 135 422 0
2019-05-27 15:13:44 GMT 47.868362 18.646124 33,000 135 422 0
2019-05-27 15:13:41 GMT 47.880020 18.629173 33,000 135 422 0
2019-05-27 15:13:35 GMT 47.880020 18.629173 33,000 135 422 0
2019-05-27 15:13:31 GMT 47.884003 18.623268 33,000 135 422 0
2019-05-27 15:13:25 GMT 47.893871 18.608938 33,000 135 422 0
2019-05-27 15:13:22 GMT 47.902084 18.596764 33,000 135 422 0
2019-05-27 15:13:16 GMT 47.904373 18.593605 33,000 135 422 0
2019-05-27 15:13:12 GMT 47.910912 18.584078 33,000 135 422 0
2019-05-27 15:13:09 GMT 47.923340 18.565697 33,000 135 422 0
2019-05-27 15:13:04 GMT 47.923340 18.565697 33,000 135 422 0
2019-05-27 15:13:01 GMT 47.926208 18.561813 33,000 135 422 0
2019-05-27 15:12:58 GMT 47.930138 18.555767 33,000 135 422 0
2019-05-27 15:12:55 GMT 47.935593 18.547943 33,000 135 422 0
2019-05-27 15:12:50 GMT 47.940613 18.540695 33,000 135 423 0
2019-05-27 15:12:46 GMT 47.946625 18.531944 33,000 135 423 0
2019-05-27 15:12:41 GMT 47.960491 18.511681 33,000 135 422 0
2019-05-27 15:12:37 GMT 47.960491 18.511681 33,000 135 422 0
2019-05-27 15:12:32 GMT 47.968403 18.499920 33,000 135 422 0
2019-05-27 15:12:28 GMT 47.971104 18.496046 33,000 135 422 0
2019-05-27 15:12:24 GMT 47.978924 18.484497 33,000 135 422 0
2019-05-27 15:12:21 GMT 47.981205 18.481047 33,000 135 422 0
2019-05-27 15:12:17 GMT 47.995171 18.460340 33,000 135 423 0
2019-05-27 15:12:13 GMT 47.995171 18.460340 33,000 135 422 64
2019-05-27 15:12:10 GMT 47.997070 18.457581 33,000 135 423 64
2019-05-27 15:12:07 GMT 48.002106 18.450302 32,975 135 422 64
2019-05-27 15:12:01 GMT 48.009109 18.439659 32,975 135 422 64
2019-05-27 15:11:58 GMT 48.013744 18.433228 32,975 135 422 64
2019-05-27 15:11:55 GMT 48.017578 18.427505 32,975 135 422 64
2019-05-27 15:11:51 GMT 48.023895 18.418030 32,975 135 422 64
2019-05-27 15:11:48 GMT 48.034973 18.401894 32,950 135 422 64
2019-05-27 15:11:44 GMT 48.034973 18.401894 32,950 135 422 64
2019-05-27 15:11:39 GMT 48.040009 18.394547 32,950 135 422 0
2019-05-27 15:11:36 GMT 48.045586 18.386253 32,950 135 422 0
2019-05-27 15:11:33 GMT 48.048248 18.382118 32,950 135 422 0
2019-05-27 15:11:30 GMT 48.053238 18.374977 32,950 135 422 0
2019-05-27 15:11:27 GMT 48.056759 18.369493 32,950 135 422 0
2019-05-27 15:11:24 GMT 48.061787 18.362099 32,950 135 422 0
2019-05-27 15:11:21 GMT 48.068909 18.351463 32,950 135 422 0
2019-05-27 15:11:18 GMT 48.068909 18.351463 32,950 135 422 0
2019-05-27 15:11:13 GMT 48.077057 18.339632 32,950 135 422 0
2019-05-27 15:11:08 GMT 48.084412 18.328835 32,950 135 422 0
2019-05-27 15:11:04 GMT 48.089218 18.321350 32,950 135 421 0
2019-05-27 15:11:00 GMT 48.093956 18.314772 32,950 135 421 0
2019-05-27 15:10:57 GMT 48.099106 18.307137 32,950 135 421 0
2019-05-27 15:10:53 GMT 48.103916 18.299982 32,950 135 421 0
2019-05-27 15:10:49 GMT 48.109177 18.291962 32,950 135 421 0
2019-05-27 15:10:45 GMT 48.115509 18.282518 32,950 135 421 0
2019-05-27 15:10:42 GMT 48.119186 18.277376 32,950 135 421 0
2019-05-27 15:10:36 GMT 48.127892 18.264347 32,950 135 420 0
2019-05-27 15:10:33 GMT 48.132965 18.257025 32,950 135 420 0
2019-05-27 15:10:30 GMT 48.136505 18.251671 32,950 135 420 0
2019-05-27 15:10:26 GMT 48.142044 18.243210 32,950 135 420 0
2019-05-27 15:10:21 GMT 48.149399 18.232374 32,950 135 420 0
2019-05-27 15:10:14 GMT 48.158291 18.219486 32,950 135 420 0
2019-05-27 15:10:10 GMT 48.165436 18.208923 32,975 135 420 0
2019-05-27 15:10:05 GMT 48.170975 18.200754 32,975 135 420 0
2019-05-27 15:10:02 GMT 48.174770 18.194878 32,975 135 420 0
2019-05-27 15:09:59 GMT 48.179672 18.187866 32,975 135 420 -64
2019-05-27 15:09:56 GMT 48.181705 18.184614 32,975 135 420 -64
2019-05-27 15:09:53 GMT 48.193157 18.167990 33,000 135 422 0
2019-05-27 15:09:47 GMT 48.196510 18.162786 33,000 135 420 0
2019-05-27 15:09:43 GMT 48.201828 18.154978 33,000 135 421 0
2019-05-27 15:09:40 GMT 48.203400 18.152666 33,000 135 422 -64
2019-05-27 15:09:36 GMT 48.214188 18.136526 33,000 135 422 -64
2019-05-27 15:09:33 GMT 48.214188 18.136526 33,000 135 421 0
2019-05-27 15:09:30 GMT 48.218857 18.129835 33,000 135 421 0
2019-05-27 15:09:23 GMT 48.228863 18.114576 33,025 135 422 0
2019-05-27 15:09:20 GMT 48.234741 18.106031 33,025 135 422 0
2019-05-27 15:09:14 GMT 48.241432 18.095928 33,025 135 422 0
2019-05-27 15:09:11 GMT 48.244411 18.091881 33,025 135 422 0
2019-05-27 15:09:08 GMT 48.248089 18.086170 33,025 135 422 0
2019-05-27 15:09:04 GMT 48.254883 18.076101 33,025 135 421 0
2019-05-27 15:09:01 GMT 48.259121 18.069981 33,025 135 423 0
2019-05-27 15:08:58 GMT 48.263626 18.063213 33,025 135 423 0
2019-05-27 15:08:53 GMT 48.269222 18.054802 33,025 135 423 0
2019-05-27 15:08:50 GMT 48.272873 18.049410 33,025 135 423 0
2019-05-27 15:08:47 GMT 48.277927 18.041937 33,025 135 423 0
2019-05-27 15:08:43 GMT 48.284363 18.032297 33,025 135 423 0
2019-05-27 15:08:40 GMT 48.292358 18.020397 33,025 135 423 0
2019-05-27 15:08:37 GMT 48.292358 18.020397 33,025 135 424 0
2019-05-27 15:08:32 GMT 48.300507 18.008183 33,025 135 424 0
2019-05-27 15:08:29 GMT 48.301712 18.006100 33,025 135 424 0
2019-05-27 15:08:26 GMT 48.313843 17.987928 33,000 135 425 0
2019-05-27 15:08:22 GMT 48.318104 17.981800 33,000 135 425 0
2019-05-27 15:08:15 GMT 48.322388 17.975151 33,000 135 425 0
2019-05-27 15:08:12 GMT 48.328392 17.966043 33,000 135 425 0
2019-05-27 15:08:09 GMT 48.333710 17.958422 33,000 135 425 0
2019-05-27 15:08:03 GMT 48.339050 17.950359 33,000 134 425 64
2019-05-27 15:07:58 GMT 48.345840 17.940182 33,000 135 424 0
2019-05-27 15:07:55 GMT 48.351482 17.931784 33,000 135 424 0
2019-05-27 15:07:52 GMT 48.354321 17.927301 33,000 134 425 64
2019-05-27 15:07:48 GMT 48.367916 17.907064 33,000 135 425 0
2019-05-27 15:07:44 GMT 48.367916 17.907064 33,000 135 425 0
2019-05-27 15:07:40 GMT 48.376602 17.894194 33,025 135 425 0
2019-05-27 15:07:37 GMT 48.376602 17.894194 33,000 135 425 0
2019-05-27 15:07:32 GMT 48.381599 17.886320 33,000 135 425 0
2019-05-27 15:07:28 GMT 48.388687 17.875742 33,000 135 425 0
2019-05-27 15:07:25 GMT 48.392303 17.870670 33,000 135 425 0
2019-05-27 15:07:22 GMT 48.396500 17.864420 33,000 135 425 0
2019-05-27 15:07:18 GMT 48.401943 17.855890 33,000 135 425 0
2019-05-27 15:07:15 GMT 48.405670 17.850531 33,000 134 426 0
2019-05-27 15:07:11 GMT 48.411438 17.841867 33,000 134 426 0
2019-05-27 15:07:06 GMT 48.418076 17.831867 33,000 134 426 0
2019-05-27 15:07:02 GMT 48.426247 17.819029 33,000 134 426 0
2019-05-27 15:06:59 GMT 48.428833 17.816303 33,000 134 426 0
2019-05-27 15:06:54 GMT 48.434715 17.806524 33,000 134 426 0
2019-05-27 15:06:49 GMT 48.442383 17.795034 33,000 134 425 64
2019-05-27 15:06:45 GMT 48.449020 17.784964 33,000 134 425 64
2019-05-27 15:06:41 GMT 48.454239 17.777077 33,000 134 425 0
2019-05-27 15:06:38 GMT 48.457573 17.772337 32,975 134 425 0
2019-05-27 15:06:35 GMT 48.461857 17.765543 32,975 134 425 0
2019-05-27 15:06:32 GMT 48.467026 17.758026 32,975 134 425 0
2019-05-27 15:06:25 GMT 48.475220 17.745377 33,000 134 425 0
2019-05-27 15:06:22 GMT 48.483643 17.732874 32,975 134 425 0
2019-05-27 15:06:16 GMT 48.488113 17.725946 33,000 134 425 0
2019-05-27 15:06:13 GMT 48.493607 17.717768 32,975 134 425 0
2019-05-27 15:06:10 GMT 48.496677 17.713140 32,975 134 425 0
2019-05-27 15:06:06 GMT 48.501434 17.705948 32,975 134 425 0
2019-05-27 15:06:02 GMT 48.508503 17.695072 32,975 134 424 0
2019-05-27 15:05:59 GMT 48.510876 17.691748 32,975 134 424 0
2019-05-27 15:05:56 GMT 48.514786 17.685387 32,975 134 424 0
2019-05-27 15:05:53 GMT 48.519814 17.678085 32,975 134 425 0
2019-05-27 15:05:50 GMT 48.525585 17.669413 32,975 134 425 0
2019-05-27 15:05:46 GMT 48.529636 17.663269 32,975 134 424 0
2019-05-27 15:05:43 GMT 48.534290 17.655970 32,975 134 424 0
2019-05-27 15:05:39 GMT 48.540253 17.646935 32,975 134 424 0
2019-05-27 15:05:35 GMT 48.544350 17.640863 32,975 134 424 0
2019-05-27 15:05:32 GMT 48.555519 17.623804 32,975 134 424 0
2019-05-27 15:05:28 GMT 48.555519 17.623804 32,975 134 424 0
2019-05-27 15:05:25 GMT 48.558498 17.619541 32,975 134 424 0
2019-05-27 15:05:20 GMT 48.565762 17.608700 32,950 134 424 0
2019-05-27 15:05:17 GMT 48.569046 17.603477 32,950 134 424 0
2019-05-27 15:05:13 GMT 48.575493 17.593664 32,950 134 424 0
2019-05-27 15:05:06 GMT 48.585068 17.579111 32,950 134 424 64
2019-05-27 15:05:03 GMT 48.589596 17.572344 32,950 134 424 64
2019-05-27 15:05:00 GMT 48.593307 17.566647 32,950 134 424 0
2019-05-27 15:04:55 GMT 48.600536 17.555429 32,950 134 424 0
2019-05-27 15:04:52 GMT 48.604843 17.549252 32,950 134 424 0
2019-05-27 15:04:49 GMT 48.615200 17.533384 32,950 134 423 0
2019-05-27 15:04:44 GMT 48.615200 17.533384 32,950 134 423 0
2019-05-27 15:04:41 GMT 48.619446 17.526926 32,950 134 423 0
2019-05-27 15:04:38 GMT 48.624092 17.519796 32,950 134 423 0
2019-05-27 15:04:34 GMT 48.630157 17.510588 32,950 134 423 0
2019-05-27 15:04:31 GMT 48.633728 17.505165 32,950 134 423 0
2019-05-27 15:04:28 GMT 48.637127 17.500065 32,950 134 423 0
2019-05-27 15:04:25 GMT 48.642151 17.492348 32,950 134 423 0
2019-05-27 15:04:19 GMT 48.649796 17.480585 32,950 134 423 0
2019-05-27 15:04:16 GMT 48.653931 17.474260 32,950 134 423 0
2019-05-27 15:04:13 GMT 48.658401 17.467205 32,950 134 423 0
2019-05-27 15:04:10 GMT 48.664673 17.457909 32,950 134 423 0
2019-05-27 15:04:07 GMT 48.666824 17.454529 32,950 134 423 0
2019-05-27 15:04:03 GMT 48.672367 17.446072 32,950 134 424 0
2019-05-27 15:04:00 GMT 48.675812 17.440941 32,950 134 424 0
2019-05-27 15:03:56 GMT 48.681259 17.432484 32,950 134 424 0
2019-05-27 15:03:53 GMT 48.691452 17.416945 32,950 134 423 0
2019-05-27 15:03:50 GMT 48.691452 17.416945 32,975 134 423 0
2019-05-27 15:03:46 GMT 48.696487 17.409315 32,975 134 423 0
2019-05-27 15:03:42 GMT 48.699371 17.404737 32,975 134 423 0
2019-05-27 15:03:39 GMT 48.705837 17.394827 32,975 134 423 0
2019-05-27 15:03:34 GMT 48.711098 17.386732 32,975 134 423 0
2019-05-27 15:03:31 GMT 48.715336 17.380299 32,975 134 423 0
2019-05-27 15:03:27 GMT 48.721062 17.371408 32,975 134 423 0
2019-05-27 15:03:24 GMT 48.725388 17.364687 32,975 134 424 -64
2019-05-27 15:03:21 GMT 48.733677 17.352037 33,000 134 424 0
2019-05-27 15:03:17 GMT 48.733677 17.352037 33,000 134 424 0
2019-05-27 15:03:14 GMT 48.743916 17.336063 33,000 134 424 -64
2019-05-27 15:03:10 GMT 48.747940 17.330229 33,000 134 425 0
2019-05-27 15:03:07 GMT 48.753551 17.321392 33,000 134 425 0
2019-05-27 15:03:04 GMT 48.753551 17.321392 33,000 134 425 0
2019-05-27 15:03:00 GMT 48.758068 17.314308 33,000 134 425 0
2019-05-27 15:02:56 GMT 48.765564 17.302816 33,000 134 425 0
2019-05-27 15:02:53 GMT 48.767521 17.299782 33,000 134 425 0
2019-05-27 15:02:50 GMT 48.771198 17.294071 33,000 134 425 0
2019-05-27 15:02:47 GMT 48.781254 17.278530 33,025 134 426 0
2019-05-27 15:02:43 GMT 48.781254 17.278530 33,000 134 426 0
2019-05-27 15:02:40 GMT 48.787125 17.269522 33,025 134 426 0
2019-05-27 15:02:36 GMT 48.791306 17.262774 33,025 134 426 0
2019-05-27 15:02:32 GMT 48.798149 17.252220 33,025 134 426 0
2019-05-27 15:02:29 GMT 48.800526 17.248680 33,025 134 426 0
2019-05-27 15:02:23 GMT 48.808456 17.236422 33,025 134 427 0
2019-05-27 15:02:18 GMT 48.815277 17.225718 33,025 134 427 0
2019-05-27 15:02:14 GMT 48.822784 17.214169 33,025 134 427 0
2019-05-27 15:02:11 GMT 48.826355 17.208744 33,025 134 427 0
2019-05-27 15:02:08 GMT 48.834137 17.196913 33,025 135 427 0
2019-05-27 15:02:05 GMT 48.834137 17.196913 33,025 135 427 0
2019-05-27 15:02:02 GMT 48.837486 17.191870 33,025 135 427 0
2019-05-27 15:01:59 GMT 48.842789 17.183533 33,025 135 427 0
2019-05-27 15:01:56 GMT 48.847355 17.177124 33,025 135 427 0
2019-05-27 15:01:52 GMT 48.859680 17.158461 33,025 135 427 0
2019-05-27 15:01:48 GMT 48.859680 17.158461 33,025 135 428 0
2019-05-27 15:01:43 GMT 48.865513 17.149876 33,025 135 428 0
2019-05-27 15:01:39 GMT 48.869656 17.143370 33,025 135 428 0
2019-05-27 15:01:36 GMT 48.873825 17.137545 33,025 135 428 0
2019-05-27 15:01:33 GMT 48.878548 17.130360 33,025 135 429 64
2019-05-27 15:01:29 GMT 48.885178 17.120432 33,025 135 428 0
2019-05-27 15:01:25 GMT 48.889393 17.114098 33,025 135 428 0
2019-05-27 15:01:22 GMT 48.896610 17.103399 33,025 135 428 0
2019-05-27 15:01:18 GMT 48.907734 17.086704 33,025 135 429 0
2019-05-27 15:01:13 GMT 48.907734 17.086704 33,025 135 428 0
2019-05-27 15:01:10 GMT 48.912186 17.079937 33,025 135 428 0
2019-05-27 15:01:06 GMT 48.917725 17.071417 33,025 135 428 0
2019-05-27 15:01:02 GMT 48.924866 17.060682 33,025 135 428 0
2019-05-27 15:00:58 GMT 48.928310 17.055767 33,025 135 428 0
2019-05-27 15:00:55 GMT 48.933060 17.048685 33,025 135 429 0
2019-05-27 15:00:52 GMT 48.937454 17.041838 33,025 135 429 0
2019-05-27 15:00:48 GMT 48.942600 17.034229 33,000 135 429 0
2019-05-27 15:00:45 GMT 48.948074 17.026133 33,000 135 429 0
2019-05-27 15:00:42 GMT 48.951077 17.021292 33,000 135 429 64
2019-05-27 15:00:38 GMT 48.956543 17.013386 33,000 135 429 0
2019-05-27 15:00:34 GMT 48.962341 17.004667 33,000 135 429 0
2019-05-27 15:00:31 GMT 48.966888 16.997892 33,000 135 429 0
2019-05-27 15:00:28 GMT 48.975449 16.985004 33,000 135 429 0
2019-05-27 15:00:25 GMT 48.975449 16.985004 32,975 135 428 64
2019-05-27 15:00:21 GMT 48.981426 16.976046 32,975 135 427 0
2019-05-27 15:00:17 GMT 48.987625 16.966553 33,000 135 428 64
2019-05-27 15:00:14 GMT 48.990410 16.962385 32,975 135 428 64
2019-05-27 15:00:09 GMT 48.996643 16.953032 32,975 135 428 64
2019-05-27 15:00:06 GMT 49.002003 16.944965 32,975 135 428 0
2019-05-27 15:00:03 GMT 49.011337 16.930565 32,975 135 428 0
2019-05-27 14:59:59 GMT 49.011337 16.930565 32,975 135 428 0
2019-05-27 14:59:56 GMT 49.014481 16.926102 32,975 135 428 0
2019-05-27 14:59:53 GMT 49.024071 16.911573 32,975 135 427 0
2019-05-27 14:59:50 GMT 49.024071 16.911573 32,975 135 427 0
2019-05-27 14:59:46 GMT 49.030609 16.901762 32,975 135 427 0
2019-05-27 14:59:43 GMT 49.034180 16.896269 32,975 135 427 0
2019-05-27 14:59:40 GMT 49.041229 16.885633 32,950 135 427 0
2019-05-27 14:59:37 GMT 49.046127 16.878029 32,975 135 427 0
2019-05-27 14:59:34 GMT 49.050568 16.871479 32,975 135 427 0
2019-05-27 14:59:31 GMT 49.050568 16.871479 32,950 135 427 0
2019-05-27 14:59:28 GMT 49.055786 16.863590 32,950 135 427 0
2019-05-27 14:59:25 GMT 49.060055 16.856930 32,950 135 427 0
2019-05-27 14:59:21 GMT 49.065128 16.849558 32,950 135 427 0
2019-05-27 14:59:18 GMT 49.068062 16.845003 32,950 135 427 0
2019-05-27 14:59:14 GMT 49.074951 16.834597 32,950 135 427 0
2019-05-27 14:59:10 GMT 49.079559 16.827440 32,950 135 427 0
2019-05-27 14:59:05 GMT 49.088032 16.814793 32,950 135 426 0
2019-05-27 14:59:02 GMT 49.091198 16.810022 32,950 135 426 0
2019-05-27 14:58:59 GMT 49.094967 16.804239 32,950 135 426 0
2019-05-27 14:58:53 GMT 49.103252 16.791735 32,950 135 425 0
2019-05-27 14:58:49 GMT 49.110123 16.781404 32,975 135 425 0
2019-05-27 14:58:45 GMT 49.115295 16.773588 32,950 135 425 0
2019-05-27 14:58:41 GMT 49.121269 16.764486 32,975 135 425 0
2019-05-27 14:58:37 GMT 49.124992 16.758776 32,975 135 425 0
2019-05-27 14:58:33 GMT 49.133148 16.746614 32,975 135 425 0
2019-05-27 14:58:27 GMT 49.138824 16.737600 32,975 135 424 -64
2019-05-27 14:58:23 GMT 49.150925 16.719528 32,975 135 424 0
2019-05-27 14:58:20 GMT 49.150925 16.719528 32,975 135 424 0
2019-05-27 14:58:14 GMT 49.158279 16.708303 33,000 135 424 0
2019-05-27 14:58:11 GMT 49.163166 16.700880 33,000 135 424 0
2019-05-27 14:58:08 GMT 49.168240 16.693148 33,000 135 424 0
2019-05-27 14:58:05 GMT 49.171219 16.688522 33,000 135 424 0
2019-05-27 14:58:02 GMT 49.174026 16.684429 33,000 135 424 0
2019-05-27 14:57:58 GMT 49.179600 16.675728 33,000 135 424 0
2019-05-27 14:57:53 GMT 49.186863 16.664671 33,000 135 425 0
2019-05-27 14:57:50 GMT 49.191971 16.657034 33,000 135 425 0
2019-05-27 14:57:44 GMT 49.200035 16.644938 33,000 135 425 0
2019-05-27 14:57:41 GMT 49.203369 16.639780 33,000 135 425 0
2019-05-27 14:57:37 GMT 49.209412 16.630554 33,000 135 425 0
2019-05-27 14:57:34 GMT 49.212204 16.625977 33,000 135 425 0
2019-05-27 14:57:31 GMT 49.218750 16.616098 33,000 135 425 0
2019-05-27 14:57:25 GMT 49.232025 16.596046 33,000 135 425 0
2019-05-27 14:57:22 GMT 49.232025 16.596046 33,000 135 425 0
2019-05-27 14:57:19 GMT 49.234905 16.591524 33,000 135 425 0
2019-05-27 14:57:15 GMT 49.239048 16.584946 33,000 135 425 0
2019-05-27 14:57:12 GMT 49.243515 16.578442 33,000 135 425 0
2019-05-27 14:57:09 GMT 49.248356 16.570997 33,000 135 425 0
2019-05-27 14:57:06 GMT 49.252594 16.564058 33,000 135 425 0
2019-05-27 14:57:03 GMT 49.262009 16.549917 32,975 135 425 0
2019-05-27 14:57:00 GMT 49.262009 16.549917 33,000 135 425 0
2019-05-27 14:56:56 GMT 49.266048 16.544037 32,975 135 425 0
2019-05-27 14:56:53 GMT 49.270294 16.537382 32,975 135 425 0
2019-05-27 14:56:50 GMT 49.273727 16.532101 32,975 135 425 0
2019-05-27 14:56:47 GMT 49.278152 16.525171 33,000 135 425 0
2019-05-27 14:56:44 GMT 49.284164 16.516113 33,000 135 425 0
2019-05-27 14:56:38 GMT 49.295979 16.497995 33,000 135 425 0
2019-05-27 14:56:35 GMT 49.295979 16.497995 33,000 135 425 0
2019-05-27 14:56:31 GMT 49.308517 16.478859 32,975 134 425 0
2019-05-27 14:56:26 GMT 49.308517 16.478859 33,000 134 425 0
2019-05-27 14:56:23 GMT 49.316666 16.466393 32,975 134 425 0
2019-05-27 14:56:19 GMT 49.316666 16.466393 33,000 134 425 0
2019-05-27 14:56:15 GMT 49.327560 16.449209 32,975 134 425 0
2019-05-27 14:56:12 GMT 49.327560 16.449209 32,975 134 425 0
2019-05-27 14:56:02 GMT 49.342346 16.426744 32,975 134 426 0
2019-05-27 14:55:59 GMT 49.345139 16.422167 32,975 134 426 0
2019-05-27 14:55:55 GMT 49.355148 16.406853 32,975 134 426 0
2019-05-27 14:55:52 GMT 49.355148 16.406853 32,975 134 426 0
2019-05-27 14:55:49 GMT 49.359852 16.399481 32,975 134 426 0
2019-05-27 14:55:44 GMT 49.369629 16.384628 32,975 134 426 0
2019-05-27 14:55:38 GMT 49.374001 16.377796 33,000 134 426 0
2019-05-27 14:55:33 GMT 49.382858 16.364206 33,000 134 426 -64
2019-05-27 14:55:30 GMT 49.385780 16.359293 33,000 134 425 0
2019-05-27 14:55:27 GMT 49.390762 16.351921 33,000 134 426 0
2019-05-27 14:55:24 GMT 49.393692 16.347151 33,000 134 426 -64
2019-05-27 14:55:21 GMT 49.399338 16.338713 33,000 134 426 -64
2019-05-27 14:55:17 GMT 49.402119 16.334429 33,000 134 426 -64
2019-05-27 14:55:12 GMT 49.410049 16.322021 33,000 134 426 -64
2019-05-27 14:55:08 GMT 49.417007 16.311317 33,025 134 426 -64
2019-05-27 14:55:05 GMT 49.421265 16.304697 33,025 134 425 0
2019-05-27 14:55:02 GMT 49.424835 16.299086 33,025 134 426 0
2019-05-27 14:54:58 GMT 49.431957 16.288271 33,025 134 425 0
2019-05-27 14:54:54 GMT 49.434631 16.284122 33,025 134 424 0
2019-05-27 14:54:49 GMT 49.443054 16.271112 33,025 134 425 0
2019-05-27 14:54:45 GMT 49.448624 16.262512 33,025 134 424 0
2019-05-27 14:54:39 GMT 49.455563 16.251823 33,025 134 425 0
2019-05-27 14:54:35 GMT 49.462032 16.241728 33,025 134 425 0
2019-05-27 14:54:32 GMT 49.466217 16.235409 33,050 134 425 0
2019-05-27 14:54:26 GMT 49.473953 16.223337 33,050 134 426 0
2019-05-27 14:54:23 GMT 49.478210 16.216543 33,050 134 426 0
2019-05-27 14:54:20 GMT 49.482651 16.209967 33,050 134 427 0
2019-05-27 14:54:17 GMT 49.487549 16.202305 33,050 134 427 0
2019-05-27 14:54:14 GMT 49.490433 16.197823 33,025 134 427 0
2019-05-27 14:54:11 GMT 49.495083 16.190508 33,050 134 427 0
2019-05-27 14:54:08 GMT 49.500530 16.182194 33,025 134 427 0
2019-05-27 14:54:03 GMT 49.506317 16.173031 33,025 134 427 0
2019-05-27 14:53:58 GMT 49.513100 16.162373 33,025 134 428 0
2019-05-27 14:53:53 GMT 49.521103 16.150120 33,025 134 428 0
2019-05-27 14:53:50 GMT 49.524879 16.144186 33,025 134 428 0
2019-05-27 14:53:47 GMT 49.533817 16.130304 33,025 134 428 0
2019-05-27 14:53:40 GMT 49.536530 16.126051 33,025 134 428 0
2019-05-27 14:53:36 GMT 49.543312 16.115459 33,025 134 428 64
2019-05-27 14:53:33 GMT 49.547470 16.108994 33,025 134 428 64
2019-05-27 14:53:30 GMT 49.552048 16.101692 33,025 134 427 0
2019-05-27 14:53:27 GMT 49.557861 16.092802 33,025 134 428 64
2019-05-27 14:53:22 GMT 49.565563 16.080868 33,000 134 428 0
2019-05-27 14:53:19 GMT 49.567333 16.077972 33,000 134 427 0
2019-05-27 14:53:16 GMT 49.571056 16.072033 33,000 134 427 0
2019-05-27 14:53:12 GMT 49.580647 16.057186 33,000 134 427 0
2019-05-27 14:53:09 GMT 49.587982 16.045750 33,000 134 427 0
2019-05-27 14:53:04 GMT 49.595173 16.034397 33,000 134 427 0
2019-05-27 14:52:59 GMT 49.595173 16.034397 33,000 134 426 0
2019-05-27 14:52:54 GMT 49.601086 16.025118 33,000 134 426 0
2019-05-27 14:52:49 GMT 49.608902 16.013006 33,000 134 426 0
2019-05-27 14:52:45 GMT 49.614441 16.004261 33,000 134 426 0
2019-05-27 14:52:41 GMT 49.620529 15.994648 33,000 134 426 0
2019-05-27 14:52:38 GMT 49.624054 15.989010 33,000 134 426 0
2019-05-27 14:52:34 GMT 49.630550 15.979169 32,975 134 426 0
2019-05-27 14:52:31 GMT 49.638611 15.966315 32,975 134 425 0
2019-05-27 14:52:28 GMT 49.638611 15.966315 32,975 134 425 0
2019-05-27 14:52:23 GMT 49.644333 15.957642 32,975 134 425 0
2019-05-27 14:52:19 GMT 49.650661 15.947695 32,975 134 425 0
2019-05-27 14:52:13 GMT 49.658669 15.935001 32,975 134 425 0
2019-05-27 14:52:09 GMT 49.663651 15.927207 32,975 134 424 0
2019-05-27 14:52:06 GMT 49.668320 15.920129 32,975 134 424 0
2019-05-27 14:52:03 GMT 49.672401 15.913325 32,975 134 424 0
2019-05-27 14:51:58 GMT 49.678173 15.904492 32,975 134 424 0
2019-05-27 14:51:54 GMT 49.683609 15.896205 32,975 134 424 0
2019-05-27 14:51:51 GMT 49.688095 15.888977 32,975 134 424 0
2019-05-27 14:51:48 GMT 49.693398 15.880440 32,975 134 424 0
2019-05-27 14:51:44 GMT 49.698425 15.872720 32,975 134 425 0
2019-05-27 14:51:41 GMT 49.701508 15.867799 32,950 134 425 0
2019-05-27 14:51:37 GMT 49.706848 15.859433 32,975 134 425 0
2019-05-27 14:51:34 GMT 49.711086 15.852752 32,950 134 425 0
2019-05-27 14:51:31 GMT 49.716751 15.843803 32,950 134 424 0
2019-05-27 14:51:27 GMT 49.721008 15.837153 32,950 134 423 0
2019-05-27 14:51:24 GMT 49.725426 15.830185 32,950 134 424 0
2019-05-27 14:51:21 GMT 49.729935 15.822625 32,950 134 424 0
2019-05-27 14:51:18 GMT 49.734421 15.815976 32,950 134 423 0
2019-05-27 14:51:14 GMT 49.738724 15.809037 32,950 134 423 0
2019-05-27 14:51:11 GMT 49.743301 15.801680 32,950 134 423 0
2019-05-27 14:51:07 GMT 49.749584 15.791807 32,950 134 423 0
2019-05-27 14:51:02 GMT 49.755844 15.781571 32,950 134 423 0
2019-05-27 14:50:59 GMT 49.760193 15.775355 32,950 134 423 0
2019-05-27 14:50:56 GMT 49.765686 15.766682 32,950 134 423 0
2019-05-27 14:50:53 GMT 49.772209 15.756250 32,950 134 423 0
2019-05-27 14:50:50 GMT 49.772209 15.756250 32,950 134 423 0
2019-05-27 14:50:47 GMT 49.776031 15.750058 32,950 134 423 0
2019-05-27 14:50:44 GMT 49.779381 15.744967 32,950 134 423 0
2019-05-27 14:50:41 GMT 49.784172 15.737321 32,950 134 423 0
2019-05-27 14:50:38 GMT 49.789806 15.728265 32,950 134 423 0
2019-05-27 14:50:35 GMT 49.792923 15.723459 32,950 134 423 0
2019-05-27 14:50:31 GMT 49.800064 15.711678 32,950 134 423 0
2019-05-27 14:50:28 GMT 49.801987 15.709004 32,950 134 423 0
2019-05-27 14:50:25 GMT 49.807114 15.700981 32,950 134 423 0
2019-05-27 14:50:19 GMT 49.815781 15.687140 32,950 134 424 0
2019-05-27 14:50:16 GMT 49.824692 15.673370 32,950 134 424 0
2019-05-27 14:50:12 GMT 49.824692 15.673370 32,950 134 424 0
2019-05-27 14:50:09 GMT 49.828354 15.666865 32,950 134 424 0
2019-05-27 14:50:06 GMT 49.837849 15.652251 32,950 134 424 0
2019-05-27 14:50:02 GMT 49.837849 15.652251 32,950 134 424 0
2019-05-27 14:49:58 GMT 49.843201 15.643789 32,950 134 424 0
2019-05-27 14:49:54 GMT 49.848129 15.635713 32,950 134 424 0
2019-05-27 14:49:51 GMT 49.853676 15.626938 32,950 134 424 0
2019-05-27 14:49:47 GMT 49.858612 15.619451 32,950 134 424 0
2019-05-27 14:49:44 GMT 49.864105 15.610633 32,950 134 425 0
2019-05-27 14:49:41 GMT 49.865891 15.607597 32,950 134 425 0
2019-05-27 14:49:36 GMT 49.872856 15.596503 32,975 134 425 0
2019-05-27 14:49:31 GMT 49.880951 15.583600 32,975 134 425 0
2019-05-27 14:49:28 GMT 49.887939 15.572526 32,975 134 425 0
2019-05-27 14:49:25 GMT 49.893387 15.563767 32,975 134 425 0
2019-05-27 14:49:21 GMT 49.893387 15.563767 32,975 134 425 0
2019-05-27 14:49:18 GMT 49.898598 15.555898 32,975 134 425 0
2019-05-27 14:49:15 GMT 49.901810 15.550776 32,975 134 425 0
2019-05-27 14:49:10 GMT 49.909698 15.538282 32,975 134 426 0
2019-05-27 14:49:07 GMT 49.911942 15.534596 32,975 134 427 0
2019-05-27 14:49:04 GMT 49.916245 15.527802 32,975 134 427 0
2019-05-27 14:49:00 GMT 49.926453 15.511105 32,975 134 427 0
2019-05-27 14:48:57 GMT 49.931488 15.503444 33,000 134 427 0
2019-05-27 14:48:54 GMT 49.931488 15.503444 32,975 134 427 0
2019-05-27 14:48:49 GMT 49.936386 15.495710 33,000 134 427 0
2019-05-27 14:48:46 GMT 49.941380 15.487679 33,000 133 432 64
2019-05-27 14:48:43 GMT 49.947464 15.477713 33,000 134 431 0
2019-05-27 14:48:40 GMT 49.950485 15.473159 33,000 134 429 0
2019-05-27 14:48:36 GMT 49.955532 15.465113 33,000 134 431 0
2019-05-27 14:48:31 GMT 49.964767 15.450319 33,000 134 431 0
2019-05-27 14:48:28 GMT 49.966564 15.447149 33,000 134 431 0
2019-05-27 14:48:25 GMT 49.972477 15.437647 32,975 134 432 0
2019-05-27 14:48:21 GMT 49.977356 15.430081 32,975 134 432 0
2019-05-27 14:48:17 GMT 49.981789 15.422949 32,975 134 434 0
2019-05-27 14:48:14 GMT 49.992142 15.406157 32,975 134 434 0
2019-05-27 14:48:10 GMT 49.997383 15.398007 32,975 133 432 0
2019-05-27 14:48:04 GMT 50.000244 15.393147 32,975 133 434 0
2019-05-27 14:48:00 GMT 50.006012 15.383678 32,975 133 434 0
2019-05-27 14:47:56 GMT 50.017448 15.365865 33,000 133 434 0
2019-05-27 14:47:52 GMT 50.017448 15.365865 33,000 133 434 0
2019-05-27 14:47:48 GMT 50.024151 15.355027 33,000 133 433 0
2019-05-27 14:47:45 GMT 50.031693 15.342778 33,000 133 432 0
2019-05-27 14:47:41 GMT 50.031693 15.342778 33,000 133 432 0
2019-05-27 14:47:38 GMT 50.035881 15.336023 32,975 133 432 0
2019-05-27 14:47:35 GMT 50.040119 15.328897 32,975 133 434 0
2019-05-27 14:47:32 GMT 50.045471 15.320286 32,975 133 426 -960
2019-05-27 14:47:29 GMT 50.049911 15.313424 32,975 133 433 0
2019-05-27 14:47:24 GMT 50.056000 15.303594 32,975 133 434 0
2019-05-27 14:47:20 GMT 50.063255 15.291781 32,975 133 434 0
2019-05-27 14:47:17 GMT 50.064789 15.289183 32,975 133 434 -64
2019-05-27 14:47:14 GMT 50.076336 15.270848 33,000 133 432 0
2019-05-27 14:47:10 GMT 50.076336 15.270848 33,000 133 434 -64
2019-05-27 14:47:07 GMT 50.078293 15.267527 33,000 133 432 0
2019-05-27 14:47:03 GMT 50.084854 15.256966 33,000 133 432 0
2019-05-27 14:47:00 GMT 50.093235 15.242862 33,025 133 430 -128
2019-05-27 14:46:57 GMT 50.098354 15.234994 33,000 133 431 -64
2019-05-27 14:46:53 GMT 50.098354 15.234994 33,000 133 430 -192
2019-05-27 14:46:49 GMT 50.104294 15.225533 33,025 133 430 -320
2019-05-27 14:46:45 GMT 50.109787 15.216787 33,050 134 431 -704
2019-05-27 14:46:42 GMT 50.113251 15.210794 33,050 134 431 -704
2019-05-27 14:46:39 GMT 50.125168 15.191851 33,125 133 430 -1088
2019-05-27 14:46:35 GMT 50.125168 15.191851 33,200 133 430 -1024
2019-05-27 14:46:32 GMT 50.128235 15.186936 33,250 133 430 -1024
2019-05-27 14:46:29 GMT 50.132767 15.179419 33,300 133 426 -960
2019-05-27 14:46:26 GMT 50.140949 15.166329 33,375 133 428 -1088
2019-05-27 14:46:23 GMT 50.140949 15.166329 33,425 133 427 -1088
2019-05-27 14:46:16 GMT 50.155010 15.143763 33,550 133 425 -896
2019-05-27 14:46:13 GMT 50.155010 15.143763 33,600 133 424 -768
2019-05-27 14:46:07 GMT 50.163246 15.130401 33,700 133 422 -704
2019-05-27 14:46:04 GMT 50.165997 15.125724 33,725 133 422 -704
2019-05-27 14:45:59 GMT 50.178005 15.106127 33,850 133 417 -896
2019-05-27 14:45:55 GMT 50.178005 15.106127 33,850 133 417 -896
2019-05-27 14:45:52 GMT 50.182159 15.099696 33,875 133 417 -1280
2019-05-27 14:45:49 GMT 50.185455 15.093953 33,900 133 417 -1280
2019-05-27 14:45:46 GMT 50.196159 15.077028 34,125 133 417 -1856
2019-05-27 14:45:43 GMT 50.196159 15.077028 34,100 133 418 -2048
2019-05-27 14:45:39 GMT 50.198868 15.072519 34,150 133 418 -2112
2019-05-27 14:45:35 GMT 50.206100 15.060810 34,625 133 418 -1664
2019-05-27 14:45:32 GMT 50.209007 15.056020 34,500 133 418 -1536
2019-05-27 14:45:29 GMT 50.214478 15.047150 34,550 133 419 -1408
2019-05-27 14:45:26 GMT 50.216812 15.043030 34,625 133 419 -1280
2019-05-27 14:45:22 GMT 50.228283 15.024472 34,750 133 421 -1024
2019-05-27 14:45:18 GMT 50.228283 15.024472 34,800 133 420 -896
2019-05-27 14:45:15 GMT 50.234573 15.014263 34,975 133 421 -576
2019-05-27 14:45:09 GMT 50.239105 15.006963 34,925 133 422 -256
2019-05-27 14:45:06 GMT 50.243366 14.999678 34,975 133 422 -128
2019-05-27 14:45:03 GMT 50.248905 14.990622 34,975 133 422 -128
2019-05-27 14:44:59 GMT 50.259796 14.973178 34,975 133 422 0
2019-05-27 14:44:56 GMT 50.259796 14.973178 34,975 133 422 0
2019-05-27 14:44:52 GMT 50.262085 14.969089 34,975 133 422 0
2019-05-27 14:44:49 GMT 50.266113 14.962801 34,975 133 421 0
2019-05-27 14:44:46 GMT 50.271103 14.954705 34,975 133 420 0
2019-05-27 14:44:43 GMT 50.281082 14.938154 35,000 133 420 0
2019-05-27 14:44:38 GMT 50.281082 14.938154 35,000 133 419 0
2019-05-27 14:44:34 GMT 50.286758 14.929191 35,000 133 416 0
2019-05-27 14:44:31 GMT 50.292755 14.919508 35,000 133 416 0
2019-05-27 14:44:28 GMT 50.294388 14.916539 35,000 133 415 0
2019-05-27 14:44:24 GMT 50.305389 14.898834 35,000 133 413 0
2019-05-27 14:44:20 GMT 50.305389 14.898834 35,000 133 413 0
2019-05-27 14:44:17 GMT 50.309982 14.891522 35,000 133 413 0
2019-05-27 14:44:14 GMT 50.314087 14.884451 35,000 134 413 0
2019-05-27 14:44:11 GMT 50.319523 14.875637 34,975 134 413 0
2019-05-27 14:44:08 GMT 50.322968 14.870357 35,000 134 413 0
2019-05-27 14:44:02 GMT 50.329300 14.860197 34,975 133 412 0
2019-05-27 14:43:59 GMT 50.332077 14.855250 35,000 133 412 0
2019-05-27 14:43:56 GMT 50.338165 14.845565 34,975 133 412 0
2019-05-27 14:43:53 GMT 50.341125 14.840970 34,975 133 412 0
2019-05-27 14:43:50 GMT 50.347504 14.830652 35,000 133 414 0
2019-05-27 14:43:47 GMT 50.348991 14.828351 34,975 133 411 0
2019-05-27 14:43:44 GMT 50.352539 14.822074 35,000 133 412 0
2019-05-27 14:43:41 GMT 50.356487 14.815732 35,000 133 412 0
2019-05-27 14:43:38 GMT 50.359791 14.810535 35,000 133 413 0
2019-05-27 14:43:35 GMT 50.363708 14.803716 35,000 133 413 0
2019-05-27 14:43:32 GMT 50.368469 14.796199 35,000 133 413 0
2019-05-27 14:43:29 GMT 50.374737 14.786039 35,000 133 416 0
2019-05-27 14:43:25 GMT 50.377945 14.780442 35,000 133 416 0
2019-05-27 14:43:22 GMT 50.383068 14.771860 35,000 133 418 0
2019-05-27 14:43:18 GMT 50.387863 14.764437 35,000 133 418 0
2019-05-27 14:43:15 GMT 50.390656 14.759686 35,000 133 420 0
2019-05-27 14:43:12 GMT 50.396027 14.750591 35,000 133 421 0
2019-05-27 14:43:08 GMT 50.401886 14.740906 35,000 133 427 0
2019-05-27 14:43:04 GMT 50.412003 14.724643 35,000 133 428 0
2019-05-27 14:43:01 GMT 50.412003 14.724643 34,975 133 430 0
2019-05-27 14:42:58 GMT 50.414352 14.720418 35,000 133 431 0
2019-05-27 14:42:54 GMT 50.420334 14.710838 34,975 133 433 0
2019-05-27 14:42:51 GMT 50.424179 14.704477 34,975 133 434 0
2019-05-27 14:42:48 GMT 50.428116 14.697539 35,000 133 437 -192
2019-05-27 14:42:42 GMT 50.441940 14.674626 35,025 133 439 -64
2019-05-27 14:42:39 GMT 50.441940 14.674626 35,025 133 439 64
2019-05-27 14:42:35 GMT 50.447216 14.666377 35,050 133 439 -64
2019-05-27 14:42:31 GMT 50.455086 14.653238 35,050 133 438 -64
2019-05-27 14:42:28 GMT 50.455086 14.653238 35,050 133 438 0
2019-05-27 14:42:25 GMT 50.464005 14.638776 35,050 133 438 0
2019-05-27 14:42:22 GMT 50.464005 14.638776 35,050 133 437 64
2019-05-27 14:42:19 GMT 50.469002 14.630226 35,050 133 437 64
2019-05-27 14:42:16 GMT 50.473473 14.623100 35,025 133 437 128
2019-05-27 14:42:11 GMT 50.483761 14.606026 35,025 133 437 128
2019-05-27 14:42:07 GMT 50.485531 14.603131 35,000 133 437 128
2019-05-27 14:42:02 GMT 50.491287 14.593675 34,975 133 437 128
2019-05-27 14:41:59 GMT 50.496887 14.584202 35,000 133 437 128
2019-05-27 14:41:56 GMT 50.501312 14.576689 35,000 133 437 64
2019-05-27 14:41:50 GMT 50.509598 14.562812 34,975 133 437 0
2019-05-27 14:41:46 GMT 50.515278 14.553247 35,000 133 437 0
2019-05-27 14:41:40 GMT 50.521374 14.543078 34,975 133 437 0
2019-05-27 14:41:37 GMT 50.525845 14.536026 35,000 133 436 -64
2019-05-27 14:41:34 GMT 50.529282 14.529997 35,000 133 435 0
2019-05-27 14:41:31 GMT 50.539169 14.513807 35,000 133 434 0
2019-05-27 14:41:28 GMT 50.539169 14.513807 35,000 133 434 0
2019-05-27 14:41:24 GMT 50.544464 14.504922 35,000 133 433 0
2019-05-27 14:41:21 GMT 50.549583 14.496015 35,000 133 432 0
2019-05-27 14:41:18 GMT 50.556885 14.484245 35,000 133 432 64
2019-05-27 14:41:15 GMT 50.562881 14.474198 35,000 133 432 0
2019-05-27 14:41:11 GMT 50.562881 14.474198 34,975 133 432 0
2019-05-27 14:41:08 GMT 50.567509 14.466248 34,975 133 432 0
2019-05-27 14:41:05 GMT 50.570721 14.461200 34,975 133 432 0
2019-05-27 14:41:02 GMT 50.575012 14.453743 34,975 133 432 0
2019-05-27 14:40:59 GMT 50.579041 14.447311 34,975 133 432 0
2019-05-27 14:40:56 GMT 50.585526 14.436555 34,975 133 432 0
2019-05-27 14:40:53 GMT 50.586914 14.434084 34,975 133 432 0
2019-05-27 14:40:50 GMT 50.590832 14.427795 35,000 133 432 -64
2019-05-27 14:40:47 GMT 50.595951 14.419185 34,975 133 432 -64
2019-05-27 14:40:43 GMT 50.600372 14.411750 35,000 133 432 -64
2019-05-27 14:40:39 GMT 50.605911 14.402787 35,000 133 432 0
2019-05-27 14:40:36 GMT 50.611404 14.393752 35,000 133 432 0
2019-05-27 14:40:33 GMT 50.614563 14.387898 35,000 133 432 0
2019-05-27 14:40:29 GMT 50.619133 14.380584 35,000 133 432 0
2019-05-27 14:40:26 GMT 50.623508 14.373606 35,000 133 432 0
2019-05-27 14:40:23 GMT 50.629749 14.363139 34,975 133 434 0
2019-05-27 14:40:20 GMT 50.632355 14.358760 35,000 133 434 0
2019-05-27 14:40:17 GMT 50.636639 14.351708 34,975 133 435 0
2019-05-27 14:40:14 GMT 50.642365 14.341983 34,975 133 435 0
2019-05-27 14:40:11 GMT 50.646744 14.334339 34,975 133 435 0
2019-05-27 14:40:08 GMT 50.651348 14.327063 35,000 133 435 64
2019-05-27 14:40:05 GMT 50.656517 14.318378 34,975 133 435 0
2019-05-27 14:40:02 GMT 50.656517 14.318378 34,975 133 435 0
2019-05-27 14:39:59 GMT 50.664848 14.304496 34,975 133 433 0
2019-05-27 14:39:56 GMT 50.664848 14.304496 34,975 133 435 0
2019-05-27 14:39:50 GMT 50.674896 14.287497 34,975 133 434 0
2019-05-27 14:39:46 GMT 50.684914 14.271088 35,000 133 433 0
2019-05-27 14:39:43 GMT 50.684914 14.271088 35,000 133 432 0
2019-05-27 14:39:39 GMT 50.688637 14.264832 35,000 133 432 0
2019-05-27 14:39:35 GMT 50.697994 14.249039 35,000 133 431 -64
2019-05-27 14:39:29 GMT 50.702179 14.242141 35,000 133 430 0
2019-05-27 14:39:25 GMT 50.708130 14.232268 35,000 133 428 0
2019-05-27 14:39:22 GMT 50.712749 14.224167 35,025 133 428 -64
2019-05-27 14:39:19 GMT 50.717407 14.216690 35,025 133 428 -64
2019-05-27 14:39:16 GMT 50.720673 14.211335 35,025 133 428 -64
2019-05-27 14:39:13 GMT 50.723373 14.206510 35,025 133 428 -64
2019-05-27 14:39:10 GMT 50.728500 14.198048 35,025 133 428 0
2019-05-27 14:39:07 GMT 50.732258 14.191818 35,025 133 428 0
2019-05-27 14:39:04 GMT 50.735916 14.185725 35,025 133 428 0
2019-05-27 14:39:01 GMT 50.740822 14.177475 35,025 133 430 0
2019-05-27 14:38:57 GMT 50.750610 14.161228 35,025 133 430 0
2019-05-27 14:38:51 GMT 50.753220 14.156775 35,025 133 430 0
2019-05-27 14:38:48 GMT 50.758942 14.147347 35,050 133 431 0
2019-05-27 14:38:45 GMT 50.761688 14.142448 35,050 133 431 0
2019-05-27 14:38:42 GMT 50.766037 14.135470 35,050 133 432 0
2019-05-27 14:38:39 GMT 50.770149 14.128418 35,050 133 432 0
2019-05-27 14:38:36 GMT 50.774525 14.121323 35,050 133 432 0
2019-05-27 14:38:33 GMT 50.778435 14.114838 35,050 133 433 64
2019-05-27 14:38:30 GMT 50.783340 14.106668 35,025 133 433 64
2019-05-27 14:38:27 GMT 50.785309 14.103476 35,025 133 433 128
2019-05-27 14:38:24 GMT 50.789795 14.095756 35,025 132 436 192
2019-05-27 14:38:21 GMT 50.800232 14.077495 35,025 130 439 320
2019-05-27 14:38:18 GMT 50.800232 14.077495 35,025 129 441 320
2019-05-27 14:38:15 GMT 50.803341 14.071655 35,025 127 443 256
2019-05-27 14:38:12 GMT 50.807114 14.064102 35,025 127 444 192
2019-05-27 14:38:09 GMT 50.810558 14.057312 35,025 127 444 64
2019-05-27 14:38:05 GMT 50.816254 14.045204 35,025 127 444 -64
2019-05-27 14:38:02 GMT 50.819412 14.038597 35,025 127 444 0
2019-05-27 14:37:59 GMT 50.827549 14.021835 35,025 127 445 0
2019-05-27 14:37:56 GMT 50.827549 14.021835 35,000 127 444 0
2019-05-27 14:37:52 GMT 50.832718 14.011002 35,025 127 444 -64
2019-05-27 14:37:49 GMT 50.835602 14.005356 35,000 127 444 0
2019-05-27 14:37:46 GMT 50.839840 13.996658 35,025 127 445 0
2019-05-27 14:37:43 GMT 50.844406 13.987155 35,000 127 445 0
2019-05-27 14:37:40 GMT 50.851894 13.972015 35,000 127 445 -64
2019-05-27 14:37:36 GMT 50.851894 13.972015 35,025 127 445 -64
2019-05-27 14:37:33 GMT 50.856445 13.962435 35,025 127 445 0
2019-05-27 14:37:30 GMT 50.858692 13.958130 35,025 127 445 0
2019-05-27 14:37:27 GMT 50.868282 13.938522 35,025 128 446 0
2019-05-27 14:37:20 GMT 50.871826 13.931481 35,025 128 445 64
2019-05-27 14:37:17 GMT 50.875259 13.924577 35,025 128 445 64
2019-05-27 14:37:13 GMT 50.882526 13.910065 35,000 128 445 128
2019-05-27 14:37:09 GMT 50.885647 13.903427 35,000 128 445 64
2019-05-27 14:37:05 GMT 50.890488 13.893967 35,000 128 446 0
2019-05-27 14:37:02 GMT 50.899887 13.874990 35,000 128 445 0
2019-05-27 14:36:59 GMT 50.899887 13.874990 35,000 128 446 -64
2019-05-27 14:36:56 GMT 50.902359 13.870091 35,000 128 446 0
2019-05-27 14:36:52 GMT 50.906021 13.862742 35,000 128 446 0
2019-05-27 14:36:49 GMT 50.911156 13.852234 35,000 128 445 0
2019-05-27 14:36:46 GMT 50.915085 13.844555 35,000 127 446 -64
2019-05-27 14:36:43 GMT 50.918839 13.836823 35,000 126 447 0
2019-05-27 14:36:40 GMT 50.923168 13.827209 35,000 125 448 0
2019-05-27 14:36:37 GMT 50.931244 13.809592 35,025 123 449 -64
2019-05-27 14:36:34 GMT 50.931244 13.809592 35,025 123 449 -64
2019-05-27 14:36:31 GMT 50.935089 13.800610 35,000 123 449 -64
2019-05-27 14:36:28 GMT 50.937321 13.795242 35,025 123 450 -64
2019-05-27 14:36:25 GMT 50.939552 13.789291 35,025 122 451 0
2019-05-27 14:36:22 GMT 50.946671 13.771808 35,025 121 452 0
2019-05-27 14:36:16 GMT 50.950447 13.761826 35,025 122 451 0
2019-05-27 14:36:12 GMT 50.955612 13.748932 35,025 122 451 0
2019-05-27 14:36:09 GMT 50.959942 13.738022 35,000 121 451 0
2019-05-27 14:36:06 GMT 50.964890 13.725487 35,025 122 451 0
2019-05-27 14:36:00 GMT 50.967999 13.717728 35,025 121 451 0
2019-05-27 14:35:57 GMT 50.971863 13.707581 35,000 121 451 64
2019-05-27 14:35:54 GMT 50.974236 13.702011 35,000 121 451 64
2019-05-27 14:35:51 GMT 50.978333 13.691483 35,000 121 451 64
2019-05-27 14:35:48 GMT 50.982468 13.680874 35,000 122 451 64
2019-05-27 14:35:45 GMT 50.986431 13.670807 35,000 122 451 64
2019-05-27 14:35:41 GMT 50.992390 13.655472 35,000 122 451 0
2019-05-27 14:35:37 GMT 50.992390 13.655472 35,000 122 450 0
2019-05-27 14:35:34 GMT 50.996674 13.645248 35,000 122 450 0
2019-05-27 14:35:31 GMT 51.000732 13.635147 35,000 122 450 0
2019-05-27 14:35:28 GMT 51.003479 13.627946 35,000 122 450 0
2019-05-27 14:35:25 GMT 51.009708 13.612595 34,975 122 450 0
2019-05-27 14:35:18 GMT 51.015244 13.599367 35,000 122 450 0
2019-05-27 14:35:15 GMT 51.017395 13.593874 35,000 122 450 0
2019-05-27 14:35:12 GMT 51.024696 13.575211 35,000 122 444 0
2019-05-27 14:35:06 GMT 51.028141 13.567047 35,000 122 450 0
2019-05-27 14:35:03 GMT 51.031494 13.558539 34,975 122 450 0
2019-05-27 14:35:00 GMT 51.035980 13.547256 34,975 122 450 0
2019-05-27 14:34:57 GMT 51.039642 13.538208 34,975 122 450 0
2019-05-27 14:34:54 GMT 51.041924 13.532791 34,975 122 450 0
2019-05-27 14:34:51 GMT 51.044483 13.526306 35,000 122 449 64
2019-05-27 14:34:48 GMT 51.048393 13.516617 34,975 122 449 0
2019-05-27 14:34:45 GMT 51.051270 13.509175 34,975 122 449 0
2019-05-27 14:34:42 GMT 51.055656 13.498535 34,975 122 448 0
2019-05-27 14:34:38 GMT 51.059647 13.488687 34,975 122 447 0
2019-05-27 14:34:35 GMT 51.067978 13.467679 35,000 122 448 0
2019-05-27 14:34:32 GMT 51.067978 13.467679 35,000 122 445 0
2019-05-27 14:34:28 GMT 51.070221 13.462483 34,975 122 444 0
2019-05-27 14:34:24 GMT 51.074615 13.451497 34,975 122 447 0
2019-05-27 14:34:21 GMT 51.078884 13.440628 35,000 122 446 0
2019-05-27 14:34:15 GMT 51.085922 13.423437 34,975 122 445 0
2019-05-27 14:34:12 GMT 51.089035 13.415494 35,000 122 445 0
2019-05-27 14:34:09 GMT 51.091690 13.409185 35,000 122 445 0
2019-05-27 14:34:04 GMT 51.096634 13.396862 35,000 122 443 0
2019-05-27 14:34:01 GMT 51.100754 13.386544 35,000 122 452 0
2019-05-27 14:33:57 GMT 51.103775 13.379121 35,000 122 443 0
2019-05-27 14:33:54 GMT 51.108398 13.367689 35,000 122 443 0
2019-05-27 14:33:51 GMT 51.111889 13.358917 35,000 122 443 0
2019-05-27 14:33:48 GMT 51.115150 13.350525 35,000 122 443 0
2019-05-27 14:33:44 GMT 51.120224 13.337860 35,000 122 444 0
2019-05-27 14:33:41 GMT 51.121990 13.333588 35,000 122 444 0
2019-05-27 14:33:38 GMT 51.125389 13.324890 34,975 121 458 0
2019-05-27 14:33:35 GMT 51.129913 13.313722 35,000 122 449 0
2019-05-27 14:33:32 GMT 51.133301 13.305186 35,000 122 446 0
2019-05-27 14:33:29 GMT 51.138748 13.291379 35,000 122 449 0
2019-05-27 14:33:23 GMT 51.142593 13.281506 35,000 122 449 64
2019-05-27 14:33:20 GMT 51.147034 13.270371 35,000 122 450 0
2019-05-27 14:33:13 GMT 51.152996 13.255157 34,975 122 453 0
2019-05-27 14:33:10 GMT 51.156300 13.247070 34,975 122 453 -64
2019-05-27 14:33:07 GMT 51.159668 13.238600 35,000 122 455 64
2019-05-27 14:33:04 GMT 51.163834 13.227762 35,000 122 456 0
2019-05-27 14:33:01 GMT 51.166775 13.220673 35,000 122 456 0
2019-05-27 14:32:58 GMT 51.171429 13.208923 35,000 122 456 0
2019-05-27 14:32:55 GMT 51.174454 13.201038 35,000 122 456 0
2019-05-27 14:32:52 GMT 51.176178 13.196869 35,000 122 457 0
2019-05-27 14:32:49 GMT 51.180725 13.185301 35,000 122 457 0
2019-05-27 14:32:45 GMT 51.185120 13.173795 35,000 122 457 0
2019-05-27 14:32:42 GMT 51.188004 13.166966 35,000 122 457 0
2019-05-27 14:32:39 GMT 51.192398 13.155757 35,000 121 458 0
2019-05-27 14:32:36 GMT 51.198338 13.140488 35,000 122 456 0
2019-05-27 14:32:33 GMT 51.198338 13.140488 35,000 121 459 0
2019-05-27 14:32:30 GMT 51.204849 13.123837 35,000 122 459 0
2019-05-27 14:32:27 GMT 51.208099 13.115597 35,000 122 460 64
2019-05-27 14:32:24 GMT 51.208099 13.115597 34,975 122 460 0
2019-05-27 14:32:21 GMT 51.212444 13.104324 34,975 122 459 0
2019-05-27 14:32:18 GMT 51.215050 13.097992 35,000 122 459 0
2019-05-27 14:32:14 GMT 51.219006 13.087921 35,000 122 459 0
2019-05-27 14:32:11 GMT 51.223251 13.076848 35,000 122 459 0
2019-05-27 14:32:08 GMT 51.227783 13.065491 35,000 122 459 0
2019-05-27 14:32:04 GMT 51.229900 13.060379 35,000 122 459 0
2019-05-27 14:32:01 GMT 51.233856 13.050003 35,000 122 459 0
2019-05-27 14:31:58 GMT 51.237022 13.042297 35,000 122 459 0
2019-05-27 14:31:55 GMT 51.241165 13.031769 34,975 121 458 0
2019-05-27 14:31:52 GMT 51.245403 13.020782 34,975 121 458 0
2019-05-27 14:31:49 GMT 51.248611 13.012712 34,975 122 448 0
2019-05-27 14:31:46 GMT 51.251034 13.006516 34,975 122 457 0
2019-05-27 14:31:43 GMT 51.255249 12.995564 34,975 121 457 0
2019-05-27 14:31:40 GMT 51.257133 12.991104 35,000 122 456 0
2019-05-27 14:31:36 GMT 51.261703 12.979456 34,975 122 455 0
2019-05-27 14:31:33 GMT 51.265045 12.970810 34,975 122 453 0
2019-05-27 14:31:30 GMT 51.269051 12.960892 34,975 122 454 0
2019-05-27 14:31:26 GMT 51.274357 12.947464 34,975 122 453 0
2019-05-27 14:31:23 GMT 51.276672 12.941301 35,000 122 452 0
2019-05-27 14:31:20 GMT 51.280502 12.931595 35,000 122 451 0
2019-05-27 14:31:17 GMT 51.282761 12.926232 35,000 122 451 0
2019-05-27 14:31:14 GMT 51.286514 12.916210 35,000 122 451 0
2019-05-27 14:31:11 GMT 51.292374 12.901154 35,000 121 449 0
2019-05-27 14:31:05 GMT 51.297447 12.888412 35,000 122 448 0
2019-05-27 14:31:02 GMT 51.300659 12.880630 34,975 122 448 64
2019-05-27 14:30:59 GMT 51.303547 12.872849 34,975 122 448 64
2019-05-27 14:30:56 GMT 51.309769 12.857344 34,975 122 448 0
2019-05-27 14:30:53 GMT 51.309769 12.857344 34,975 122 448 64
2019-05-27 14:30:50 GMT 51.312576 12.849960 34,975 122 448 64
2019-05-27 14:30:47 GMT 51.315720 12.842275 34,975 122 448 64
2019-05-27 14:30:44 GMT 51.319653 12.831879 34,975 122 448 128
2019-05-27 14:30:41 GMT 51.323044 12.823495 34,975 122 448 256
2019-05-27 14:30:38 GMT 51.325974 12.816071 34,950 121 447 512
2019-05-27 14:30:35 GMT 51.330685 12.803879 34,925 121 447 768
2019-05-27 14:30:32 GMT 51.334351 12.794396 34,825 121 448 1024
2019-05-27 14:30:29 GMT 51.335678 12.791501 34,850 121 448 1024
2019-05-27 14:30:26 GMT 51.338413 12.783966 34,825 121 448 1024
2019-05-27 14:30:23 GMT 51.342323 12.774124 34,750 121 449 1088
2019-05-27 14:30:18 GMT 51.347260 12.761230 34,675 121 450 960
2019-05-27 14:30:15 GMT 51.352249 12.747926 34,625 121 450 960
2019-05-27 14:30:12 GMT 51.354473 12.742004 34,600 121 450 1024
2019-05-27 14:30:09 GMT 51.359268 12.729340 34,450 121 453 960
2019-05-27 14:30:06 GMT 51.361450 12.723875 34,450 121 453 960
2019-05-27 14:30:02 GMT 51.365524 12.712369 34,375 121 453 960
2019-05-27 14:29:59 GMT 51.369049 12.703610 34,325 121 455 960
2019-05-27 14:29:56 GMT 51.371429 12.696855 34,300 121 455 896
2019-05-27 14:29:53 GMT 51.375423 12.686462 34,225 121 457 1024
2019-05-27 14:29:50 GMT 51.382004 12.668869 34,175 121 458 1024
2019-05-27 14:29:47 GMT 51.384705 12.661966 33,950 121 458 960
2019-05-27 14:29:44 GMT 51.387527 12.654724 34,050 121 458 960
2019-05-27 14:29:41 GMT 51.392040 12.642288 34,000 121 459 960
2019-05-27 14:29:37 GMT 51.392040 12.642288 33,925 121 458 1024
2019-05-27 14:29:34 GMT 51.394775 12.635539 32,225 123 470 1024
2019-05-27 14:29:31 GMT 51.402145 12.616165 33,825 122 459 1024
2019-05-27 14:29:28 GMT 51.405396 12.608148 33,700 122 458 1024
2019-05-27 14:29:21 GMT 51.411312 12.593155 33,675 122 458 1024
2019-05-27 14:29:18 GMT 51.416340 12.580795 33,600 123 458 1088
2019-05-27 14:29:10 GMT 51.422905 12.564850 33,525 123 458 1024
2019-05-27 14:29:07 GMT 51.426407 12.556408 33,475 123 458 960
2019-05-27 14:29:03 GMT 51.431190 12.544861 33,450 123 458 960
2019-05-27 14:29:00 GMT 51.435013 12.535920 33,325 123 459 960
2019-05-27 14:28:57 GMT 51.438080 12.528534 33,300 123 467 1152
2019-05-27 14:28:54 GMT 51.443340 12.516098 33,250 123 461 896
2019-05-27 14:28:49 GMT 51.447372 12.506153 33,175 123 462 960
2019-05-27 14:28:46 GMT 51.450836 12.498322 33,125 123 464 1088
2019-05-27 14:28:43 GMT 51.454605 12.489154 33,025 123 464 1152
2019-05-27 14:28:40 GMT 51.459549 12.477128 32,975 123 465 1216
2019-05-27 14:28:37 GMT 51.463451 12.468109 32,950 123 465 1216
2019-05-27 14:28:34 GMT 51.466896 12.459793 32,900 123 466 1152
2019-05-27 14:28:31 GMT 51.469894 12.452929 32,700 123 467 1088
2019-05-27 14:28:28 GMT 51.473557 12.443798 32,700 123 467 1152
2019-05-27 14:28:25 GMT 51.475464 12.439194 32,675 123 467 1024
2019-05-27 14:28:22 GMT 51.484772 12.417221 32,625 123 467 768
2019-05-27 14:28:16 GMT 51.491524 12.400970 32,475 123 467 832
2019-05-27 14:28:13 GMT 51.495388 12.391891 32,400 123 468 1280
2019-05-27 14:28:10 GMT 51.495388 12.391891 32,500 123 468 1152
2019-05-27 14:28:07 GMT 51.501160 12.377880 32,400 123 468 1280
2019-05-27 14:28:01 GMT 51.505371 12.367488 32,225 123 470 1024
2019-05-27 14:27:57 GMT 51.510284 12.355728 32,200 123 470 1088
2019-05-27 14:27:50 GMT 51.518616 12.335968 32,050 123 470 576
2019-05-27 14:27:47 GMT 51.523224 12.324753 32,025 123 470 768
2019-05-27 14:27:44 GMT 51.525738 12.318268 32,000 123 470 512
2019-05-27 14:27:39 GMT 51.531837 12.303848 31,975 123 470 512
2019-05-27 14:27:36 GMT 51.535191 12.296066 31,925 123 469 448
2019-05-27 14:27:33 GMT 51.539474 12.285610 31,900 123 469 448
2019-05-27 14:27:28 GMT 51.545059 12.272100 31,875 123 469 448
2019-05-27 14:27:25 GMT 51.548447 12.263860 31,850 123 468 384
2019-05-27 14:27:22 GMT 51.553116 12.252948 31,825 123 468 384
2019-05-27 14:27:18 GMT 51.558289 12.240403 31,800 123 468 448
2019-05-27 14:27:15 GMT 51.559910 12.236252 31,775 123 468 448
2019-05-27 14:27:11 GMT 51.569870 12.212566 31,725 123 467 512
2019-05-27 14:27:08 GMT 51.569870 12.212566 31,700 123 464 448
2019-05-27 14:27:05 GMT 51.573532 12.203435 31,675 123 465 448
2019-05-27 14:27:01 GMT 51.576736 12.195789 31,675 123 465 448
2019-05-27 14:26:57 GMT 51.582642 12.181611 31,625 123 464 448
2019-05-27 14:26:54 GMT 51.587002 12.171326 31,600 123 461 512
2019-05-27 14:26:51 GMT 51.588638 12.166765 31,525 123 461 512
2019-05-27 14:26:48 GMT 51.592941 12.156743 31,550 123 464 512
2019-05-27 14:26:45 GMT 51.596786 12.147316 31,450 123 459 448
2019-05-27 14:26:42 GMT 51.600689 12.137909 31,500 123 461 512
2019-05-27 14:26:39 GMT 51.603947 12.130203 31,450 123 460 448
2019-05-27 14:26:36 GMT 51.607533 12.121277 31,450 123 460 448
2019-05-27 14:26:33 GMT 51.616096 12.100372 31,375 123 459 448
2019-05-27 14:26:29 GMT 51.616096 12.100372 31,350 123 458 512
2019-05-27 14:26:26 GMT 51.618713 12.094314 31,350 123 459 512
2019-05-27 14:26:22 GMT 51.623337 12.082957 31,325 123 458 512
2019-05-27 14:26:19 GMT 51.627411 12.073288 31,300 123 457 512
2019-05-27 14:26:16 GMT 51.634483 12.056046 31,275 123 456 512
2019-05-27 14:26:13 GMT 51.634483 12.056046 31,225 123 451 0
2019-05-27 14:26:10 GMT 51.638031 12.047474 31,225 123 455 512
2019-05-27 14:26:07 GMT 51.641006 12.040199 31,200 123 455 512
2019-05-27 14:26:01 GMT 51.646774 12.026215 31,150 123 452 512
2019-05-27 14:25:58 GMT 51.650986 12.015703 31,125 123 454 512
2019-05-27 14:25:54 GMT 51.656799 12.001673 31,075 123 451 512
2019-05-27 14:25:51 GMT 51.660275 11.993332 31,050 123 451 512
2019-05-27 14:25:48 GMT 51.664326 11.983414 31,025 123 450 512
2019-05-27 14:25:45 GMT 51.667145 11.976508 31,000 123 450 448
2019-05-27 14:25:42 GMT 51.671261 11.966629 30,975 123 449 512
2019-05-27 14:25:39 GMT 51.673233 11.961439 30,675 123 439 512
2019-05-27 14:25:36 GMT 51.680061 11.945114 30,875 123 446 576
2019-05-27 14:25:30 GMT 51.684586 11.933676 30,875 123 446 576
2019-05-27 14:25:27 GMT 51.687275 11.927643 30,850 123 445 512
2019-05-27 14:25:24 GMT 51.690952 11.918488 30,750 123 436 512
2019-05-27 14:25:21 GMT 51.693878 11.910961 30,800 123 444 512
2019-05-27 14:25:18 GMT 51.697189 11.903229 30,775 123 444 512
2019-05-27 14:25:15 GMT 51.699146 11.898193 30,575 123 441 512
2019-05-27 14:25:12 GMT 51.704636 11.884683 30,700 123 441 512
2019-05-27 14:25:09 GMT 51.706787 11.879710 30,625 123 439 448
2019-05-27 14:25:03 GMT 51.714230 11.861572 30,500 123 437 448
2019-05-27 14:25:00 GMT 51.717022 11.854248 30,575 123 439 512
2019-05-27 14:24:57 GMT 51.722076 11.841703 30,575 123 437 448
2019-05-27 14:24:54 GMT 51.724869 11.835393 30,550 123 436 448
2019-05-27 14:24:51 GMT 51.727264 11.829147 30,550 123 436 448
2019-05-27 14:24:48 GMT 51.730988 11.820068 30,500 123 436 512
2019-05-27 14:24:45 GMT 51.734478 11.811752 30,475 123 435 576
2019-05-27 14:24:42 GMT 51.736900 11.805420 30,450 123 434 576
2019-05-27 14:24:38 GMT 51.741440 11.794491 30,375 123 433 896
2019-05-27 14:24:35 GMT 51.745327 11.785126 30,375 123 432 960
2019-05-27 14:24:32 GMT 51.748169 11.777418 30,325 123 432 960
2019-05-27 14:24:29 GMT 51.751511 11.769698 30,100 123 431 1024
2019-05-27 14:24:25 GMT 51.754822 11.761703 30,150 123 431 1024
2019-05-27 14:24:22 GMT 51.762177 11.743622 30,050 123 431 1024
2019-05-27 14:24:19 GMT 51.765930 11.734586 30,100 123 431 1024
2019-05-27 14:24:16 GMT 51.769814 11.724701 30,000 123 431 1088
2019-05-27 14:24:13 GMT 51.769814 11.724701 29,950 123 430 1088
2019-05-27 14:24:10 GMT 51.772430 11.718775 29,925 123 430 1088
2019-05-27 14:24:07 GMT 51.776703 11.708298 29,875 123 429 1024
2019-05-27 14:24:04 GMT 51.778061 11.704819 29,700 123 430 1024
2019-05-27 14:24:01 GMT 51.781540 11.696654 29,775 123 430 1024
2019-05-27 14:23:58 GMT 51.788361 11.680026 29,700 123 429 1024
2019-05-27 14:23:52 GMT 51.792938 11.668891 29,600 122 429 1024
2019-05-27 14:23:49 GMT 51.795277 11.663055 29,575 122 429 1024
2019-05-27 14:23:46 GMT 51.799255 11.653079 29,500 121 429 1024
2019-05-27 14:23:43 GMT 51.802212 11.644897 29,450 120 430 1024
2019-05-27 14:23:40 GMT 51.804337 11.639792 29,425 120 430 1024
2019-05-27 14:23:37 GMT 51.806824 11.632767 29,400 120 430 1024
2019-05-27 14:23:34 GMT 51.809799 11.624680 29,325 119 431 1024
2019-05-27 14:23:31 GMT 51.813061 11.615448 29,250 118 431 960
2019-05-27 14:23:28 GMT 51.816223 11.605835 29,225 118 431 896
2019-05-27 14:23:25 GMT 51.819389 11.596527 29,150 117 432 960
2019-05-27 14:23:22 GMT 51.823208 11.584702 29,100 116 432 960
2019-05-27 14:23:19 GMT 51.826859 11.572612 28,925 114 432 1024
2019-05-27 14:23:16 GMT 51.826859 11.572612 28,975 115 432 960
2019-05-27 14:23:13 GMT 51.829540 11.563263 28,925 114 432 1024
2019-05-27 14:23:10 GMT 51.832031 11.554277 28,900 113 432 1024
2019-05-27 14:23:07 GMT 51.834961 11.543959 28,875 113 432 1024
2019-05-27 14:23:04 GMT 51.836884 11.536313 28,775 112 432 1024
2019-05-27 14:23:00 GMT 51.840992 11.520538 28,725 112 432 1024
2019-05-27 14:22:56 GMT 51.844025 11.508921 28,650 112 432 1024
2019-05-27 14:22:52 GMT 51.848190 11.492961 28,625 112 431 1024
2019-05-27 14:22:49 GMT 51.849014 11.490066 28,525 112 430 1024
2019-05-27 14:22:46 GMT 51.851715 11.479302 28,475 112 430 1024
2019-05-27 14:22:43 GMT 51.853363 11.473290 28,450 112 430 1024
2019-05-27 14:22:40 GMT 51.856121 11.462402 28,325 112 430 1024
2019-05-27 14:22:37 GMT 51.858536 11.452876 28,325 112 429 1024
2019-05-27 14:22:34 GMT 51.861103 11.443329 28,275 112 429 1024
2019-05-27 14:22:31 GMT 51.864780 11.429062 28,200 112 429 1024
2019-05-27 14:22:24 GMT 51.867477 11.418762 28,125 112 428 960
2019-05-27 14:22:21 GMT 51.869431 11.410861 28,025 112 427 960
2019-05-27 14:22:17 GMT 51.872955 11.397425 28,025 112 427 960
2019-05-27 14:22:14 GMT 51.875702 11.387106 27,925 112 425 960
2019-05-27 14:22:11 GMT 51.880737 11.367212 27,850 112 424 1024
2019-05-27 14:22:08 GMT 51.880737 11.367212 27,750 112 424 960
2019-05-27 14:22:04 GMT 51.883167 11.357956 27,800 112 424 1024
2019-05-27 14:22:01 GMT 51.884750 11.351852 27,525 112 424 1024
2019-05-27 14:21:57 GMT 51.889206 11.334550 27,650 112 423 1088
2019-05-27 14:21:54 GMT 51.891083 11.327127 27,625 112 423 1088
2019-05-27 14:21:51 GMT 51.893360 11.318359 27,525 112 423 1088
2019-05-27 14:21:48 GMT 51.895065 11.311417 27,525 112 422 1088
2019-05-27 14:21:45 GMT 51.897694 11.301636 27,475 112 421 1088
2019-05-27 14:21:42 GMT 51.899879 11.291905 27,225 112 417 896
2019-05-27 14:21:39 GMT 51.901199 11.287613 27,375 112 411 1024
2019-05-27 14:21:36 GMT 51.904175 11.276169 27,125 112 416 896
2019-05-27 14:21:32 GMT 51.907513 11.263184 27,250 112 420 896
2019-05-27 14:21:29 GMT 51.908936 11.257324 27,200 112 411 1024
2019-05-27 14:21:25 GMT 51.915024 11.233826 27,100 112 416 896
2019-05-27 14:21:22 GMT 51.915024 11.233826 27,075 112 416 896
2019-05-27 14:21:19 GMT 51.917953 11.222305 27,025 112 416 896
2019-05-27 14:21:14 GMT 51.920643 11.211940 26,975 112 414 896
2019-05-27 14:21:11 GMT 51.922852 11.203232 26,900 112 413 960
2019-05-27 14:21:08 GMT 51.925251 11.194127 26,875 112 413 960
2019-05-27 14:21:05 GMT 51.926319 11.189889 26,850 112 413 960
2019-05-27 14:21:02 GMT 51.929855 11.175995 26,775 112 412 1024
2019-05-27 14:20:59 GMT 51.931301 11.170114 26,750 112 412 1024
2019-05-27 14:20:54 GMT 51.935760 11.153030 26,650 112 410 1024
2019-05-27 14:20:51 GMT 51.936676 11.149139 26,600 112 410 1024
2019-05-27 14:20:48 GMT 51.939075 11.140058 26,550 112 405 1024
2019-05-27 14:20:44 GMT 51.942902 11.125031 26,475 112 408 1024
2019-05-27 14:20:41 GMT 51.944290 11.119341 26,425 112 408 1024
2019-05-27 14:20:38 GMT 51.946758 11.110003 26,325 112 400 1088
2019-05-27 14:20:34 GMT 51.951599 11.090317 26,275 112 404 1088
2019-05-27 14:20:31 GMT 51.951599 11.090317 26,100 112 404 1088
2019-05-27 14:20:28 GMT 51.953659 11.082764 26,200 112 404 1088
2019-05-27 14:20:25 GMT 51.955582 11.075211 26,125 112 403 1088
2019-05-27 14:20:22 GMT 51.957699 11.066685 26,100 112 402 1088
2019-05-27 14:20:19 GMT 51.960445 11.056327 26,025 112 402 1152
2019-05-27 14:20:16 GMT 51.961842 11.050363 26,000 112 401 1152
2019-05-27 14:20:13 GMT 51.964325 11.041031 25,850 112 401 1152
2019-05-27 14:20:10 GMT 51.968403 11.024859 25,825 112 399 1088
2019-05-27 14:20:07 GMT 51.970871 11.015206 25,775 112 399 1088
2019-05-27 14:20:04 GMT 51.973160 11.006393 25,750 112 398 1152
2019-05-27 14:20:01 GMT 51.973160 11.006393 25,700 112 398 1088
2019-05-27 14:19:58 GMT 51.975529 10.996765 25,625 112 398 1152
2019-05-27 14:19:55 GMT 51.977482 10.989389 25,575 112 396 1216
2019-05-27 14:19:52 GMT 51.978928 10.983353 25,450 112 396 1344
2019-05-27 14:19:49 GMT 51.980972 10.975734 25,225 112 400 3136
2019-05-27 14:19:46 GMT 51.983486 10.965690 25,375 112 395 1472
2019-05-27 14:19:42 GMT 51.986664 10.953140 25,300 112 395 1728
2019-05-27 14:19:39 GMT 51.987911 10.948111 25,225 112 395 1856
2019-05-27 14:19:36 GMT 51.990097 10.939715 25,100 112 396 1984
2019-05-27 14:19:33 GMT 51.992020 10.931778 24,225 112 397 1920
2019-05-27 14:19:30 GMT 51.994217 10.923309 24,975 112 396 1984
2019-05-27 14:19:27 GMT 51.996941 10.912798 24,800 112 397 1920
2019-05-27 14:19:23 GMT 51.999481 10.902634 24,575 112 430 1408
2019-05-27 14:19:20 GMT 52.002365 10.891113 24,575 112 398 1792
2019-05-27 14:19:17 GMT 52.003784 10.885646 24,525 112 398 1728
2019-05-27 14:19:14 GMT 52.004993 10.880232 24,450 112 398 1408
2019-05-27 14:19:10 GMT 52.008488 10.866499 24,300 112 398 1344
2019-05-27 14:19:07 GMT 52.010628 10.858573 24,275 112 398 1344
2019-05-27 14:19:04 GMT 52.012444 10.851039 24,125 112 402 3136
2019-05-27 14:18:59 GMT 52.015961 10.836945 23,350 111 411 3456
2019-05-27 14:18:56 GMT 52.018028 10.828988 23,950 112 398 2688
2019-05-27 14:18:53 GMT 52.020172 10.820356 23,800 112 399 2944
2019-05-27 14:18:50 GMT 52.022591 10.810782 23,550 112 405 2880
2019-05-27 14:18:47 GMT 52.024658 10.802231 23,425 112 404 2880
2019-05-27 14:18:43 GMT 52.026829 10.793832 23,300 111 406 3008
2019-05-27 14:18:40 GMT 52.029510 10.782928 23,175 111 408 3200
2019-05-27 14:18:37 GMT 52.031761 10.773743 22,925 112 413 3584
2019-05-27 14:18:34 GMT 52.033722 10.766068 22,625 111 417 3840
2019-05-27 14:18:31 GMT 52.035919 10.756760 22,275 111 419 3840
2019-05-27 14:18:28 GMT 52.037815 10.749573 22,450 111 420 3776
2019-05-27 14:18:25 GMT 52.039631 10.742353 22,225 111 422 3712
2019-05-27 14:18:22 GMT 52.042328 10.731053 21,975 112 427 3456
2019-05-27 14:18:19 GMT 52.044296 10.723648 21,075 112 429 1536
2019-05-27 14:18:16 GMT 52.047089 10.712433 21,650 111 430 2752
2019-05-27 14:18:13 GMT 52.048939 10.704843 21,175 112 431 1728
2019-05-27 14:18:10 GMT 52.051685 10.693935 21,450 112 431 1920
2019-05-27 14:18:07 GMT 52.053314 10.687180 21,350 111 428 1536
2019-05-27 14:18:03 GMT 52.056156 10.675729 21,275 112 430 1408
2019-05-27 14:18:00 GMT 52.058205 10.667882 21,150 112 429 1792
2019-05-27 14:17:57 GMT 52.060158 10.659563 21,075 112 429 1856
2019-05-27 14:17:54 GMT 52.063000 10.648499 20,825 112 428 1856
2019-05-27 14:17:50 GMT 52.066399 10.634844 20,875 112 428 1856
2019-05-27 14:17:47 GMT 52.067825 10.628891 20,825 112 427 1600
2019-05-27 14:17:43 GMT 52.072632 10.609894 20,550 111 428 2048
2019-05-27 14:17:39 GMT 52.074638 10.602042 20,375 111 428 1536
2019-05-27 14:17:33 GMT 52.078354 10.586853 20,400 112 428 1792
2019-05-27 14:17:30 GMT 52.080734 10.577393 20,275 111 428 1600
2019-05-27 14:17:27 GMT 52.082748 10.569305 20,200 112 427 1600
2019-05-27 14:17:22 GMT 52.089203 10.543365 20,000 111 425 1792
2019-05-27 14:17:15 GMT 52.094048 10.523804 18,450 111 421 1536
2019-05-27 14:17:12 GMT 52.094048 10.523804 19,800 111 424 1920
2019-05-27 14:17:09 GMT 52.096069 10.515671 19,650 111 424 2048
2019-05-27 14:17:06 GMT 52.098427 10.505990 19,475 111 424 2048
2019-05-27 14:17:03 GMT 52.100704 10.496809 19,450 111 424 2112
2019-05-27 14:17:00 GMT 52.103394 10.485840 19,325 111 424 2048
2019-05-27 14:16:56 GMT 52.106369 10.473709 19,200 111 424 1920
2019-05-27 14:16:52 GMT 52.108387 10.465812 19,075 111 423 1856
2019-05-27 14:16:48 GMT 52.111088 10.454825 18,950 111 423 1728
2019-05-27 14:16:45 GMT 52.114059 10.442810 18,850 111 422 1536
2019-05-27 14:16:42 GMT 52.115883 10.435128 18,575 111 416 1792
2019-05-27 14:16:39 GMT 52.119919 10.419159 18,675 111 420 1536
2019-05-27 14:16:33 GMT 52.125332 10.397382 18,500 111 419 1600
2019-05-27 14:16:30 GMT 52.126030 10.394165 18,450 111 419 1664
2019-05-27 14:16:27 GMT 52.126030 10.394165 18,425 111 419 1664
2019-05-27 14:16:23 GMT 52.129337 10.380668 18,350 111 418 1664
2019-05-27 14:16:19 GMT 52.134598 10.359715 17,775 111 408 1792
2019-05-27 14:16:16 GMT 52.134598 10.359715 17,975 111 416 1792
2019-05-27 14:16:13 GMT 52.139420 10.339737 17,725 111 414 1792
2019-05-27 14:16:10 GMT 52.142441 10.327835 17,475 111 412 1728
2019-05-27 14:16:06 GMT 52.142441 10.327835 17,800 111 414 1792
2019-05-27 14:15:59 GMT 52.146748 10.309884 17,650 111 413 1856
2019-05-27 14:15:56 GMT 52.150749 10.293876 17,450 111 413 1792
2019-05-27 14:15:49 GMT 52.156429 10.270255 17,275 111 411 1856
2019-05-27 14:15:46 GMT 52.156429 10.270255 17,075 111 410 2240
2019-05-27 14:15:43 GMT 52.158325 10.262909 17,125 111 410 2240
2019-05-27 14:15:40 GMT 52.160019 10.255585 17,000 111 410 2304
2019-05-27 14:15:37 GMT 52.161530 10.249863 16,925 111 410 2304
2019-05-27 14:15:34 GMT 52.163681 10.240784 16,875 111 407 1600
2019-05-27 14:15:31 GMT 52.166809 10.227879 16,650 111 409 1984
2019-05-27 14:15:27 GMT 52.168991 10.219345 16,400 111 408 1792
2019-05-27 14:15:23 GMT 52.171791 10.207868 15,725 111 406 1536
2019-05-27 14:15:20 GMT 52.174667 10.195847 16,275 111 405 1728
2019-05-27 14:15:14 GMT 52.178448 10.180402 16,125 111 404 2048
2019-05-27 14:15:11 GMT 52.182220 10.164795 16,025 111 404 1984
2019-05-27 14:15:05 GMT 52.184784 10.154343 15,875 111 402 2048
2019-05-27 14:15:01 GMT 52.187572 10.142892 15,750 111 401 2240
2019-05-27 14:14:58 GMT 52.189342 10.135437 15,675 111 401 2176
2019-05-27 14:14:54 GMT 52.191925 10.125046 15,425 111 399 2112
2019-05-27 14:14:51 GMT 52.193481 10.118408 15,400 111 399 2048
2019-05-27 14:14:48 GMT 52.195999 10.107803 15,275 111 399 1984
2019-05-27 14:14:42 GMT 52.199631 10.092904 15,100 111 397 1856
2019-05-27 14:14:39 GMT 52.204144 10.074777 14,925 111 395 1728
2019-05-27 14:14:32 GMT 52.206985 10.062927 14,800 111 393 1664
2019-05-27 14:14:29 GMT 52.209221 10.053589 14,425 111 389 1984
2019-05-27 14:14:26 GMT 52.210430 10.048802 14,575 111 389 1984
2019-05-27 14:14:23 GMT 52.212059 10.041739 14,525 111 390 1856
2019-05-27 14:14:18 GMT 52.216141 10.025024 14,350 111 386 2240
2019-05-27 14:14:14 GMT 52.219322 10.011762 14,225 111 386 2240
2019-05-27 14:14:10 GMT 52.221321 10.003680 14,100 111 385 2368
2019-05-27 14:14:07 GMT 52.223328 9.995422 13,975 111 384 2560
2019-05-27 14:14:03 GMT 52.225296 9.987106 13,675 111 384 2624
2019-05-27 14:13:59 GMT 52.228352 9.974409 13,650 111 384 2624
2019-05-27 14:13:55 GMT 52.231052 9.963187 13,475 111 384 2688
2019-05-27 14:13:49 GMT 52.235596 9.944687 13,175 111 384 2432
2019-05-27 14:13:46 GMT 52.237015 9.938660 13,100 111 383 2112
2019-05-27 14:13:43 GMT 52.241619 9.919634 12,750 111 379 1856
2019-05-27 14:13:38 GMT 52.241619 9.919634 12,850 111 381 1920
2019-05-27 14:13:35 GMT 52.243996 9.909433 12,725 111 379 1984
2019-05-27 14:13:32 GMT 52.245995 9.901193 12,625 111 377 2176
2019-05-27 14:13:26 GMT 52.250244 9.883194 12,325 111 376 2176
2019-05-27 14:13:23 GMT 52.251675 9.877415 12,275 111 373 2112
2019-05-27 14:13:20 GMT 52.253117 9.871059 12,225 111 375 2112
2019-05-27 14:13:17 GMT 52.255600 9.860687 12,100 111 373 2112
2019-05-27 14:13:13 GMT 52.259125 9.845810 11,925 111 371 2176
2019-05-27 14:13:07 GMT 52.261871 9.834019 11,700 111 371 2240
2019-05-27 14:13:01 GMT 52.265808 9.817734 11,475 111 370 2048
2019-05-27 14:12:57 GMT 52.268108 9.807809 11,375 111 368 1920
2019-05-27 14:12:54 GMT 52.270111 9.799569 11,250 111 366 1536
2019-05-27 14:12:51 GMT 52.270901 9.796195 11,225 111 366 1408
2019-05-27 14:12:48 GMT 52.274719 9.780343 11,100 111 361 1216
2019-05-27 14:12:42 GMT 52.277023 9.770508 11,000 111 356 896
2019-05-27 14:12:39 GMT 52.281513 9.751936 10,875 111 345 832
2019-05-27 14:12:35 GMT 52.281513 9.751936 10,900 111 348 896
2019-05-27 14:12:32 GMT 52.283237 9.744795 10,825 111 344 768
2019-05-27 14:12:26 GMT 52.285767 9.734268 10,775 111 337 832
2019-05-27 14:12:23 GMT 52.287754 9.725882 10,750 111 335 896
2019-05-27 14:12:20 GMT 52.289196 9.720154 10,725 111 334 960
2019-05-27 14:12:15 GMT 52.292404 9.706726 10,625 111 328 896
2019-05-27 14:12:12 GMT 52.293804 9.700849 10,600 111 324 1024
2019-05-27 14:12:09 GMT 52.295517 9.693680 10,525 111 316 1088
2019-05-27 14:12:05 GMT 52.298275 9.682329 10,475 111 314 1088
2019-05-27 14:12:02 GMT 52.299225 9.678497 10,425 111 313 1088
2019-05-27 14:11:59 GMT 52.300598 9.672394 10,275 111 309 1344
2019-05-27 14:11:56 GMT 52.302795 9.663391 10,250 111 304 1792
2019-05-27 14:11:53 GMT 52.304535 9.656296 10,200 111 303 2240
2019-05-27 14:11:49 GMT 52.306561 9.647644 10,050 110 301 2240
2019-05-27 14:11:45 GMT 52.308376 9.639640 9,850 110 300 2368
2019-05-27 14:11:41 GMT 52.310394 9.630966 9,800 110 299 2496
2019-05-27 14:11:37 GMT 52.311584 9.626083 9,525 110 299 2304
2019-05-27 14:11:33 GMT 52.315498 9.608643 9,375 110 298 1920
2019-05-27 14:11:30 GMT 52.315498 9.608643 9,325 110 298 1664
2019-05-27 14:11:24 GMT 52.318245 9.596479 9,175 109 298 960
2019-05-27 14:11:21 GMT 52.319824 9.589081 9,100 109 297 960
2019-05-27 14:11:18 GMT 52.321472 9.581833 9,075 109 297 960
2019-05-27 14:11:14 GMT 52.322716 9.576076 9,000 109 297 1024
2019-05-27 14:11:11 GMT 52.324402 9.567795 8,900 108 298 1536
2019-05-27 14:11:08 GMT 52.325821 9.561157 8,700 108 297 1472
2019-05-27 14:11:03 GMT 52.327881 9.551200 8,775 108 299 1536
2019-05-27 14:11:00 GMT 52.329090 9.545550 8,725 108 299 1536
2019-05-27 14:10:57 GMT 52.330948 9.536819 8,600 109 299 1664
2019-05-27 14:10:51 GMT 52.332954 9.527579 8,450 110 299 1728
2019-05-27 14:10:48 GMT 52.334335 9.521637 8,250 112 300 1792
2019-05-27 14:10:45 GMT 52.336494 9.513218 8,300 118 296 1984
2019-05-27 14:10:42 GMT 52.338272 9.507141 8,175 124 291 2560
2019-05-27 14:10:39 GMT 52.340729 9.500663 8,125 128 289 2752
2019-05-27 14:10:34 GMT 52.344360 9.493408 8,000 133 286 2880
2019-05-27 14:10:31 GMT 52.348129 9.487558 7,850 140 282 2944
2019-05-27 14:10:28 GMT 52.350815 9.484024 7,700 145 280 2944
2019-05-27 14:10:23 GMT 52.355301 9.479294 7,525 150 277 2880
2019-05-27 14:10:18 GMT 52.360794 9.475174 7,350 162 272 2944
2019-05-27 14:10:14 GMT 52.369267 9.471627 7,125 171 268 3072
2019-05-27 14:10:11 GMT 52.369267 9.471627 6,975 182 264 3392
2019-05-27 14:10:08 GMT 52.373596 9.470921 6,875 182 264 3392
2019-05-27 14:10:05 GMT 52.377365 9.470921 6,575 190 261 3200
2019-05-27 14:10:02 GMT 52.385185 9.472726 6,450 195 261 3328
2019-05-27 14:09:58 GMT 52.385185 9.472726 6,175 202 260 3456
2019-05-27 14:09:55 GMT 52.388771 9.474374 6,200 202 260 3456
2019-05-27 14:09:51 GMT 52.397690 9.480667 5,900 209 261 3776
2019-05-27 14:09:48 GMT 52.397690 9.480667 5,775 209 261 3776
2019-05-27 14:09:45 GMT 52.400688 9.483398 5,600 210 263 3520
2019-05-27 14:09:42 GMT 52.404179 9.486537 5,475 209 263 3136
2019-05-27 14:09:38 GMT 52.409409 9.491272 5,150 209 261 3200
2019-05-27 14:09:31 GMT 52.413895 9.495163 4,925 208 261 3264
2019-05-27 14:09:28 GMT 52.418007 9.498701 4,725 208 261 2880
2019-05-27 14:09:25 GMT 52.420612 9.501134 4,600 208 259 2560
2019-05-27 14:09:21 GMT 52.425568 9.505386 4,400 208 257 2496
2019-05-27 14:09:15 GMT 52.430695 9.509659 4,175 208 256 2432
2019-05-27 14:09:11 GMT 52.436417 9.514465 3,950 207 253 2816
2019-05-27 14:09:05 GMT 52.441978 9.519026 3,550 208 253 2944
2019-05-27 14:09:00 GMT 52.447845 9.523891 3,450 209 252 2944
2019-05-27 14:08:54 GMT 52.454922 9.530640 3,125 225 243 1536
2019-05-27 14:08:50 GMT 52.456696 9.532547 2,975 225 243 1536
2019-05-27 14:08:46 GMT 52.460724 9.538574 2,850 232 240 960
2019-05-27 14:08:43 GMT 52.464558 9.547355 2,700 245 232 1152
2019-05-27 14:08:33 GMT 52.467316 9.558640 2,575 256 222 832
2019-05-27 14:08:30 GMT 52.468235 9.565168 2,450 264 215 512
2019-05-27 14:08:24 GMT 52.468597 9.571762 2,375 269 209 320
2019-05-27 14:08:20 GMT 52.468655 9.578823 2,325 271 202 768
2019-05-27 14:08:15 GMT 52.468643 9.587860 2,250 271 195 1088
2019-05-27 14:08:10 GMT 52.468609 9.595459 2,150 271 189 704
2019-05-27 14:08:03 GMT 52.468552 9.602737 2,050 271 183 768
2019-05-27 14:07:59 GMT 52.468506 9.609299 2,000 270 176 1024
2019-05-27 14:07:54 GMT 52.468506 9.617767 1,900 270 168 704
2019-05-27 14:07:49 GMT 52.468506 9.623489 1,850 270 162 960
2019-05-27 14:07:43 GMT 52.468506 9.630661 1,725 272 155 1152
2019-05-27 14:07:38 GMT 52.468460 9.635544 1,625 272 152 1856
2019-05-27 14:07:30 GMT 52.468330 9.645918 1,325 272 150 2368
2019-05-27 14:07:26 GMT 52.468281 9.649527 1,200 272 150 2368
We lost coverage of the aircraft here for a total of 83 minutes
2019-05-27 12:44:37 GMT 52.454132 9.706497 275 273 142 -192
2019-05-27 12:44:32 GMT 52.453991 9.711993 300 273 143 -768
2019-05-27 12:44:22 GMT 52.453430 9.732474 500 273 138 -768
2019-05-27 12:44:13 GMT 52.453430 9.732474 575 273 140 -704
2019-05-27 12:44:08 GMT 52.453262 9.737473 625 273 142 -768
2019-05-27 12:44:03 GMT 52.453152 9.743696 700 273 142 -704
2019-05-27 12:43:58 GMT 52.452988 9.748993 775 273 138 -768
2019-05-27 12:43:50 GMT 52.452759 9.757156 875 273 135 -576
2019-05-27 12:43:46 GMT 52.452667 9.760666 875 273 135 -640
2019-05-27 12:43:42 GMT 52.452484 9.765930 950 273 134 -704
2019-05-27 12:43:38 GMT 52.452408 9.769121 1,000 273 134 -576
2019-05-27 12:43:35 GMT 52.452301 9.771881 1,025 273 134 -640
2019-05-27 12:43:31 GMT 52.452118 9.777298 1,075 273 134 -576
2019-05-27 12:43:28 GMT 52.452038 9.781599 1,125 273 134 -640
2019-05-27 12:43:25 GMT 52.452038 9.781599 1,125 273 134 -640
2019-05-27 12:43:22 GMT 52.451935 9.785385 1,175 273 134 -704
2019-05-27 12:43:18 GMT 52.451756 9.792664 1,225 273 137 -704
2019-05-27 12:43:15 GMT 52.451756 9.792664 1,250 273 137 -704
2019-05-27 12:43:12 GMT 52.451664 9.796430 1,300 273 139 -704
2019-05-27 12:43:08 GMT 52.451477 9.801712 1,350 273 142 -704
2019-05-27 12:42:59 GMT 52.451244 9.809378 1,450 273 148 -576
2019-05-27 12:42:56 GMT 52.451157 9.812927 1,550 273 152 -832
2019-05-27 12:42:49 GMT 52.450916 9.821777 1,575 274 155 -960
2019-05-27 12:42:43 GMT 52.450592 9.830331 1,725 273 155 -832
2019-05-27 12:42:37 GMT 52.450455 9.835196 1,775 273 156 -960
2019-05-27 12:42:34 GMT 52.450333 9.838104 1,850 273 158 -768
2019-05-27 12:42:31 GMT 52.450241 9.842224 1,850 273 159 -704
2019-05-27 12:42:27 GMT 52.450058 9.851074 1,925 273 161 -832
2019-05-27 12:42:24 GMT 52.450058 9.851074 1,975 273 162 -640
2019-05-27 12:42:21 GMT 52.449940 9.855050 2,000 273 162 -640
2019-05-27 12:42:13 GMT 52.449661 9.863918 2,050 273 163 -768
2019-05-27 12:42:10 GMT 52.449570 9.867135 2,100 273 164 -896
2019-05-27 12:42:03 GMT 52.449337 9.876474 2,250 273 174 -896
2019-05-27 12:42:00 GMT 52.449196 9.880868 2,250 273 174 -896
2019-05-27 12:41:54 GMT 52.448917 9.889186 2,375 274 181 -1408
2019-05-27 12:41:50 GMT 52.448776 9.893424 2,475 274 183 -1344
2019-05-27 12:41:46 GMT 52.448547 9.899139 2,550 275 185 -1280
2019-05-27 12:41:42 GMT 52.448311 9.904175 2,650 276 189 -1344
2019-05-27 12:41:39 GMT 52.447998 9.909363 2,700 276 195 -192
2019-05-27 12:41:35 GMT 52.447659 9.914769 2,850 280 200 -1088
2019-05-27 12:41:32 GMT 52.447357 9.920120 2,850 276 194 -448
2019-05-27 12:41:29 GMT 52.447128 9.923935 2,875 276 195 -192
2019-05-27 12:41:22 GMT 52.446495 9.933132 2,950 279 201 -896
2019-05-27 12:41:19 GMT 52.446075 9.938075 3,025 285 202 -768
2019-05-27 12:41:13 GMT 52.444447 9.949297 3,075 286 202 -704
2019-05-27 12:41:10 GMT 52.442276 9.957504 3,100 298 205 -192
2019-05-27 12:41:02 GMT 52.440117 9.962873 3,125 307 214 0
2019-05-27 12:40:59 GMT 52.438442 9.966797 3,125 307 218 0
2019-05-27 12:40:55 GMT 52.435959 9.972153 3,125 307 221 -128
2019-05-27 12:40:51 GMT 52.433258 9.978104 3,125 307 222 192
2019-05-27 12:40:48 GMT 52.431877 9.981393 3,150 308 222 192
2019-05-27 12:40:43 GMT 52.427921 9.989633 3,125 308 222 0
2019-05-27 12:40:40 GMT 52.427170 9.991226 3,125 308 221 64
2019-05-27 12:40:33 GMT 52.422913 10.000305 3,125 308 222 0
2019-05-27 12:40:28 GMT 52.419125 10.008153 3,125 309 223 -256
2019-05-27 12:40:23 GMT 52.415680 10.015411 3,150 308 231 64
2019-05-27 12:40:18 GMT 52.412384 10.022430 3,125 308 227 128
2019-05-27 12:40:08 GMT 52.406296 10.035477 3,125 308 231 64
2019-05-27 12:40:00 GMT 52.399292 10.050293 3,125 309 235 0
2019-05-27 12:39:51 GMT 52.395149 10.058690 3,125 309 242 -64
2019-05-27 12:39:47 GMT 52.392654 10.063934 3,125 310 244 0
2019-05-27 12:39:39 GMT 52.386444 10.076503 3,100 310 251 -192
2019-05-27 12:39:35 GMT 52.383728 10.081863 3,125 310 254 -192
2019-05-27 12:39:29 GMT 52.379425 10.090485 3,125 309 256 -128
2019-05-27 12:39:25 GMT 52.376389 10.096749 3,175 308 256 -576
2019-05-27 12:39:18 GMT 52.371185 10.107727 3,225 308 258 -1088
2019-05-27 12:39:15 GMT 52.368027 10.114517 3,300 308 258 -1408
2019-05-27 12:39:09 GMT 52.364090 10.122604 3,425 308 258 -1856
2019-05-27 12:39:06 GMT 52.361862 10.127354 3,550 308 257 -1984
2019-05-27 12:38:58 GMT 52.356419 10.138733 3,750 308 258 -1408
2019-05-27 12:38:55 GMT 52.353390 10.145168 3,875 309 260 -1472
2019-05-27 12:38:46 GMT 52.347107 10.158351 4,075 308 263 -1088
2019-05-27 12:38:42 GMT 52.344269 10.164237 4,125 309 262 -1216
2019-05-27 12:38:39 GMT 52.342712 10.167465 4,225 309 265 -1472
2019-05-27 12:38:35 GMT 52.339287 10.174517 4,575 309 265 -1472
2019-05-27 12:38:32 GMT 52.337036 10.179214 4,375 309 268 -1024
2019-05-27 12:38:28 GMT 52.333515 10.186366 4,475 309 270 -2368
2019-05-27 12:38:25 GMT 52.331558 10.190290 4,550 309 270 -2240
2019-05-27 12:38:21 GMT 52.328384 10.196915 4,700 309 270 -2496
2019-05-27 12:38:14 GMT 52.323257 10.207291 4,975 309 271 -2240
2019-05-27 12:38:11 GMT 52.320877 10.212173 5,050 309 271 -2048
2019-05-27 12:38:05 GMT 52.315125 10.223798 5,300 309 277 -1920
2019-05-27 12:38:00 GMT 52.308048 10.238316 5,575 309 284 -2048
2019-05-27 12:37:56 GMT 52.308048 10.238316 5,525 309 284 -1984
2019-05-27 12:37:53 GMT 52.306320 10.241928 5,600 309 285 -1984
2019-05-27 12:37:50 GMT 52.304279 10.246320 5,700 309 286 -1856
2019-05-27 12:37:46 GMT 52.300323 10.254364 5,875 308 288 -3200
2019-05-27 12:37:43 GMT 52.298088 10.259112 6,050 308 289 -2816
2019-05-27 12:37:39 GMT 52.294830 10.266017 6,175 308 289 -2752
2019-05-27 12:37:35 GMT 52.287193 10.282183 6,525 308 289 -2944
2019-05-27 12:37:31 GMT 52.287193 10.282183 6,600 308 289 -2816
2019-05-27 12:37:28 GMT 52.281750 10.293797 6,850 307 291 -2240
2019-05-27 12:37:23 GMT 52.279282 10.299447 6,975 307 297 -1472
2019-05-27 12:37:20 GMT 52.279282 10.299447 7,050 307 293 -1920
2019-05-27 12:37:17 GMT 52.276382 10.305557 7,150 307 297 -1472
2019-05-27 12:37:14 GMT 52.273647 10.311611 7,250 307 301 -1280
2019-05-27 12:37:11 GMT 52.271690 10.315927 7,300 307 302 -1152
2019-05-27 12:37:08 GMT 52.269226 10.321341 7,375 307 306 -1216
2019-05-27 12:37:04 GMT 52.262894 10.335153 7,450 307 311 -1472
2019-05-27 12:37:01 GMT 52.262894 10.335153 7,525 308 314 -1344
2019-05-27 12:36:58 GMT 52.261047 10.339355 7,575 308 318 -1280
2019-05-27 12:36:55 GMT 52.258209 10.345383 7,700 308 323 -1216
2019-05-27 12:36:52 GMT 52.255913 10.350377 7,700 308 323 -1216
2019-05-27 12:36:49 GMT 52.252514 10.357361 7,750 308 329 -1472
2019-05-27 12:36:46 GMT 52.250244 10.362473 7,800 308 332 -1280
2019-05-27 12:36:43 GMT 52.246834 10.369446 7,900 308 334 -1216
2019-05-27 12:36:40 GMT 52.244110 10.375137 7,950 309 337 -1280
2019-05-27 12:36:37 GMT 52.238503 10.386710 8,050 309 344 -1280
2019-05-27 12:36:34 GMT 52.234451 10.394714 8,175 309 354 -1664
2019-05-27 12:36:30 GMT 52.234451 10.394714 8,175 309 354 -1664
2019-05-27 12:36:26 GMT 52.230103 10.403442 8,325 309 354 -1408
2019-05-27 12:36:23 GMT 52.226955 10.409938 8,275 309 356 -2304
2019-05-27 12:36:20 GMT 52.224152 10.415421 8,475 309 357 -2944
2019-05-27 12:36:17 GMT 52.217739 10.428615 8,650 310 358 -2816
2019-05-27 12:36:14 GMT 52.217739 10.428615 8,825 310 361 -2368
2019-05-27 12:36:10 GMT 52.213779 10.436462 8,975 310 367 -2176
2019-05-27 12:36:06 GMT 52.208817 10.446320 9,075 310 366 -1856
2019-05-27 12:36:03 GMT 52.206425 10.450980 9,075 310 366 -2048
2019-05-27 12:35:59 GMT 52.202145 10.459691 9,225 310 368 -2048
2019-05-27 12:35:55 GMT 52.196503 10.470657 9,350 310 370 -1600
2019-05-27 12:35:52 GMT 52.194695 10.474365 9,425 309 371 -1344
2019-05-27 12:35:49 GMT 52.191467 10.480881 9,550 310 374 -1216
2019-05-27 12:35:45 GMT 52.186020 10.491791 9,650 309 377 -1216
2019-05-27 12:35:38 GMT 52.179382 10.505142 9,775 310 379 -1536
2019-05-27 12:35:35 GMT 52.175858 10.512390 9,875 310 381 -832
2019-05-27 12:35:32 GMT 52.172398 10.519095 9,875 310 381 -832
2019-05-27 12:35:29 GMT 52.168812 10.526315 9,950 310 382 -384
2019-05-27 12:35:25 GMT 52.165134 10.533770 9,975 310 383 0
2019-05-27 12:35:22 GMT 52.161224 10.541774 9,975 310 383 0
2019-05-27 12:35:18 GMT 52.156815 10.550385 9,975 310 383 0
2019-05-27 12:35:13 GMT 52.150192 10.563747 9,975 310 383 0
2019-05-27 12:35:08 GMT 52.144409 10.574951 9,975 310 385 0
2019-05-27 12:35:05 GMT 52.142532 10.578766 9,975 310 385 -64
2019-05-27 12:35:02 GMT 52.139328 10.585556 10,000 310 385 0
2019-05-27 12:34:59 GMT 52.135941 10.591965 10,000 310 383 0
2019-05-27 12:34:55 GMT 52.129944 10.604095 10,000 310 383 0
2019-05-27 12:34:52 GMT 52.126591 10.610753 10,000 309 383 0
2019-05-27 12:34:46 GMT 52.120560 10.622940 9,975 309 386 0
2019-05-27 12:34:42 GMT 52.115742 10.632568 9,975 309 386 0
2019-05-27 12:34:38 GMT 52.113041 10.638218 9,975 310 387 0
2019-05-27 12:34:35 GMT 52.108841 10.646362 9,975 310 386 -960
2019-05-27 12:34:31 GMT 52.104057 10.655954 10,000 310 385 -192
2019-05-27 12:34:28 GMT 52.100613 10.663095 10,000 310 385 -192
2019-05-27 12:34:24 GMT 52.094608 10.674866 10,025 310 386 -512
2019-05-27 12:34:20 GMT 52.091022 10.681771 10,025 310 386 -576
2019-05-27 12:34:17 GMT 52.088509 10.686872 10,075 310 387 -896
2019-05-27 12:34:14 GMT 52.086319 10.691452 10,100 310 387 -960
2019-05-27 12:34:11 GMT 52.082596 10.698565 10,500 310 387 -1024
2019-05-27 12:34:08 GMT 52.078995 10.705948 10,200 310 388 -960
2019-05-27 12:34:04 GMT 52.074169 10.715672 10,250 310 388 -960
2019-05-27 12:34:01 GMT 52.070251 10.723267 10,325 310 388 -960
2019-05-27 12:33:58 GMT 52.066860 10.730033 10,375 310 388 -960
2019-05-27 12:33:54 GMT 52.061737 10.740891 10,475 310 387 -896
2019-05-27 12:33:51 GMT 52.059128 10.745544 10,525 310 387 -896
2019-05-27 12:33:47 GMT 52.054779 10.753937 10,525 310 387 -896
2019-05-27 12:33:44 GMT 52.046288 10.770996 10,600 310 385 -1024
2019-05-27 12:33:41 GMT 52.046288 10.770996 10,650 310 385 -960
2019-05-27 12:33:36 GMT 52.042469 10.778373 10,700 310 385 -960
2019-05-27 12:33:33 GMT 52.038025 10.787125 10,750 310 385 -960
2019-05-27 12:33:30 GMT 52.034592 10.793915 10,825 310 385 -896
2019-05-27 12:33:26 GMT 52.030739 10.801836 10,875 310 385 -768
2019-05-27 12:33:23 GMT 52.026688 10.809684 10,925 310 386 -448
2019-05-27 12:33:19 GMT 52.022964 10.816803 10,950 310 386 -256
2019-05-27 12:33:15 GMT 52.017563 10.827560 10,975 310 386 0
2019-05-27 12:33:12 GMT 52.014862 10.833130 10,975 310 386 0
2019-05-27 12:33:09 GMT 52.010193 10.842056 11,000 310 386 0
2019-05-27 12:33:05 GMT 52.006073 10.850220 11,000 310 386 0
2019-05-27 12:33:00 GMT 52.001724 10.858841 11,000 310 386 0
2019-05-27 12:32:56 GMT 51.993404 10.875602 11,000 310 387 0
2019-05-27 12:32:50 GMT 51.986328 10.889648 11,000 310 387 0
2019-05-27 12:32:47 GMT 51.981491 10.899429 11,000 310 386 0
2019-05-27 12:32:43 GMT 51.981491 10.899429 11,000 310 387 0
2019-05-27 12:32:40 GMT 51.979111 10.903695 11,000 310 387 0
2019-05-27 12:32:35 GMT 51.971832 10.918503 10,975 309 388 64
2019-05-27 12:32:32 GMT 51.969864 10.922165 10,975 309 388 0
2019-05-27 12:32:29 GMT 51.966431 10.929337 10,975 309 383 0
2019-05-27 12:32:25 GMT 51.961559 10.938851 10,975 309 386 0
2019-05-27 12:32:22 GMT 51.957596 10.946808 10,975 309 385 0
2019-05-27 12:32:19 GMT 51.953415 10.955566 10,975 309 383 0
2019-05-27 12:32:16 GMT 51.951187 10.959854 10,975 309 381 0
2019-05-27 12:32:11 GMT 51.946152 10.969849 10,975 309 379 0
2019-05-27 12:32:08 GMT 51.943218 10.975813 11,000 309 376 64
2019-05-27 12:32:05 GMT 51.939636 10.983189 11,000 309 375 0
2019-05-27 12:32:01 GMT 51.935394 10.991516 10,975 309 375 0
2019-05-27 12:31:58 GMT 51.931812 10.998805 10,975 309 375 0
2019-05-27 12:31:55 GMT 51.924957 11.012650 11,000 309 375 0
2019-05-27 12:31:51 GMT 51.924957 11.012650 10,975 309 375 0
2019-05-27 12:31:48 GMT 51.920837 11.020737 10,975 309 375 0
2019-05-27 12:31:44 GMT 51.916683 11.029175 10,975 309 375 -64
2019-05-27 12:31:41 GMT 51.912449 11.037964 10,975 309 377 0
2019-05-27 12:31:38 GMT 51.910076 11.042437 11,000 309 378 -64
2019-05-27 12:31:35 GMT 51.904999 11.052638 11,000 309 379 -128
2019-05-27 12:31:32 GMT 51.902664 11.057587 11,000 309 379 -128
2019-05-27 12:31:29 GMT 51.899826 11.063156 11,000 309 379 -192
2019-05-27 12:31:26 GMT 51.896484 11.070099 11,000 309 379 -192
2019-05-27 12:31:23 GMT 51.889297 11.084017 11,025 310 379 -640
2019-05-27 12:31:19 GMT 51.889297 11.084017 11,050 310 380 -960
2019-05-27 12:31:15 GMT 51.884563 11.093445 11,225 310 387 -1856
2019-05-27 12:31:12 GMT 51.881561 11.099680 11,150 310 383 -1344
2019-05-27 12:31:08 GMT 51.877121 11.108069 11,600 310 386 -1792
2019-05-27 12:31:02 GMT 51.870972 11.120529 11,375 310 388 -2240
2019-05-27 12:30:58 GMT 51.865616 11.130600 12,225 312 386 -4224
2019-05-27 12:30:54 GMT 51.860825 11.139617 11,700 311 389 -3072
2019-05-27 12:30:51 GMT 51.857437 11.146001 11,925 312 387 -3840
2019-05-27 12:30:48 GMT 51.852444 11.155472 12,075 312 386 -4224
2019-05-27 12:30:44 GMT 51.848721 11.162109 12,325 312 385 -3200
2019-05-27 12:30:41 GMT 51.844757 11.169161 12,500 312 385 -2688
2019-05-27 12:30:38 GMT 51.840992 11.175995 12,975 312 388 -3072
2019-05-27 12:30:35 GMT 51.831123 11.194000 12,900 312 386 -2752
2019-05-27 12:30:30 GMT 51.831123 11.194000 13,050 312 388 -3136
2019-05-27 12:30:27 GMT 51.828415 11.198631 13,225 312 390 -3200
2019-05-27 12:30:21 GMT 51.819901 11.214072 13,625 313 394 -2304
2019-05-27 12:30:18 GMT 51.816505 11.219940 13,650 313 397 -2176
2019-05-27 12:30:15 GMT 51.814041 11.224613 13,975 313 401 -3584
2019-05-27 12:30:11 GMT 51.809601 11.232407 13,875 313 401 -2944
2019-05-27 12:30:08 GMT 51.805481 11.239682 14,825 313 398 -4288
2019-05-27 12:30:05 GMT 51.801132 11.247699 14,250 313 400 -4416
2019-05-27 12:30:01 GMT 51.796692 11.255419 14,425 313 400 -4928
2019-05-27 12:29:58 GMT 51.792854 11.262283 14,725 313 397 -5440
2019-05-27 12:29:54 GMT 51.786255 11.273977 15,175 313 398 -4288
2019-05-27 12:29:51 GMT 51.784943 11.276474 15,325 313 401 -3712
2019-05-27 12:29:48 GMT 51.781128 11.283033 15,525 313 403 -3520
2019-05-27 12:29:45 GMT 51.777054 11.290605 15,850 313 406 -4096
2019-05-27 12:29:41 GMT 51.770882 11.301575 16,000 313 409 -4096
2019-05-27 12:29:38 GMT 51.768219 11.305971 16,600 313 416 -4096
2019-05-27 12:29:35 GMT 51.763687 11.314136 16,350 313 414 -4160
2019-05-27 12:29:32 GMT 51.758286 11.324009 16,675 313 416 -4096
2019-05-27 12:29:29 GMT 51.751053 11.336332 18,050 313 426 -3968
2019-05-27 12:29:25 GMT 51.751053 11.336332 17,050 313 421 -3968
2019-05-27 12:29:22 GMT 51.747700 11.342621 17,500 313 422 -3968
2019-05-27 12:29:19 GMT 51.742161 11.352234 17,525 312 451 -3648
2019-05-27 12:29:13 GMT 51.731186 11.371740 18,425 313 428 -3968
2019-05-27 12:29:10 GMT 51.731186 11.371740 18,050 313 426 -3968
2019-05-27 12:29:07 GMT 51.728428 11.376724 18,725 312 429 -3904
2019-05-27 12:29:03 GMT 51.723679 11.385117 22,425 312 429 -3968
2019-05-27 12:28:59 GMT 51.718418 11.394424 18,725 312 431 -3904
2019-05-27 12:28:56 GMT 51.714249 11.402175 18,975 312 434 -3776
2019-05-27 12:28:53 GMT 51.705666 11.417313 19,250 312 433 -3840
2019-05-27 12:28:47 GMT 51.700516 11.426820 19,475 312 434 -3776
2019-05-27 12:28:43 GMT 51.693237 11.439811 19,775 312 436 -3776
2019-05-27 12:28:39 GMT 51.690491 11.444933 20,000 312 437 -3712
2019-05-27 12:28:35 GMT 51.680992 11.461716 20,375 312 440 -3648
2019-05-27 12:28:28 GMT 51.675522 11.471731 20,775 312 443 -4800
2019-05-27 12:28:25 GMT 51.665348 11.489639 21,000 312 446 -4288
2019-05-27 12:28:22 GMT 51.665348 11.489639 21,275 312 451 -3648
2019-05-27 12:28:19 GMT 51.662418 11.495438 21,275 312 451 -3776
2019-05-27 12:28:16 GMT 51.655014 11.508327 21,625 312 453 -3456
2019-05-27 12:28:10 GMT 51.650547 11.516495 21,725 313 444 -3072
2019-05-27 12:28:07 GMT 51.646225 11.523916 21,875 312 453 -3520
2019-05-27 12:28:04 GMT 51.642677 11.530609 23,050 312 451 -4416
2019-05-27 12:28:01 GMT 51.637932 11.538773 22,350 312 450 -4672
2019-05-27 12:27:58 GMT 51.632111 11.549149 22,550 313 448 -4672
2019-05-27 12:27:54 GMT 51.626816 11.558656 23,175 313 445 -3904
2019-05-27 12:27:50 GMT 51.622467 11.566525 23,275 313 445 -3456
2019-05-27 12:27:47 GMT 51.614685 11.580258 23,375 313 445 -3328
2019-05-27 12:27:44 GMT 51.614685 11.580258 23,525 313 445 -3264
2019-05-27 12:27:41 GMT 51.609879 11.589092 23,725 313 444 -3136
2019-05-27 12:27:38 GMT 51.606903 11.593991 24,275 313 444 -2944
2019-05-27 12:27:35 GMT 51.601944 11.603088 24,000 313 444 -2880
2019-05-27 12:27:31 GMT 51.596786 11.612103 24,225 313 446 -2560
2019-05-27 12:27:28 GMT 51.592728 11.618958 24,575 313 446 -2688
2019-05-27 12:27:25 GMT 51.582859 11.636810 24,650 313 447 -2496
2019-05-27 12:27:19 GMT 51.579880 11.641769 24,725 313 448 -2560
2019-05-27 12:27:16 GMT 51.575272 11.650085 24,825 313 448 -2560
2019-05-27 12:27:12 GMT 51.570282 11.659018 25,025 313 450 -2432
2019-05-27 12:27:09 GMT 51.565636 11.666870 25,175 313 450 -2432
2019-05-27 12:27:06 GMT 51.560558 11.675949 25,225 313 452 -2304
2019-05-27 12:27:01 GMT 51.554134 11.687088 25,500 313 453 -2304
2019-05-27 12:26:58 GMT 51.550507 11.693684 25,525 313 455 -2304
2019-05-27 12:26:55 GMT 51.545105 11.702963 25,725 313 456 -2432
2019-05-27 12:26:52 GMT 51.541626 11.709199 25,975 313 457 -2432
2019-05-27 12:26:48 GMT 51.536213 11.718826 26,175 313 459 -2432
2019-05-27 12:26:45 GMT 51.531418 11.726792 26,075 313 460 -2432
2019-05-27 12:26:41 GMT 51.525135 11.737900 26,225 313 460 -2432
2019-05-27 12:26:38 GMT 51.522343 11.743088 26,400 313 462 -2688
2019-05-27 12:26:35 GMT 51.517780 11.750870 26,650 313 462 -2752
2019-05-27 12:26:31 GMT 51.512753 11.759720 26,725 313 462 -2752
2019-05-27 12:26:28 GMT 51.505600 11.772148 26,825 313 463 -2560
2019-05-27 12:26:25 GMT 51.502075 11.778531 26,975 313 465 -2176
2019-05-27 12:26:22 GMT 51.492325 11.796347 27,150 313 465 -2176
2019-05-27 12:26:19 GMT 51.492325 11.796347 27,200 313 465 -2240
2019-05-27 12:26:15 GMT 51.489578 11.800356 27,375 313 465 -2240
2019-05-27 12:26:12 GMT 51.484406 11.809338 27,700 313 466 -1728
2019-05-27 12:26:07 GMT 51.477928 11.820602 27,650 313 466 -1728
2019-05-27 12:26:04 GMT 51.472687 11.830123 27,700 313 467 -1472
2019-05-27 12:26:00 GMT 51.466049 11.841851 27,950 313 467 -768
2019-05-27 12:25:56 GMT 51.459045 11.854248 27,925 313 467 -256
2019-05-27 12:25:53 GMT 51.456299 11.858850 27,950 313 467 -128
2019-05-27 12:25:50 GMT 51.451675 11.866719 27,975 313 467 0
2019-05-27 12:25:47 GMT 51.448418 11.872482 27,975 313 467 0
2019-05-27 12:25:44 GMT 51.443802 11.880600 27,975 313 467 0
2019-05-27 12:25:41 GMT 51.437660 11.891556 27,975 313 464 0
2019-05-27 12:25:38 GMT 51.429981 11.904984 27,975 313 466 -64
2019-05-27 12:25:32 GMT 51.424210 11.915489 27,975 313 462 0
2019-05-27 12:25:29 GMT 51.421234 11.920611 27,975 313 464 0
2019-05-27 12:25:26 GMT 51.418121 11.926030 28,000 313 464 0
2019-05-27 12:25:23 GMT 51.413830 11.933594 28,000 313 462 0
2019-05-27 12:25:19 GMT 51.407822 11.944046 28,000 313 461 0
2019-05-27 12:25:16 GMT 51.402145 11.953793 28,000 313 462 0
2019-05-27 12:25:13 GMT 51.397068 11.962585 28,000 313 462 0
2019-05-27 12:25:10 GMT 51.394463 11.967316 28,000 313 461 0
2019-05-27 12:25:07 GMT 51.389389 11.976089 28,000 313 462 0
2019-05-27 12:25:04 GMT 51.386307 11.981779 27,975 313 462 0
2019-05-27 12:25:01 GMT 51.382050 11.988979 28,000 313 462 0
2019-05-27 12:24:58 GMT 51.377609 11.996773 28,000 313 462 0
2019-05-27 12:24:54 GMT 51.371651 12.007141 28,000 313 462 0
2019-05-27 12:24:51 GMT 51.366901 12.015457 27,975 313 462 0
2019-05-27 12:24:48 GMT 51.363689 12.021103 28,000 313 462 0
2019-05-27 12:24:43 GMT 51.356186 12.034186 28,000 313 462 0
2019-05-27 12:24:40 GMT 51.351746 12.042055 28,000 313 462 0
2019-05-27 12:24:37 GMT 51.348083 12.048290 27,975 313 462 0
2019-05-27 12:24:33 GMT 51.341400 12.059945 28,000 313 462 0
2019-05-27 12:24:30 GMT 51.335293 12.070618 28,000 313 462 0
2019-05-27 12:24:27 GMT 51.332222 12.075729 28,000 313 462 0
2019-05-27 12:24:23 GMT 51.324738 12.088821 28,000 313 462 0
2019-05-27 12:24:20 GMT 51.320755 12.095799 28,000 313 463 0
2019-05-27 12:24:17 GMT 51.313461 12.108078 28,000 313 463 0
2019-05-27 12:24:14 GMT 51.313461 12.108078 28,000 313 463 0
2019-05-27 12:24:11 GMT 51.309597 12.115097 28,000 313 463 0
2019-05-27 12:24:08 GMT 51.304825 12.123116 28,000 313 465 0
2019-05-27 12:24:05 GMT 51.300659 12.130391 28,000 313 465 0
2019-05-27 12:24:02 GMT 51.295399 12.139816 27,975 313 467 64
2019-05-27 12:23:59 GMT 51.287998 12.152634 27,975 313 467 64
2019-05-27 12:23:53 GMT 51.282223 12.162781 27,975 313 469 0
2019-05-27 12:23:49 GMT 51.274200 12.176712 27,975 313 470 0
2019-05-27 12:23:43 GMT 51.268353 12.187119 27,975 313 467 0
2019-05-27 12:23:40 GMT 51.263489 12.195270 27,975 313 468 0
2019-05-27 12:23:36 GMT 51.258621 12.203903 27,975 313 467 0
2019-05-27 12:23:33 GMT 51.251827 12.215881 27,975 313 465 0
2019-05-27 12:23:27 GMT 51.244656 12.228317 27,975 313 462 0
2019-05-27 12:23:23 GMT 51.240234 12.236404 27,975 315 450 -768
2019-05-27 12:23:20 GMT 51.234329 12.246564 27,975 313 460 0
2019-05-27 12:23:16 GMT 51.228642 12.256088 27,975 313 458 -64
2019-05-27 12:23:13 GMT 51.224266 12.263641 27,975 314 457 -192
2019-05-27 12:23:10 GMT 51.219471 12.272110 27,975 314 456 -192
2019-05-27 12:23:06 GMT 51.213795 12.281342 28,000 314 454 -384
2019-05-27 12:23:03 GMT 51.209564 12.288505 28,025 314 452 -576
2019-05-27 12:23:00 GMT 51.205765 12.295260 28,050 315 450 -896
2019-05-27 12:22:57 GMT 51.202805 12.299728 28,400 315 448 -1024
2019-05-27 12:22:53 GMT 51.195145 12.312333 28,225 313 440 -1088
2019-05-27 12:22:50 GMT 51.190609 12.320023 28,225 313 439 -1088
2019-05-27 12:22:47 GMT 51.187454 12.325176 28,250 310 435 -1408
2019-05-27 12:22:43 GMT 51.180862 12.337275 28,375 308 433 -1600
2019-05-27 12:22:39 GMT 51.176876 12.345428 28,525 304 430 -1920
2019-05-27 12:22:36 GMT 51.173492 12.353532 28,600 303 429 -2112
2019-05-27 12:22:33 GMT 51.169693 12.362811 28,675 301 428 -2304
2019-05-27 12:22:30 GMT 51.167313 12.369640 28,875 297 423 -2880
2019-05-27 12:22:27 GMT 51.164448 12.378769 29,650 198 397 -1088
2019-05-27 12:22:24 GMT 51.162121 12.386703 29,200 292 417 -3776
2019-05-27 12:22:21 GMT 51.159840 12.396011 29,500 287 410 -3904
2019-05-27 12:22:15 GMT 51.155090 12.421265 29,925 284 405 -3776
2019-05-27 12:22:12 GMT 51.155090 12.421265 30,075 283 403 -3776
2019-05-27 12:22:09 GMT 51.153809 12.429917 30,450 272 396 -1344
2019-05-27 12:22:06 GMT 51.153133 12.435760 30,700 278 397 -2816
2019-05-27 12:22:03 GMT 51.151978 12.447807 30,600 277 396 -2560
2019-05-27 12:22:00 GMT 51.151428 12.454933 30,775 274 395 -1536
2019-05-27 12:21:57 GMT 51.151016 12.462059 30,875 274 395 -1536
2019-05-27 12:21:54 GMT 51.150375 12.484997 31,100 272 396 -1344
2019-05-27 12:21:50 GMT 51.150375 12.484997 31,125 270 396 -1344
2019-05-27 12:21:47 GMT 51.150375 12.491158 31,375 266 397 -1216
2019-05-27 12:21:43 GMT 51.150742 12.503258 31,325 265 397 -1088
2019-05-27 12:21:40 GMT 51.151272 12.512436 31,400 260 399 -704
2019-05-27 12:21:37 GMT 51.151878 12.520523 31,450 261 398 -768
2019-05-27 12:21:34 GMT 51.153259 12.533470 31,525 257 400 -640
2019-05-27 12:21:31 GMT 51.154064 12.538681 31,550 257 400 -640
2019-05-27 12:21:28 GMT 51.155045 12.545319 31,600 254 402 -576
2019-05-27 12:21:25 GMT 51.157372 12.557602 31,800 250 404 -640
2019-05-27 12:21:22 GMT 51.159164 12.565242 31,700 248 404 -640
2019-05-27 12:21:19 GMT 51.160957 12.572632 31,850 240 409 -576
2019-05-27 12:21:16 GMT 51.164074 12.583389 31,925 230 412 -896
2019-05-27 12:21:13 GMT 51.165752 12.588882 31,875 239 409 -576
2019-05-27 12:21:10 GMT 51.169056 12.598419 31,875 239 409 -576
2019-05-27 12:21:07 GMT 51.171803 12.605209 31,900 234 411 -640
2019-05-27 12:21:04 GMT 51.174873 12.612534 31,925 234 411 -640
2019-05-27 12:21:00 GMT 51.178833 12.621231 32,050 230 412 -896
2019-05-27 12:20:57 GMT 51.183254 12.629471 32,050 228 412 -1088
2019-05-27 12:20:54 GMT 51.186218 12.634871 32,300 224 412 -1088
2019-05-27 12:20:51 GMT 51.190704 12.642072 32,300 212 405 -1024
2019-05-27 12:20:48 GMT 51.195007 12.648307 32,200 222 410 -1088
2019-05-27 12:20:45 GMT 51.200710 12.656021 32,300 217 408 -1024
2019-05-27 12:20:42 GMT 51.204758 12.660778 32,800 191 394 -1024
2019-05-27 12:20:39 GMT 51.207184 12.663673 32,425 211 404 -1024
2019-05-27 12:20:36 GMT 51.212357 12.669241 32,525 209 403 -1088
2019-05-27 12:20:32 GMT 51.225475 12.680740 32,600 198 397 -1088
2019-05-27 12:20:29 GMT 51.225475 12.680740 32,575 205 401 -1088
2019-05-27 12:20:26 GMT 51.230438 12.684532 32,600 202 399 -1088
2019-05-27 12:20:23 GMT 51.236511 12.688370 32,675 200 398 -1088
2019-05-27 12:20:20 GMT 51.245132 12.693069 32,725 197 397 -1088
2019-05-27 12:20:14 GMT 51.250580 12.695593 32,875 193 394 -1024
2019-05-27 12:20:11 GMT 51.254246 12.697144 32,875 192 394 -1024
2019-05-27 12:20:08 GMT 51.259781 12.699008 32,950 191 394 -1024
2019-05-27 12:20:05 GMT 51.268707 12.701457 32,950 189 392 -1152
2019-05-27 12:20:01 GMT 51.273056 12.702348 33,075 181 395 -2048
2019-05-27 12:19:58 GMT 51.280037 12.703247 33,075 183 393 -1792
2019-05-27 12:19:54 GMT 51.287624 12.703552 33,125 181 394 -1984
2019-05-27 12:19:51 GMT 51.289532 12.703552 33,300 177 396 -2304
2019-05-27 12:19:48 GMT 51.296906 12.703165 33,375 175 398 -2624
2019-05-27 12:19:45 GMT 51.303032 12.702484 33,525 172 400 -2944
2019-05-27 12:19:42 GMT 51.308292 12.701569 33,600 170 400 -3072
2019-05-27 12:19:39 GMT 51.313797 12.700270 33,700 170 400 -3072
2019-05-27 12:19:35 GMT 51.320492 12.698288 33,850 168 401 -3072
2019-05-27 12:19:32 GMT 51.325241 12.696558 34,050 163 404 -2560
2019-05-27 12:19:28 GMT 51.332062 12.693589 34,250 162 404 -2496
2019-05-27 12:19:25 GMT 51.338928 12.690174 34,400 159 405 -2304
2019-05-27 12:19:22 GMT 51.343369 12.687724 34,475 157 407 -2176
2019-05-27 12:19:18 GMT 51.350555 12.682974 34,575 156 407 -1984
2019-05-27 12:19:15 GMT 51.356800 12.678375 34,700 152 411 -1344
2019-05-27 12:19:12 GMT 51.362320 12.673991 34,800 150 412 -960
2019-05-27 12:19:08 GMT 51.368114 12.668839 34,800 148 413 -768
2019-05-27 12:19:05 GMT 51.373032 12.663896 34,850 145 416 0
2019-05-27 12:19:02 GMT 51.378170 12.658539 34,850 143 418 128
2019-05-27 12:18:59 GMT 51.380962 12.655182 34,825 137 424 64
2019-05-27 12:18:56 GMT 51.386078 12.649272 34,825 141 421 0
2019-05-27 12:18:52 GMT 51.392670 12.640736 34,775 136 425 128
2019-05-27 12:18:49 GMT 51.397861 12.633209 34,775 135 426 128
2019-05-27 12:18:46 GMT 51.400700 12.628860 34,750 133 428 128
2019-05-27 12:18:43 GMT 51.404617 12.622474 34,700 130 432 256
2019-05-27 12:18:40 GMT 51.412197 12.609024 34,675 129 434 320
2019-05-27 12:18:37 GMT 51.417206 12.599017 34,625 123 441 1216
2019-05-27 12:18:34 GMT 51.417206 12.599017 33,625 122 452 896
2019-05-27 12:18:31 GMT 51.420593 12.591074 34,575 124 439 960
2019-05-27 12:18:28 GMT 51.423744 12.584534 34,525 123 441 1216
2019-05-27 12:18:25 GMT 51.427189 12.575912 34,450 122 443 1728
2019-05-27 12:18:20 GMT 51.433456 12.560491 34,300 122 445 1920
2019-05-27 12:18:16 GMT 51.436661 12.552177 34,175 122 447 1984
2019-05-27 12:18:13 GMT 51.441422 12.540300 34,050 122 448 1920
2019-05-27 12:18:10 GMT 51.444534 12.532877 33,950 122 451 1600
2019-05-27 12:18:07 GMT 51.447392 12.525406 33,800 122 451 1408
2019-05-27 12:18:04 GMT 51.450623 12.517659 33,825 122 452 1152
2019-05-27 12:18:00 GMT 51.456802 12.502144 33,725 122 452 832
2019-05-27 12:17:57 GMT 51.459915 12.494354 33,450 122 452 960
2019-05-27 12:17:54 GMT 51.462849 12.487106 33,625 122 452 960
2019-05-27 12:17:51 GMT 51.464722 12.482325 33,600 122 452 960
2019-05-27 12:17:47 GMT 51.473236 12.461168 33,500 122 452 1024
2019-05-27 12:17:44 GMT 51.473236 12.461168 33,475 122 452 1024
2019-05-27 12:17:39 GMT 51.479553 12.445134 33,375 122 453 1216
2019-05-27 12:17:36 GMT 51.483238 12.436295 33,300 122 453 1088
2019-05-27 12:17:33 GMT 51.486008 12.428878 33,250 122 455 896
2019-05-27 12:17:30 GMT 51.490036 12.419227 33,200 122 455 448
2019-05-27 12:17:27 GMT 51.491867 12.414551 33,175 122 452 256
2019-05-27 12:17:24 GMT 51.495480 12.405319 33,175 122 454 256
2019-05-27 12:17:21 GMT 51.498878 12.397232 33,150 122 453 256
2019-05-27 12:17:18 GMT 51.502441 12.387976 33,125 122 452 320
2019-05-27 12:17:15 GMT 51.507259 12.375870 33,100 122 451 704
2019-05-27 12:17:12 GMT 51.509491 12.370680 33,100 122 451 832
2019-05-27 12:17:06 GMT 51.517456 12.350711 33,025 122 452 1408
2019-05-27 12:17:03 GMT 51.519314 12.346039 32,950 122 452 1536
2019-05-27 12:17:00 GMT 51.525925 12.329636 32,750 122 454 960
2019-05-27 12:16:54 GMT 51.529602 12.320023 32,675 122 454 896
2019-05-27 12:16:51 GMT 51.533188 12.311172 32,675 122 458 1344
2019-05-27 12:16:48 GMT 51.536678 12.302704 32,550 122 454 896
2019-05-27 12:16:45 GMT 51.541077 12.291400 32,550 122 454 1024
2019-05-27 12:16:42 GMT 51.544315 12.283401 32,525 122 454 1088
2019-05-27 12:16:39 GMT 51.551853 12.264404 32,425 122 455 1216
2019-05-27 12:16:34 GMT 51.551853 12.264404 31,975 122 458 1344
2019-05-27 12:16:31 GMT 51.556641 12.252131 32,275 122 456 1280
2019-05-27 12:16:28 GMT 51.559910 12.244186 32,225 122 456 1344
2019-05-27 12:16:24 GMT 51.564972 12.231421 32,125 122 459 1280
2019-05-27 12:16:21 GMT 51.567169 12.225334 31,975 122 458 1344
2019-05-27 12:16:18 GMT 51.570522 12.217484 32,025 122 458 1344
2019-05-27 12:16:13 GMT 51.575970 12.203522 31,900 122 459 1344
2019-05-27 12:16:10 GMT 51.580124 12.193191 31,800 122 459 1344
2019-05-27 12:16:03 GMT 51.587494 12.174485 31,725 122 460 1280
2019-05-27 12:16:00 GMT 51.590866 12.165985 31,600 122 460 1344
2019-05-27 12:15:57 GMT 51.594170 12.157211 31,325 122 460 1344
2019-05-27 12:15:54 GMT 51.598782 12.145920 31,425 122 461 1408
2019-05-27 12:15:51 GMT 51.600311 12.141971 31,425 122 462 1472
2019-05-27 12:15:48 GMT 51.605026 12.129723 31,300 122 463 1408
2019-05-27 12:15:42 GMT 51.612606 12.110977 31,200 122 463 1280
2019-05-27 12:15:39 GMT 51.614979 12.104721 31,150 122 463 1152
2019-05-27 12:15:36 GMT 51.619125 12.094314 31,050 122 464 768
2019-05-27 12:15:33 GMT 51.626907 12.074494 31,000 122 463 192
2019-05-27 12:15:30 GMT 51.626907 12.074494 30,975 122 463 192
2019-05-27 12:15:27 GMT 51.628201 12.071457 30,975 122 462 320
2019-05-27 12:15:24 GMT 51.631741 12.062225 30,950 122 460 512
2019-05-27 12:15:21 GMT 51.636017 12.051779 30,950 122 460 640
2019-05-27 12:15:18 GMT 51.639496 12.042871 30,900 122 459 768
2019-05-27 12:15:15 GMT 51.643608 12.032166 30,875 122 459 1024
2019-05-27 12:15:12 GMT 51.645939 12.026596 30,825 122 459 1024
2019-05-27 12:15:09 GMT 51.650162 12.015554 30,800 122 459 1024
2019-05-27 12:15:06 GMT 51.654224 12.005234 30,750 122 459 1024
2019-05-27 12:15:01 GMT 51.657669 11.996765 30,650 122 459 1024
2019-05-27 12:14:58 GMT 51.662369 11.984863 30,575 122 458 1024
2019-05-27 12:14:55 GMT 51.666183 11.974801 30,550 122 458 1024
2019-05-27 12:14:50 GMT 51.671631 11.960994 30,450 122 458 960
2019-05-27 12:14:47 GMT 51.674751 11.953354 30,425 122 458 960
2019-05-27 12:14:44 GMT 51.677856 11.945256 30,350 122 458 896
2019-05-27 12:14:41 GMT 51.681427 11.935903 30,325 122 458 960
2019-05-27 12:14:37 GMT 51.686279 11.923655 30,225 122 458 960
2019-05-27 12:14:34 GMT 51.689743 11.914978 30,175 122 458 960
2019-05-27 12:14:30 GMT 51.693001 11.906662 30,150 122 458 960
2019-05-27 12:14:27 GMT 51.696671 11.897228 30,100 122 458 1024
2019-05-27 12:14:23 GMT 51.702915 11.881180 30,000 122 456 1024
2019-05-27 12:14:19 GMT 51.706055 11.873400 29,750 122 456 1088
2019-05-27 12:14:15 GMT 51.710411 11.862259 29,850 122 456 1088
2019-05-27 12:14:12 GMT 51.714088 11.852341 29,825 122 456 1088
2019-05-27 12:14:09 GMT 51.717487 11.844101 29,775 122 456 1088
2019-05-27 12:14:05 GMT 51.721584 11.833496 29,650 122 456 1088
2019-05-27 12:14:02 GMT 51.724731 11.825075 29,650 122 456 1024
2019-05-27 12:13:58 GMT 51.728848 11.814499 29,575 122 456 1088
2019-05-27 12:13:55 GMT 51.735458 11.797714 29,475 121 455 1088
2019-05-27 12:13:48 GMT 51.739784 11.786346 29,400 122 456 1024
2019-05-27 12:13:45 GMT 51.743324 11.777496 29,350 121 455 1088
2019-05-27 12:13:42 GMT 51.746613 11.768659 29,300 121 455 1024
2019-05-27 12:13:38 GMT 51.751610 11.755981 29,175 121 455 1088
2019-05-27 12:13:35 GMT 51.755493 11.745795 29,175 121 455 1088
2019-05-27 12:13:32 GMT 51.758835 11.737407 29,150 121 455 1088
2019-05-27 12:13:29 GMT 51.761993 11.729050 29,025 121 455 1024
2019-05-27 12:13:26 GMT 51.765335 11.720556 28,975 122 452 1472
2019-05-27 12:13:23 GMT 51.768650 11.712112 28,950 122 454 960
2019-05-27 12:13:19 GMT 51.772659 11.701776 28,900 122 453 1024
2019-05-27 12:13:16 GMT 51.776917 11.690864 28,850 122 453 1088
2019-05-27 12:13:13 GMT 51.779308 11.684799 28,825 122 453 1088
2019-05-27 12:13:10 GMT 51.783127 11.674957 28,750 122 453 1280
2019-05-27 12:13:07 GMT 51.787315 11.664581 28,675 122 453 1600
2019-05-27 12:13:04 GMT 51.788544 11.660874 28,400 113 473 960
2019-05-27 12:13:01 GMT 51.792622 11.650696 28,525 122 453 2112
2019-05-27 12:12:57 GMT 51.798431 11.636229 28,350 122 455 2624
2019-05-27 12:12:54 GMT 51.800491 11.631088 28,200 123 457 3008
2019-05-27 12:12:51 GMT 51.804703 11.620714 28,100 123 458 3136
2019-05-27 12:12:48 GMT 51.809429 11.608963 27,850 122 464 2816
2019-05-27 12:12:45 GMT 51.812363 11.602097 27,775 122 464 2688
2019-05-27 12:12:42 GMT 51.815666 11.593857 27,450 122 467 1856
2019-05-27 12:12:39 GMT 51.818024 11.587607 27,525 122 467 2048
2019-05-27 12:12:35 GMT 51.822186 11.576996 27,350 119 470 640
2019-05-27 12:12:32 GMT 51.826126 11.566599 27,325 118 471 640
2019-05-27 12:12:29 GMT 51.829399 11.557465 27,275 118 471 640
2019-05-27 12:12:26 GMT 51.832611 11.547928 27,225 117 471 704
2019-05-27 12:12:23 GMT 51.840271 11.523396 27,150 115 472 832
2019-05-27 12:12:19 GMT 51.840271 11.523396 27,100 113 473 960
2019-05-27 12:12:16 GMT 51.842148 11.516493 27,075 112 473 1280
2019-05-27 12:12:13 GMT 51.845135 11.505203 27,000 112 472 1152
2019-05-27 12:12:10 GMT 51.847504 11.496227 26,900 112 471 960
2019-05-27 12:12:04 GMT 51.852859 11.475665 26,800 112 472 1088
2019-05-27 12:12:01 GMT 51.855377 11.466141 26,675 112 472 1024
2019-05-27 12:11:55 GMT 51.860077 11.448135 26,675 112 472 1024
2019-05-27 12:11:51 GMT 51.862221 11.439590 26,600 112 472 1024
2019-05-27 12:11:48 GMT 51.865337 11.427307 26,550 112 471 960
2019-05-27 12:11:45 GMT 51.871399 11.403957 26,475 112 471 960
2019-05-27 12:11:42 GMT 51.871399 11.403957 26,425 112 471 960
2019-05-27 12:11:39 GMT 51.873093 11.397053 26,400 112 471 960
2019-05-27 12:11:36 GMT 51.876984 11.381984 26,275 112 469 1024
2019-05-27 12:11:33 GMT 51.878651 11.375580 26,325 112 471 960
2019-05-27 12:11:30 GMT 51.881538 11.364670 26,250 112 469 1024
2019-05-27 12:11:27 GMT 51.887173 11.342697 26,200 112 468 1088
2019-05-27 12:11:23 GMT 51.888748 11.336109 26,075 112 468 1088
2019-05-27 12:11:20 GMT 51.891918 11.323776 25,975 112 468 1088
2019-05-27 12:11:17 GMT 51.891918 11.323776 25,975 112 466 1024
2019-05-27 12:11:12 GMT 51.898132 11.299744 25,900 112 460 1280
2019-05-27 12:11:06 GMT 51.900970 11.288147 25,825 112 466 1024
2019-05-27 12:11:02 GMT 51.904587 11.274185 25,800 112 466 1024
2019-05-27 12:10:59 GMT 51.906006 11.269073 25,600 112 466 960
2019-05-27 12:10:56 GMT 51.909515 11.255258 25,650 112 466 960
2019-05-27 12:10:51 GMT 51.913376 11.240158 25,550 112 463 896
2019-05-27 12:10:45 GMT 51.918457 11.220474 25,475 112 466 1024
2019-05-27 12:10:42 GMT 51.921661 11.206894 25,425 112 465 896
2019-05-27 12:10:39 GMT 51.923172 11.201782 25,225 112 461 1152
2019-05-27 12:10:35 GMT 51.926971 11.187134 25,300 112 460 1408
2019-05-27 12:10:31 GMT 51.929951 11.175528 25,250 112 462 1024
2019-05-27 12:10:28 GMT 51.931721 11.168073 25,125 112 460 1344
2019-05-27 12:10:24 GMT 51.935772 11.152222 25,125 112 461 1344
2019-05-27 12:10:18 GMT 51.940147 11.134722 24,900 112 460 1408
2019-05-27 12:10:14 GMT 51.942856 11.124420 24,950 112 460 1344
2019-05-27 12:10:11 GMT 51.946014 11.112518 24,850 112 460 1408
2019-05-27 12:10:08 GMT 51.947826 11.104745 24,725 112 460 1408
2019-05-27 12:10:05 GMT 51.950363 11.095276 24,700 112 460 1408
2019-05-27 12:10:02 GMT 51.952763 11.085676 24,650 112 460 1344
2019-05-27 12:09:59 GMT 51.956177 11.071930 24,575 112 459 1280
2019-05-27 12:09:56 GMT 51.961002 11.053188 24,075 112 455 1152
2019-05-27 12:09:53 GMT 51.961002 11.053188 24,450 112 459 1280
2019-05-27 12:09:50 GMT 51.962311 11.048050 24,375 112 459 1280
2019-05-27 12:09:47 GMT 51.964828 11.038284 24,325 112 458 1280
2019-05-27 12:09:43 GMT 51.967754 11.026585 22,800 112 455 1152
2019-05-27 12:09:40 GMT 51.971058 11.013245 23,875 112 457 1280
2019-05-27 12:09:37 GMT 51.974083 11.001709 24,100 112 457 1216
2019-05-27 12:09:34 GMT 51.976364 10.992763 24,050 112 456 1216
2019-05-27 12:09:31 GMT 51.978832 10.982247 24,000 112 455 1152
2019-05-27 12:09:28 GMT 51.980759 10.975418 23,850 112 454 1152
2019-05-27 12:09:24 GMT 51.983116 10.965925 23,825 112 454 1216
2019-05-27 12:09:21 GMT 51.985119 10.957999 23,850 112 453 1280
2019-05-27 12:09:18 GMT 51.987991 10.946655 23,575 112 452 1344
2019-05-27 12:09:15 GMT 51.991150 10.934143 23,675 112 452 1344
2019-05-27 12:09:11 GMT 51.993637 10.924020 23,600 112 451 1408
2019-05-27 12:09:07 GMT 51.997238 10.909958 23,475 112 451 1600
2019-05-27 12:09:04 GMT 51.999828 10.899850 23,425 112 451 1600
2019-05-27 12:09:01 GMT 52.001595 10.892473 23,375 112 451 1536
2019-05-27 12:08:58 GMT 52.004108 10.882821 23,225 112 451 1344
2019-05-27 12:08:55 GMT 52.006207 10.874425 22,900 112 449 1344
2019-05-27 12:08:52 GMT 52.011002 10.855512 22,950 112 449 1344
2019-05-27 12:08:46 GMT 52.014221 10.842590 22,800 112 449 1344
2019-05-27 12:08:39 GMT 52.019531 10.821228 22,700 112 448 1344
2019-05-27 12:08:36 GMT 52.021240 10.814628 22,775 112 447 1472
2019-05-27 12:08:33 GMT 52.023102 10.807037 22,700 112 447 1472
2019-05-27 12:08:28 GMT 52.028179 10.786612 22,575 112 446 1472
2019-05-27 12:08:25 GMT 52.030380 10.778046 22,375 112 445 1472
2019-05-27 12:08:19 GMT 52.037338 10.750351 22,350 112 444 1408
2019-05-27 12:08:16 GMT 52.039024 10.743295 22,275 112 444 1408
2019-05-27 12:08:13 GMT 52.039024 10.743295 22,200 112 443 1408
2019-05-27 12:08:10 GMT 52.042095 10.731131 22,175 112 443 1408
2019-05-27 12:08:07 GMT 52.043655 10.725250 22,125 112 442 1408
2019-05-27 12:08:04 GMT 52.048462 10.706024 21,975 112 441 1408
2019-05-27 12:07:58 GMT 52.051392 10.694275 21,900 112 441 1408
2019-05-27 12:07:55 GMT 52.053642 10.684910 21,800 112 440 1344
2019-05-27 12:07:52 GMT 52.055691 10.677141 21,700 111 438 1280
2019-05-27 12:07:48 GMT 52.057785 10.668509 21,525 111 438 1280
2019-05-27 12:07:45 GMT 52.060226 10.658646 21,650 111 438 1280
2019-05-27 12:07:42 GMT 52.065838 10.636257 21,525 111 436 1280
2019-05-27 12:07:38 GMT 52.065838 10.636257 21,450 111 435 1344
2019-05-27 12:07:35 GMT 52.068398 10.625349 21,400 111 435 1344
2019-05-27 12:07:32 GMT 52.070847 10.616150 21,350 111 435 1408
2019-05-27 12:07:25 GMT 52.075474 10.596863 21,150 111 433 1856
2019-05-27 12:07:22 GMT 52.077347 10.589752 21,025 111 433 1920
2019-05-27 12:07:19 GMT 52.079773 10.579758 21,000 111 433 1920
2019-05-27 12:07:15 GMT 52.083023 10.566406 20,850 111 433 1728
2019-05-27 12:07:12 GMT 52.085358 10.557098 20,675 111 433 1664
2019-05-27 12:07:09 GMT 52.088554 10.544442 20,650 111 433 1600
2019-05-27 12:07:05 GMT 52.091766 10.531259 20,525 111 432 1792
2019-05-27 12:07:02 GMT 52.092560 10.527649 20,025 111 431 2112
2019-05-27 12:06:59 GMT 52.094559 10.520020 20,425 111 432 1856
2019-05-27 12:06:55 GMT 52.098518 10.504028 20,125 111 431 2112
2019-05-27 12:06:51 GMT 52.101589 10.491473 20,050 111 431 2112
2019-05-27 12:06:48 GMT 52.103439 10.483704 20,025 111 431 2112
2019-05-27 12:06:44 GMT 52.106712 10.470755 19,875 111 431 2048
2019-05-27 12:06:39 GMT 52.109894 10.457840 19,775 111 431 1984
2019-05-27 12:06:36 GMT 52.111786 10.450117 19,650 111 431 1856
2019-05-27 12:06:33 GMT 52.114471 10.438919 19,475 111 429 1664
2019-05-27 12:06:29 GMT 52.116814 10.430028 19,375 111 429 1600
2019-05-27 12:06:25 GMT 52.121109 10.412445 19,375 111 423 1920
2019-05-27 12:06:22 GMT 52.122261 10.407506 19,125 111 426 1536
2019-05-27 12:06:19 GMT 52.124817 10.397339 19,150 111 426 1472
2019-05-27 12:06:16 GMT 52.127380 10.387344 19,075 111 425 1536
2019-05-27 12:06:13 GMT 52.128868 10.380824 18,975 111 424 1664
2019-05-27 12:06:10 GMT 52.131271 10.371323 18,850 111 424 1664
2019-05-27 12:06:07 GMT 52.133617 10.361912 18,875 111 423 1792
2019-05-27 12:06:04 GMT 52.138000 10.344238 18,700 111 423 2176
2019-05-27 12:05:58 GMT 52.140137 10.335231 18,575 111 423 2176
2019-05-27 12:05:54 GMT 52.143036 10.323029 18,450 111 423 1920
2019-05-27 12:05:51 GMT 52.144913 10.315933 18,300 111 423 1920
2019-05-27 12:05:48 GMT 52.146931 10.307687 18,025 111 421 1920
2019-05-27 12:05:45 GMT 52.149261 10.298004 17,925 111 421 1920
2019-05-27 12:05:41 GMT 52.153030 10.282261 17,850 111 418 1792
2019-05-27 12:05:37 GMT 52.154938 10.275120 17,900 111 420 1920
2019-05-27 12:05:34 GMT 52.157780 10.263271 17,825 111 420 1984
2019-05-27 12:05:30 GMT 52.162170 10.245361 17,600 111 418 1856
2019-05-27 12:05:26 GMT 52.162170 10.245361 17,550 111 418 1792
2019-05-27 12:05:23 GMT 52.164948 10.234157 17,475 111 418 1664
2019-05-27 12:05:19 GMT 52.167881 10.221994 17,275 111 415 1536
2019-05-27 12:05:16 GMT 52.169952 10.213089 17,250 111 415 1664
2019-05-27 12:05:13 GMT 52.171967 10.205383 17,175 111 414 1856
2019-05-27 12:05:10 GMT 52.174255 10.195541 17,000 111 411 2368
2019-05-27 12:05:07 GMT 52.178913 10.176714 16,900 111 412 2432
2019-05-27 12:05:04 GMT 52.180573 10.169678 16,800 111 412 2432
2019-05-27 12:05:01 GMT 52.180573 10.169678 16,650 111 412 2368
2019-05-27 12:04:58 GMT 52.182823 10.160470 16,600 111 412 2432
2019-05-27 12:04:55 GMT 52.184315 10.154428 16,450 111 412 2432
2019-05-27 12:04:52 GMT 52.187016 10.142814 16,375 111 411 2432
2019-05-27 12:04:49 GMT 52.188629 10.136795 16,175 111 411 2368
2019-05-27 12:04:46 GMT 52.191559 10.124512 16,100 111 411 2368
2019-05-27 12:04:43 GMT 52.194122 10.113602 15,975 111 411 2240
2019-05-27 12:04:39 GMT 52.195858 10.106873 15,850 111 411 2176
2019-05-27 12:04:36 GMT 52.197254 10.100830 15,775 111 410 2048
2019-05-27 12:04:33 GMT 52.200748 10.086469 15,625 111 409 1792
2019-05-27 12:04:29 GMT 52.203003 10.077286 13,200 111 393 2304
2019-05-27 12:04:25 GMT 52.206520 10.062927 15,375 111 405 1664
2019-05-27 12:04:22 GMT 52.207718 10.057602 15,350 111 405 1664
2019-05-27 12:04:19 GMT 52.209778 10.049508 14,900 111 402 1728
2019-05-27 12:04:16 GMT 52.212341 10.038834 15,175 111 402 1920
2019-05-27 12:04:13 GMT 52.213081 10.035383 15,075 111 402 1728
2019-05-27 12:04:10 GMT 52.216003 10.023422 14,900 111 400 1536
2019-05-27 12:04:07 GMT 52.218624 10.012626 14,875 111 399 1600
2019-05-27 12:04:04 GMT 52.220253 10.005484 14,725 111 396 2304
2019-05-27 12:04:01 GMT 52.221973 9.998500 14,650 111 396 2304
2019-05-27 12:03:58 GMT 52.224537 9.987985 14,600 111 396 2304
2019-05-27 12:03:55 GMT 52.225845 9.982605 14,450 111 396 2304
2019-05-27 12:03:51 GMT 52.228443 9.971662 14,375 111 394 2304
2019-05-27 12:03:48 GMT 52.230789 9.961929 14,175 111 394 2304
2019-05-27 12:03:44 GMT 52.233215 9.951324 14,075 111 393 2368
2019-05-27 12:03:41 GMT 52.235321 9.942780 13,975 111 393 2432
2019-05-27 12:03:38 GMT 52.237106 9.935303 13,875 111 393 2368
2019-05-27 12:03:35 GMT 52.241943 9.914926 13,650 111 391 1920
2019-05-27 12:03:31 GMT 52.241943 9.914926 13,600 111 391 1856
2019-05-27 12:03:27 GMT 52.244179 9.905587 13,475 111 388 1920
2019-05-27 12:03:24 GMT 52.248417 9.887146 13,325 111 388 1856
2019-05-27 12:03:21 GMT 52.248417 9.887146 13,275 111 387 1728
2019-05-27 12:03:18 GMT 52.250702 9.878006 13,200 111 384 1344
2019-05-27 12:03:14 GMT 52.252716 9.869537 13,000 111 383 1152
2019-05-27 12:03:11 GMT 52.255188 9.858780 13,025 111 379 1024
2019-05-27 12:03:05 GMT 52.259399 9.841461 12,575 111 370 1024
2019-05-27 12:03:02 GMT 52.260590 9.835892 12,875 111 370 1024
2019-05-27 12:02:59 GMT 52.262741 9.827347 12,800 111 370 1024
2019-05-27 12:02:56 GMT 52.263977 9.821854 12,725 111 363 1024
2019-05-27 12:02:53 GMT 52.266014 9.813616 12,725 111 365 1024
2019-05-27 12:02:50 GMT 52.268005 9.805374 12,675 111 362 1024
2019-05-27 12:02:47 GMT 52.269924 9.797372 12,625 111 359 1024
2019-05-27 12:02:44 GMT 52.271973 9.789211 12,500 111 354 1088
2019-05-27 12:02:40 GMT 52.274368 9.779205 12,525 111 351 1088
2019-05-27 12:02:37 GMT 52.275650 9.773594 12,425 111 347 1024
2019-05-27 12:02:33 GMT 52.277790 9.764962 12,325 111 344 960
2019-05-27 12:02:30 GMT 52.281189 9.750759 12,300 111 341 896
2019-05-27 12:02:24 GMT 52.283249 9.742661 12,250 111 337 832
2019-05-27 12:02:21 GMT 52.285378 9.733965 12,175 111 327 1024
2019-05-27 12:02:18 GMT 52.287426 9.725176 12,150 111 328 1024
2019-05-27 12:02:14 GMT 52.288776 9.719997 11,975 111 311 2240
2019-05-27 12:02:11 GMT 52.290253 9.714127 12,025 111 317 1856
2019-05-27 12:02:07 GMT 52.292770 9.703674 11,950 111 319 1472
2019-05-27 12:02:04 GMT 52.294735 9.695435 11,850 111 315 2112
2019-05-27 12:02:01 GMT 52.296272 9.689471 11,775 111 315 2112
2019-05-27 12:01:58 GMT 52.297810 9.683114 11,450 111 312 2112
2019-05-27 12:01:55 GMT 52.299362 9.676819 11,575 111 313 2368
2019-05-27 12:01:52 GMT 52.301392 9.668283 11,400 111 312 2112
2019-05-27 12:01:49 GMT 52.302750 9.662628 11,275 111 311 2240
2019-05-27 12:01:45 GMT 52.305267 9.652100 11,150 111 310 2176
2019-05-27 12:01:41 GMT 52.306732 9.646225 11,050 111 310 2240
2019-05-27 12:01:38 GMT 52.308281 9.639640 10,925 111 307 2432
2019-05-27 12:01:35 GMT 52.310192 9.631714 10,800 110 307 2496
2019-05-27 12:01:32 GMT 52.312008 9.624023 10,575 110 306 2432
2019-05-27 12:01:28 GMT 52.313774 9.616333 10,500 110 306 2432
2019-05-27 12:01:25 GMT 52.314651 9.612122 10,400 110 305 2496
2019-05-27 12:01:22 GMT 52.316711 9.603195 10,175 109 304 3072
2019-05-27 12:01:18 GMT 52.318954 9.593353 10,025 109 304 3072
2019-05-27 12:01:15 GMT 52.319874 9.589103 9,925 109 304 3136
2019-05-27 12:01:09 GMT 52.323318 9.573015 9,575 108 303 2816
2019-05-27 12:01:06 GMT 52.323784 9.570975 9,525 108 302 2880
2019-05-27 12:01:03 GMT 52.325043 9.564896 9,375 108 303 2752
2019-05-27 12:01:00 GMT 52.327011 9.554901 9,175 108 302 2752
2019-05-27 12:00:57 GMT 52.328018 9.550095 9,075 107 302 2944
2019-05-27 12:00:53 GMT 52.329601 9.542018 8,875 108 302 2560
2019-05-27 12:00:50 GMT 52.331421 9.532994 8,650 109 303 1984
2019-05-27 12:00:47 GMT 52.332722 9.526794 8,625 110 303 1920
2019-05-27 12:00:42 GMT 52.334866 9.517613 8,475 117 300 1856
2019-05-27 12:00:39 GMT 52.337006 9.510393 8,425 151 278 2816
2019-05-27 12:00:36 GMT 52.338638 9.506302 8,325 126 296 1792
2019-05-27 12:00:31 GMT 52.342453 9.498308 8,250 133 292 1536
2019-05-27 12:00:28 GMT 52.345642 9.492798 8,150 141 287 2048
2019-05-27 12:00:25 GMT 52.349442 9.487534 8,050 144 284 2240
2019-05-27 12:00:21 GMT 52.356606 9.480181 7,850 153 277 2944
2019-05-27 12:00:18 GMT 52.359768 9.477748 7,775 156 276 2944
2019-05-27 12:00:15 GMT 52.359768 9.477748 7,675 159 274 3008
2019-05-27 12:00:11 GMT 52.364563 9.474845 7,475 167 271 3200
2019-05-27 12:00:07 GMT 52.373268 9.471941 7,200 175 269 3328
2019-05-27 12:00:04 GMT 52.373268 9.471941 7,100 194 266 3072
2019-05-27 12:00:00 GMT 52.377876 9.471627 6,925 184 268 3584
2019-05-27 11:59:55 GMT 52.385880 9.472885 6,550 194 266 3072
2019-05-27 11:59:47 GMT 52.392960 9.476257 6,200 203 263 2816
2019-05-27 11:59:44 GMT 52.397152 9.479239 6,025 207 261 2816
2019-05-27 11:59:38 GMT 52.403915 9.485016 5,675 208 259 2688
2019-05-27 11:59:34 GMT 52.414932 9.494542 4,775 208 259 2880
2019-05-27 11:59:28 GMT 52.414932 9.494542 5,175 208 259 2880
2019-05-27 11:59:24 GMT 52.418705 9.497602 5,075 207 258 2880
2019-05-27 11:59:21 GMT 52.420658 9.499250 4,975 207 258 2944
2019-05-27 11:59:17 GMT 52.426071 9.503784 4,675 207 258 2944
2019-05-27 11:59:14 GMT 52.429459 9.506531 4,500 208 257 3136
2019-05-27 11:59:11 GMT 52.432205 9.508745 4,450 208 256 3136
2019-05-27 11:59:06 GMT 52.437241 9.513092 4,150 211 256 3456
2019-05-27 11:59:03 GMT 52.441143 9.516671 4,050 212 255 3328
2019-05-27 11:59:00 GMT 52.443283 9.518869 3,800 217 255 2432
2019-05-27 11:58:56 GMT 52.450172 9.528756 3,550 233 250 1664
2019-05-27 11:58:52 GMT 52.450172 9.528756 3,400 239 248 1344
2019-05-27 11:58:46 GMT 52.454643 9.540449 3,325 250 242 768
2019-05-27 11:58:40 GMT 52.456551 9.550258 3,250 258 235 896
2019-05-27 11:58:33 GMT 52.457428 9.561081 3,100 271 221 1472
2019-05-27 11:58:30 GMT 52.457481 9.566659 3,025 270 223 1408
2019-05-27 11:58:23 GMT 52.457294 9.578116 2,775 272 207 1408
2019-05-27 11:58:19 GMT 52.457199 9.583817 2,700 273 203 960
2019-05-27 11:58:15 GMT 52.457062 9.590594 2,600 273 198 1024
2019-05-27 11:58:11 GMT 52.456924 9.596244 2,575 273 196 1088
2019-05-27 11:58:08 GMT 52.456833 9.599915 2,500 272 190 1024
2019-05-27 11:58:03 GMT 52.456696 9.608307 2,400 272 182 960
2019-05-27 11:57:58 GMT 52.456558 9.615250 2,350 272 179 1344
2019-05-27 11:57:53 GMT 52.456375 9.624634 2,175 273 170 896
2019-05-27 11:57:47 GMT 52.456238 9.628906 2,100 273 165 1216
2019-05-27 11:57:42 GMT 52.456039 9.636815 1,975 273 159 1280
2019-05-27 11:57:39 GMT 52.455994 9.638777 1,925 273 157 1344
2019-05-27 11:57:36 GMT 52.455853 9.643877 1,825 273 152 1472
2019-05-27 11:57:29 GMT 52.455643 9.651794 1,675 273 146 2048
2019-05-27 11:57:25 GMT 52.455528 9.655256 1,425 274 145 2624
2019-05-27 11:57:21 GMT 52.455368 9.659500 1,375 273 145 2496
2019-05-27 11:57:17 GMT 52.455276 9.663315 1,250 272 146 2496
2019-05-27 11:57:11 GMT 52.455093 9.671249 925 273 149 2816

Making use of Plane Finder data

You are free to use the raw flight data, aircraft information and images provided in this report for your own purposes provided the data is correctly attributed to Plane Finder. We ask that you please credit Plane Finder and link to planefinder.net in close proximity to the content.

Optionally one of the following logos (no smaller then 150x24px) can be used and must link to planefinder.net

Embedding the Plane Finder map

You are welcome to embed the Plane Finder playback map on your website to offer visitors a more interactive experience. We suggest using the following HTML code:

<iframe src="//planefinder.net/data/report/TK1552-TC-JSH-7700-squawk-2019-05-27/map" width="800" height="600" seamless="seamless"></iframe>

Where our data comes from

Plane Finder has a global network of data feeds and antenna radars that receive data broadcast directly from aircraft. The primary technologies used are ADS-B and MLAT. We also show feeds from the FAA and a FLARM glider feed.

Click here to find out more about the Plane Finder network.

How we collect our data